Provisional Data: Blockhouse Creek near English Center, PA


Please select a monitoring station.
Please select start date.
Please select start date.

Toggle Unit: C/F Toggle Unit: C/F
Sample Time Temperature (C) Temperature (F) Specific Conductivity (mS/cm) pH   Turbidity (NTU+) DO (mg/L)
5/4/2021 12:00:00 AM 11.25 52.25 0.087 7.41 2.34 10.24
5/4/2021 12:15:00 AM 11.24 52.232 0.087 7.41 2.33 10.25
5/4/2021 12:30:00 AM 11.23 52.214 0.087 7.42 2.51 10.25
5/4/2021 12:45:00 AM 11.21 52.178 0.088 7.41 2.34 10.25
5/4/2021 1:00:00 AM 11.2 52.16 0.088 7.42 2.3 10.26
5/4/2021 1:15:00 AM 11.18 52.124 0.088 7.41 2.29 10.26
5/4/2021 1:30:00 AM 11.16 52.088 0.088 7.42 2.34 10.27
5/4/2021 1:45:00 AM 11.15 52.07 0.089 7.42 2.49 10.27
5/4/2021 2:00:00 AM 11.14 52.052 0.089 7.43 2.38 10.27
5/4/2021 2:15:00 AM 11.13 52.034 0.09 7.43 2.46 10.28
5/4/2021 2:30:00 AM 11.12 52.016 0.09 7.43 2.35 10.28
5/4/2021 2:45:00 AM 11.11 51.998 0.091 7.44 2.14 10.28
5/4/2021 3:00:00 AM 11.11 51.998 0.091 7.44 2.29 10.29
5/4/2021 3:15:00 AM 11.09 51.962 0.092 7.44 2.23 10.29
5/4/2021 3:30:00 AM 11.08 51.944 0.092 7.44 2.33 10.29
5/4/2021 3:45:00 AM 11.06 51.908 0.093 7.44 2.28 10.3
5/4/2021 4:00:00 AM 11.05 51.89 0.093 7.44 2.18 10.3
5/4/2021 4:15:00 AM 11.03 51.854 0.093 7.44 2.37 10.3
5/4/2021 4:30:00 AM 11.02 51.836 0.093 7.44 2.1 10.3
5/4/2021 4:45:00 AM 11.01 51.818 0.094 7.44 2.17 10.31
5/4/2021 5:00:00 AM 10.99 51.782 0.094 7.44 2.17 10.31
5/4/2021 5:15:00 AM 10.98 51.764 0.094 7.44 2.21 10.31
5/4/2021 5:30:00 AM 10.96 51.728 0.094 7.43 2.31 10.32
5/4/2021 5:45:00 AM 10.94 51.692 0.094 7.43 2.37 10.33
5/4/2021 6:00:00 AM 10.93 51.674 0.095 7.43 2.13 10.33
5/4/2021 6:15:00 AM 10.91 51.638 0.095 7.43 2.16 10.34
5/4/2021 6:30:00 AM 10.91 51.638 0.095 7.44 2.22 10.36
5/4/2021 6:45:00 AM 10.89 51.602 0.096 7.45 2.12 10.38
5/4/2021 7:00:00 AM 10.88 51.584 0.096 7.45 2.09 10.41
5/4/2021 7:15:00 AM 10.88 51.584 0.096 7.47 2.13 10.46
5/4/2021 7:30:00 AM 10.87 51.566 0.096 7.47 2.01 10.49
5/4/2021 7:45:00 AM 10.87 51.566 0.096 7.48 2 10.55
5/4/2021 8:00:00 AM 10.88 51.584 0.096 7.51 1.91 10.67
5/4/2021 8:15:00 AM 10.9 51.62 0.096 7.54 1.77 10.76
5/4/2021 8:30:00 AM 10.93 51.674 0.096 7.58 1.77 10.85
5/4/2021 8:45:00 AM 10.94 51.692 0.096 7.59 1.75 10.85
5/4/2021 9:00:00 AM 10.96 51.728 0.095 7.61 2.14 10.88
5/4/2021 9:15:00 AM 11.07 51.926 0.095 7.67 1.71 11
5/4/2021 9:30:00 AM 11.16 52.088 0.095 7.71 1.68 11.09
5/4/2021 9:45:00 AM 11.26 52.268 0.095 7.75 1.7 11.13
5/4/2021 10:00:00 AM 11.39 52.502 0.095 7.78 1.65 11.14
5/4/2021 10:15:00 AM 11.53 52.754 0.095 7.82 1.68 11.17
5/4/2021 10:30:00 AM 11.73 53.114 0.095 7.85 1.8 11.15
5/4/2021 10:45:00 AM 11.99 53.582 0.094 7.9 1.7 11.14
5/4/2021 11:00:00 AM 12.26 54.068 0.094 7.94 1.66 11.14
5/4/2021 11:15:00 AM 12.56 54.608 0.094 7.97 1.63 11.1
5/4/2021 11:30:00 AM 12.62 54.716 0.094 7.97 1.66 11.06
5/4/2021 11:45:00 AM 12.77 54.986 0.094 8.03 1.66 11.04
5/4/2021 12:00:00 PM 13.07 55.526 0.094 8.07 1.74 11.02
5/4/2021 12:15:00 PM 13.19 55.742 0.093 8.05 1.64 10.98
5/4/2021 12:30:00 PM 13.45 56.21 0.093 8.1 1.72 10.96
5/4/2021 12:45:00 PM 13.62 56.516 0.093 8.14 1.88 10.92
5/4/2021 1:00:00 PM 13.75 56.75 0.093 8.15 1.65 10.88
5/4/2021 1:15:00 PM 13.92 57.056 0.093 8.13 1.58 10.85
5/4/2021 1:30:00 PM 14.03 57.254 0.093 8.19 1.72 10.82
5/4/2021 1:45:00 PM 14.29 57.722 0.093 8.27 1.77 10.82
5/4/2021 2:00:00 PM 14.47 58.046 0.093 8.28 1.74 10.79
5/4/2021 2:15:00 PM 14.59 58.262 0.093 8.27 1.68 10.77
5/4/2021 2:30:00 PM 14.67 58.406 0.093 8.27 1.98 10.72
5/4/2021 2:45:00 PM 14.75 58.55 0.093 8.28 1.73 10.69
5/4/2021 3:00:00 PM 14.88 58.784 0.092 8.31 1.87 10.68
5/4/2021 3:15:00 PM 14.96 58.928 0.092 8.29 1.81 10.64
5/4/2021 3:30:00 PM 14.95 58.91 0.093 8.21 1.77 10.54
5/4/2021 3:45:00 PM 14.93 58.874 0.093 8.13 1.92 10.44
5/4/2021 4:00:00 PM 14.89 58.802 0.093 8.06 1.75 10.38
5/4/2021 4:15:00 PM 14.82 58.676 0.093 7.96 1.75 10.23
5/4/2021 4:30:00 PM 14.77 58.586 0.093 7.91 1.91 10.24
5/4/2021 4:45:00 PM 14.71 58.478 0.093 7.85 2.04 10.13
5/4/2021 5:00:00 PM 14.69 58.442 0.092 7.79 2.44 10.07
5/4/2021 5:15:00 PM 14.64 58.352 0.092 7.82 2.64 10.17
5/4/2021 5:30:00 PM 14.6 58.28 0.092 7.84 2.76 10.24
5/4/2021 5:45:00 PM 14.53 58.154 0.092 7.85 2.68 10.28
5/4/2021 6:00:00 PM 14.46 58.028 0.092 7.84 3.11 10.27
5/4/2021 6:15:00 PM 14.4 57.92 0.092 7.82 3.62 10.23
5/4/2021 6:30:00 PM 14.34 57.812 0.092 7.78 3.11 10.16
5/4/2021 6:45:00 PM 14.28 57.704 0.091 7.76 2.78 10.17
5/4/2021 7:00:00 PM 14.22 57.596 0.091 7.72 2.62 10.12
5/4/2021 7:15:00 PM 14.15 57.47 0.091 7.69 2.64 10.05
5/4/2021 7:30:00 PM 14.09 57.362 0.092 7.64 2.78 9.94
5/4/2021 7:45:00 PM 14.02 57.236 0.092 7.59 2.29 9.86
5/4/2021 8:00:00 PM 13.94 57.092 0.092 7.55 2.5 9.78
5/4/2021 8:15:00 PM 13.87 56.966 0.093 7.51 2.72 9.72
5/4/2021 8:30:00 PM 13.81 56.858 0.093 7.49 2.64 9.68
5/4/2021 8:45:00 PM 13.75 56.75 0.093 7.47 2.63 9.66
5/4/2021 9:00:00 PM 13.7 56.66 0.093 7.46 2.64 9.64
5/4/2021 9:15:00 PM 13.63 56.534 0.093 7.45 2.93 9.64
5/4/2021 9:30:00 PM 13.57 56.426 0.093 7.44 2.84 9.64
5/4/2021 9:45:00 PM 13.5 56.3 0.093 7.43 2.74 9.64
5/4/2021 10:00:00 PM 13.43 56.174 0.094 7.42 2.79 9.65
5/4/2021 10:15:00 PM 13.36 56.048 0.094 7.42 2.73 9.66
5/4/2021 10:30:00 PM 13.29 55.922 0.094 7.41 2.76 9.67
5/4/2021 10:45:00 PM 13.22 55.796 0.094 7.41 2.84 9.69
5/4/2021 11:00:00 PM 13.16 55.688 0.095 7.4 2.64 9.7
5/4/2021 11:15:00 PM 13.09 55.562 0.095 7.4 3.06 9.71
5/4/2021 11:30:00 PM 13.03 55.454 0.095 7.4 2.62 9.73
5/4/2021 11:45:00 PM 12.97 55.346 0.095 7.39 2.77 9.75
5/5/2021 12:00:00 AM 12.91 55.238 0.095 7.39 2.99 9.76
5/5/2021 12:15:00 AM 12.86 55.148 0.095 7.38 11.31 9.77
5/5/2021 12:30:00 AM 12.8 55.04 0.096 7.38 2.81 9.79
5/5/2021 12:45:00 AM 12.76 54.968 0.096 7.38 2.51 9.8
5/5/2021 1:00:00 AM 12.71 54.878 0.096 7.38 2.7 9.81
5/5/2021 1:15:00 AM 12.67 54.806 0.096 7.38 2.63 9.82
5/5/2021 1:30:00 AM 12.63 54.734 0.096 7.38 2.53 9.83
5/5/2021 1:45:00 AM 12.59 54.662 0.096 7.38 2.62 9.84
5/5/2021 2:00:00 AM 12.56 54.608 0.096 7.38 2.44 9.85
5/5/2021 2:15:00 AM 12.52 54.536 0.096 7.38 2.42 9.86
5/5/2021 2:30:00 AM 12.48 54.464 0.096 7.38 2.49 9.87
5/5/2021 2:45:00 AM 12.44 54.392 0.097 7.38 2.42 9.88
5/5/2021 3:00:00 AM 12.41 54.338 0.097 7.38 2.36 9.89
5/5/2021 3:15:00 AM 12.37 54.266 0.097 7.39 2.39 9.91
5/5/2021 3:30:00 AM 12.31 54.158 0.097 7.39 2.65 9.91
5/5/2021 3:45:00 AM 12.26 54.068 0.097 7.4 2.8 9.93
5/5/2021 4:00:00 AM 12.21 53.978 0.097 7.39 2.29 9.94
5/5/2021 4:15:00 AM 12.17 53.906 0.097 7.39 2.57 9.95
5/5/2021 4:30:00 AM 12.12 53.816 0.097 7.39 2.36 9.96
5/5/2021 4:45:00 AM 12.08 53.744 0.097 7.39 2.31 9.97
5/5/2021 5:00:00 AM 12.04 53.672 0.097 7.39 6.08 9.98
5/5/2021 5:15:00 AM 12.01 53.618 0.098 7.39 2.31 9.99
5/5/2021 5:30:00 AM 11.98 53.564 0.098 7.39 2.37 10
5/5/2021 5:45:00 AM 11.95 53.51 0.098 7.39 2.55 10.02
5/5/2021 6:00:00 AM 11.92 53.456 0.098 7.39 2.22 10.02
5/5/2021 6:15:00 AM 11.89 53.402 0.098 7.39 2.31 10.04
5/5/2021 6:30:00 AM 11.86 53.348 0.098 7.39 2.17 10.05
5/5/2021 6:45:00 AM 11.84 53.312 0.098 7.4 2.12 10.07
5/5/2021 7:00:00 AM 11.82 53.276 0.098 7.41 2.24 10.11
5/5/2021 7:15:00 AM 11.8 53.24 0.098 7.42 2.1 10.18
5/5/2021 7:30:00 AM 11.79 53.222 0.098 7.43 2.07 10.25
5/5/2021 7:45:00 AM 11.77 53.186 0.098 7.45 2.11 10.31
5/5/2021 8:00:00 AM 11.76 53.168 0.098 7.46 1.92 10.35
5/5/2021 8:15:00 AM 11.75 53.15 0.098 7.48 1.94 10.4
5/5/2021 8:30:00 AM 11.75 53.15 0.098 7.5 2.02 10.45
5/5/2021 8:45:00 AM 11.75 53.15 0.098 7.53 1.89 10.53
5/5/2021 9:00:00 AM 11.76 53.168 0.098 7.54 2.02 10.54
5/5/2021 9:15:00 AM 11.75 53.15 0.098 7.56 1.92 10.56
5/5/2021 9:30:00 AM 11.75 53.15 0.098 7.56 1.9 10.55
5/5/2021 9:45:00 AM 11.75 53.15 0.098 7.57 1.94 10.52
5/5/2021 10:00:00 AM 11.76 53.168 0.097 7.58 2.02 10.57
5/5/2021 10:15:00 AM 11.76 53.168 0.097 7.6 1.96 10.61
5/5/2021 10:30:00 AM 11.78 53.204 0.097 7.62 2.04 10.68
5/5/2021 10:45:00 AM 11.78 53.204 0.097 7.64 2.1 10.71
5/5/2021 11:00:00 AM 11.78 53.204 0.096 7.65 2.01 10.73
5/5/2021 11:15:00 AM 11.8 53.24 0.096 7.67 2.01 10.76
5/5/2021 11:30:00 AM 11.82 53.276 0.096 7.69 2.21 10.8
5/5/2021 11:45:00 AM 11.82 53.276 0.096 7.69 2.15 10.75
5/5/2021 12:00:00 PM 11.82 53.276 0.095 7.67 2.11 10.71
5/5/2021 12:15:00 PM 11.83 53.294 0.095 7.67 2.17 10.7
5/5/2021 12:30:00 PM 11.85 53.33 0.095 7.68 2.49 10.73
5/5/2021 12:45:00 PM 11.89 53.402 0.094 7.72 2.17 10.84
5/5/2021 1:00:00 PM 11.91 53.438 0.094 7.76 2.24 10.9
5/5/2021 1:15:00 PM 11.95 53.51 0.094 7.81 2.62 10.96
5/5/2021 1:30:00 PM 12 53.6 0.094 7.85 2.45 11.01
5/5/2021 1:45:00 PM 12.03 53.654 0.094 7.88 2.34 11.02
5/5/2021 2:00:00 PM 12.02 53.636 0.094 7.88 2.33 11.01
5/5/2021 2:15:00 PM 11.99 53.582 0.094 7.87 2.31 10.96
5/5/2021 2:30:00 PM 12.03 53.654 0.094 7.92 2.29 11.01
5/5/2021 2:45:00 PM 12.07 53.726 0.094 7.94 2.29 11.05
5/5/2021 3:00:00 PM 12.09 53.762 0.095 7.97 2.55 11.09
5/5/2021 3:15:00 PM 12.12 53.816 0.095 7.97 2.5 11.08
5/5/2021 3:30:00 PM 12.16 53.888 0.095 7.99 2.51 11.09
5/5/2021 3:45:00 PM 12.24 54.032 0.095 8.05 2.48 11.1
5/5/2021 4:00:00 PM 12.27 54.086 0.096 8.02 2.53 11.08
5/5/2021 4:15:00 PM 12.27 54.086 0.096 7.98 2.7 11.02
5/5/2021 4:30:00 PM 12.24 54.032 0.097 7.93 2.99 10.92
5/5/2021 4:45:00 PM 12.2 53.96 0.097 7.87 2.9 10.82
5/5/2021 5:00:00 PM 12.2 53.96 0.098 7.85 2.85 10.8
5/5/2021 5:15:00 PM 12.17 53.906 0.098 7.85 3.42 10.8
5/5/2021 5:30:00 PM 12.14 53.852 0.098 7.85 2.83 10.83
5/5/2021 5:45:00 PM 12.13 53.834 0.099 7.86 2.79 10.86
5/5/2021 6:00:00 PM 12.09 53.762 0.099 7.85 2.72 10.85
5/5/2021 6:15:00 PM 12.06 53.708 0.099 7.84 2.73 10.84
5/5/2021 6:30:00 PM 11.99 53.582 0.1 7.81 2.81 10.76
5/5/2021 6:45:00 PM 11.96 53.528 0.1 7.78 2.72 10.72
5/5/2021 7:00:00 PM 11.87 53.366 0.1 7.76 2.77 10.7
5/5/2021 7:15:00 PM 11.8 53.24 0.101 7.72 2.95 10.6
5/5/2021 7:30:00 PM 11.73 53.114 0.101 7.68 2.83 10.52
5/5/2021 7:45:00 PM 11.64 52.952 0.101 7.64 2.88 10.45
5/5/2021 8:00:00 PM 11.57 52.826 0.102 7.62 2.88 10.4
5/5/2021 8:15:00 PM 11.51 52.718 0.102 7.6 3.01 10.38
5/5/2021 8:30:00 PM 11.43 52.574 0.103 7.58 2.95 10.36
5/5/2021 8:45:00 PM 11.36 52.448 0.103 7.56 2.94 10.33
5/5/2021 9:00:00 PM 11.3 52.34 0.104 7.55 3.03 10.33
5/5/2021 9:15:00 PM 11.23 52.214 0.104 7.54 3.07 10.32
5/5/2021 9:30:00 PM 11.17 52.106 0.104 7.54 2.97 10.32
5/5/2021 9:45:00 PM 11.11 51.998 0.104 7.53 3.08 10.33
5/5/2021 10:00:00 PM 11.04 51.872 0.105 7.53 3.11 10.34
5/5/2021 10:15:00 PM 10.98 51.764 0.105 7.53 3.37 10.35
5/5/2021 10:30:00 PM 10.91 51.638 0.105 7.52 3.02 10.37
5/5/2021 10:45:00 PM 10.85 51.53 0.105 7.52 3.17 10.39
5/5/2021 11:00:00 PM 10.78 51.404 0.105 7.52 2.98 10.4
5/5/2021 11:15:00 PM 10.73 51.314 0.105 7.52 3.2 10.41
5/5/2021 11:30:00 PM 10.66 51.188 0.106 7.51 3.17 10.43
5/5/2021 11:45:00 PM 10.59 51.062 0.106 7.51 3.16 10.45
5/6/2021 12:00:00 AM 10.52 50.936 0.106 7.51 3.01 10.47
5/6/2021 12:15:00 AM 10.47 50.846 0.106 7.51 2.94 10.48
5/6/2021 12:30:00 AM 10.39 50.702 0.106 7.51 2.89 10.49
5/6/2021 12:45:00 AM 10.33 50.594 0.106 7.5 2.94 10.51
5/6/2021 1:00:00 AM 10.28 50.504 0.106 7.5 3.01 10.53
5/6/2021 1:15:00 AM 10.24 50.432 0.106 7.5 2.93 10.54
5/6/2021 1:30:00 AM 10.2 50.36 0.106 7.5 2.88 10.56
5/6/2021 1:45:00 AM 10.14 50.252 0.106 7.5 2.97 10.57
5/6/2021 2:00:00 AM 10.09 50.162 0.106 7.5 2.8 10.58
5/6/2021 2:15:00 AM 10.04 50.072 0.106 7.5 2.77 10.6
5/6/2021 2:30:00 AM 9.99 49.982 0.106 7.5 2.84 10.61
5/6/2021 2:45:00 AM 9.94 49.892 0.106 7.5 2.75 10.63
5/6/2021 3:00:00 AM 9.89 49.802 0.105 7.49 2.81 10.64
5/6/2021 3:15:00 AM 9.84 49.712 0.105 7.49 2.87 10.65
5/6/2021 3:30:00 AM 9.8 49.64 0.105 7.49 2.76 10.67
5/6/2021 3:45:00 AM 9.76 49.568 0.105 7.49 2.93 10.69
5/6/2021 4:00:00 AM 9.71 49.478 0.105 7.49 2.65 10.69
5/6/2021 4:15:00 AM 9.67 49.406 0.105 7.49 2.65 10.71
5/6/2021 4:30:00 AM 9.63 49.334 0.105 7.49 2.69 10.72
5/6/2021 4:45:00 AM 9.6 49.28 0.105 7.49 2.66 10.74
5/6/2021 5:00:00 AM 9.55 49.19 0.104 7.49 2.7 10.75
5/6/2021 5:15:00 AM 9.51 49.118 0.104 7.49 2.66 10.76
5/6/2021 5:30:00 AM 9.48 49.064 0.104 7.49 2.71 10.77
5/6/2021 5:45:00 AM 9.44 48.992 0.104 7.49 2.65 10.78
5/6/2021 6:00:00 AM 9.41 48.938 0.104 7.49 2.68 10.8
5/6/2021 6:15:00 AM 9.37 48.866 0.104 7.49 2.59 10.83
5/6/2021 6:30:00 AM 9.34 48.812 0.104 7.5 2.46 10.88
5/6/2021 6:45:00 AM 9.31 48.758 0.104 7.51 2.52 10.96
5/6/2021 7:00:00 AM 9.27 48.686 0.104 7.53 2.48 11.03
5/6/2021 7:15:00 AM 9.23 48.614 0.103 7.55 2.56 11.11
5/6/2021 7:30:00 AM 9.21 48.578 0.103 7.58 2.52 11.22
5/6/2021 7:45:00 AM 9.2 48.56 0.103 7.6 2.44 11.31
5/6/2021 8:00:00 AM 9.2 48.56 0.103 7.63 2.43 11.37
5/6/2021 8:15:00 AM 9.21 48.578 0.103 7.64 2.41 11.43
5/6/2021 8:30:00 AM 9.24 48.632 0.102 7.67 2.27 11.48
5/6/2021 8:45:00 AM 9.28 48.704 0.102 7.69 2.37 11.52
5/6/2021 9:00:00 AM 9.38 48.884 0.102 7.72 2.66 11.55
5/6/2021 9:15:00 AM 9.49 49.082 0.102 7.75 2.28 11.6
5/6/2021 9:30:00 AM 9.58 49.244 0.102 7.77 2.22 11.62
5/6/2021 9:45:00 AM 9.62 49.316 0.102 7.78 2.36 11.63
5/6/2021 10:00:00 AM 9.65 49.37 0.102 7.8 2.27 11.64
5/6/2021 10:15:00 AM 9.87 49.766 0.101 7.85 2.27 11.65
5/6/2021 10:30:00 AM 10.06 50.108 0.101 7.86 2.28 11.63
5/6/2021 10:45:00 AM 10.13 50.234 0.101 7.88 2.39 11.63
5/6/2021 11:00:00 AM 10.37 50.666 0.101 7.93 2.24 11.61
5/6/2021 11:15:00 AM 10.69 51.242 0.101 7.95 2.19 11.59
5/6/2021 11:30:00 AM 10.79 51.422 0.101 7.96 2.3 11.56
5/6/2021 11:45:00 AM 11.09 51.962 0.1 8.04 2.35 11.55
5/6/2021 12:00:00 PM 11.28 52.304 0.1 8.06 2.06 11.51
5/6/2021 12:15:00 PM 11.32 52.376 0.1 8.05 2.42 11.48
5/6/2021 12:30:00 PM 11.48 52.664 0.1 8.12 2.33 11.47
5/6/2021 12:45:00 PM 11.7 53.06 0.1 8.13 2.34 11.44
5/6/2021 1:00:00 PM 11.84 53.312 0.1 8.14 2.36 11.41
5/6/2021 1:15:00 PM 12.08 53.744 0.1 8.2 2.25 11.38
5/6/2021 1:30:00 PM 12.19 53.942 0.1 8.2 2.37 11.36
5/6/2021 1:45:00 PM 12.27 54.086 0.1 8.23 2.31 11.34
5/6/2021 2:00:00 PM 12.4 54.32 0.099 8.26 2.33 11.32
5/6/2021 2:15:00 PM 12.53 54.554 0.099 8.28 2.2 11.3
5/6/2021 2:30:00 PM 12.61 54.698 0.099 8.28 2.3 11.27
5/6/2021 2:45:00 PM 12.69 54.842 0.099 8.29 2.27 11.25
5/6/2021 3:00:00 PM 12.81 55.058 0.099 8.3 2.33 11.23
5/6/2021 3:15:00 PM 12.9 55.22 0.099 8.26 2.27 11.17
5/6/2021 3:30:00 PM 12.91 55.238 0.099 8.26 2.25 11.15
5/6/2021 3:45:00 PM 13.02 55.436 0.099 8.22 2.45 11.11
5/6/2021 4:00:00 PM 13.09 55.562 0.099 8.23 2.47 11.08
5/6/2021 4:15:00 PM 13.14 55.652 0.098 8.21 2.37 11.05
5/6/2021 4:30:00 PM 13.18 55.724 0.098 8.19 2.45 11.03
5/6/2021 4:45:00 PM 13.13 55.634 0.098 8.18 2.4 10.99
5/6/2021 5:00:00 PM 13.1 55.58 0.098 8.16 2.38 10.97
5/6/2021 5:15:00 PM 13.04 55.472 0.098 8.14 2.36 10.95
5/6/2021 5:30:00 PM 12.94 55.292 0.098 8.11 2.59 10.94
5/6/2021 5:45:00 PM 12.9 55.22 0.098 8.08 2.49 10.92
5/6/2021 6:00:00 PM 12.84 55.112 0.098 8.06 2.42 10.91
5/6/2021 6:15:00 PM 12.76 54.968 0.098 8.01 2.62 10.85
5/6/2021 6:30:00 PM 12.66 54.788 0.098 7.95 2.62 10.78
5/6/2021 6:45:00 PM 12.57 54.626 0.098 7.89 2.7 10.72
5/6/2021 7:00:00 PM 12.48 54.464 0.098 7.85 2.55 10.69
5/6/2021 7:15:00 PM 12.37 54.266 0.098 7.79 2.71 10.59
5/6/2021 7:30:00 PM 12.27 54.086 0.098 7.74 2.81 10.51
5/6/2021 7:45:00 PM 12.15 53.87 0.098 7.69 2.6 10.46
5/6/2021 8:00:00 PM 12.03 53.654 0.098 7.65 3.01 10.39
5/6/2021 8:15:00 PM 11.91 53.438 0.098 7.61 2.72 10.34
5/6/2021 8:30:00 PM 11.78 53.204 0.098 7.57 3.01 10.29
5/6/2021 8:45:00 PM 11.65 52.97 0.098 7.55 2.74 10.25
5/6/2021 9:00:00 PM 11.53 52.754 0.098 7.53 2.84 10.25
5/6/2021 9:15:00 PM 11.4 52.52 0.098 7.51 3.01 10.25
5/6/2021 9:30:00 PM 11.27 52.286 0.098 7.5 2.91 10.27
5/6/2021 9:45:00 PM 11.15 52.07 0.098 7.49 2.98 10.29
5/6/2021 10:00:00 PM 11.02 51.836 0.098 7.49 2.9 10.31
5/6/2021 10:15:00 PM 10.89 51.602 0.098 7.48 2.96 10.34
5/6/2021 10:30:00 PM 10.77 51.386 0.098 7.47 2.92 10.37
5/6/2021 10:45:00 PM 10.65 51.17 0.098 7.47 3.02 10.39
5/6/2021 11:00:00 PM 10.53 50.954 0.098 7.47 2.86 10.42
5/6/2021 11:15:00 PM 10.42 50.756 0.098 7.46 2.94 10.45
5/6/2021 11:30:00 PM 10.3 50.54 0.098 7.46 2.91 10.49
5/6/2021 11:45:00 PM 10.19 50.342 0.098 7.46 3.02 10.52
5/7/2021 12:00:00 AM 10.08 50.144 0.098 7.46 3 10.54
5/7/2021 12:15:00 AM 9.98 49.964 0.098 7.46 2.84 10.57
5/7/2021 12:30:00 AM 9.87 49.766 0.098 7.46 2.97 10.6
5/7/2021 12:45:00 AM 9.77 49.586 0.098 7.46 3.42 10.62
5/7/2021 1:00:00 AM 9.67 49.406 0.098 7.45 2.82 10.65
5/7/2021 1:15:00 AM 9.57 49.226 0.098 7.45 2.9 10.68
5/7/2021 1:30:00 AM 9.47 49.046 0.098 7.45 3.01 10.7
5/7/2021 1:45:00 AM 9.37 48.866 0.098 7.45 2.99 10.73
5/7/2021 2:00:00 AM 9.28 48.704 0.098 7.45 2.82 10.76
5/7/2021 2:15:00 AM 9.19 48.542 0.098 7.45 5.13 10.78
5/7/2021 2:30:00 AM 9.09 48.362 0.098 7.45 2.91 10.82
5/7/2021 2:45:00 AM 9 48.2 0.098 7.45 2.83 10.83
5/7/2021 3:00:00 AM 8.92 48.056 0.098 7.45 2.88 10.86
5/7/2021 3:15:00 AM 8.84 47.912 0.098 7.44 2.97 10.88
5/7/2021 3:30:00 AM 8.75 47.75 0.098 7.45 2.99 10.91
5/7/2021 3:45:00 AM 8.67 47.606 0.098 7.45 2.92 10.93
5/7/2021 4:00:00 AM 8.59 47.462 0.098 7.44 2.9 10.95
5/7/2021 4:15:00 AM 8.51 47.318 0.097 7.45 2.95 10.97
5/7/2021 4:30:00 AM 8.43 47.174 0.097 7.44 2.97 11
5/7/2021 4:45:00 AM 8.35 47.03 0.097 7.44 3.07 11.02
5/7/2021 5:00:00 AM 8.27 46.886 0.097 7.44 3.02 11.04
5/7/2021 5:15:00 AM 8.2 46.76 0.097 7.44 3.06 11.06
5/7/2021 5:30:00 AM 8.13 46.634 0.097 7.44 3 11.08
5/7/2021 5:45:00 AM 8.06 46.508 0.097 7.44 2.91 11.1
5/7/2021 6:00:00 AM 8 46.4 0.097 7.44 2.9 11.13
5/7/2021 6:15:00 AM 7.94 46.292 0.097 7.45 2.95 11.17
5/7/2021 6:30:00 AM 7.9 46.22 0.097 7.46 2.94 11.25
5/7/2021 6:45:00 AM 7.87 46.166 0.097 7.48 2.78 11.34
5/7/2021 7:00:00 AM 7.85 46.13 0.097 7.5 2.79 11.42
5/7/2021 7:15:00 AM 7.83 46.094 0.096 7.51 2.75 11.47
5/7/2021 7:30:00 AM 7.82 46.076 0.096 7.54 3.08 11.56
5/7/2021 7:45:00 AM 7.83 46.094 0.096 7.57 2.76 11.68
5/7/2021 8:00:00 AM 7.86 46.148 0.096 7.6 2.71 11.78
5/7/2021 8:15:00 AM 7.88 46.184 0.096 7.64 2.72 11.85
5/7/2021 8:30:00 AM 7.92 46.256 0.096 7.67 2.74 11.92
5/7/2021 8:45:00 AM 7.99 46.382 0.095 7.7 2.7 11.96
5/7/2021 9:00:00 AM 8.07 46.526 0.095 7.73 2.66 11.99
5/7/2021 9:15:00 AM 8.14 46.652 0.095 7.76 2.68 12.02
5/7/2021 9:30:00 AM 8.24 46.832 0.095 7.79 2.66 12.04
5/7/2021 9:45:00 AM 8.36 47.048 0.095 7.82 2.53 12.04
5/7/2021 10:00:00 AM 8.47 47.246 0.095 7.85 2.67 12.04
5/7/2021 10:15:00 AM 8.61 47.498 0.094 7.89 2.79 12.05
5/7/2021 10:30:00 AM 8.76 47.768 0.094 7.93 2.61 12.03
5/7/2021 10:45:00 AM 8.87 47.966 0.094 7.94 2.59 12.02
5/7/2021 11:00:00 AM 9.06 48.308 0.094 7.99 2.52 11.99
5/7/2021 11:15:00 AM 9.29 48.722 0.094 8 2.62 11.95
5/7/2021 11:30:00 AM 9.51 49.118 0.094 8.05 2.58 11.9
5/7/2021 11:45:00 AM 9.77 49.586 0.094 8.05 2.57 11.85
5/7/2021 12:00:00 PM 9.92 49.856 0.093 8.07 2.65 11.8
5/7/2021 12:15:00 PM 10.12 50.216 0.093 8.11 2.59 11.77
5/7/2021 12:30:00 PM 10.23 50.414 0.093 8.1 2.65 11.73
5/7/2021 12:45:00 PM 10.37 50.666 0.093 8.13 2.46 11.71
5/7/2021 1:00:00 PM 10.49 50.882 0.093 8.12 2.53 11.66
5/7/2021 1:15:00 PM 10.57 51.026 0.093 8.13 2.75 11.64
5/7/2021 1:30:00 PM 10.61 51.098 0.093 8.08 2.58 11.59
5/7/2021 1:45:00 PM 10.6 51.08 0.093 8.09 2.88 11.56
5/7/2021 2:00:00 PM 10.61 51.098 0.093 8.09 2.76 11.55
5/7/2021 2:15:00 PM 10.62 51.116 0.093 8.04 2.6 11.53
5/7/2021 2:30:00 PM 10.59 51.062 0.093 7.99 2.71 11.43
5/7/2021 2:45:00 PM 10.57 51.026 0.092 7.98 2.68 11.4
5/7/2021 3:00:00 PM 10.58 51.044 0.092 7.98 2.8 11.41
5/7/2021 3:15:00 PM 10.58 51.044 0.092 7.98 2.85 11.42
5/7/2021 3:30:00 PM 10.56 51.008 0.092 7.96 2.81 11.39
5/7/2021 3:45:00 PM 10.55 50.99 0.092 7.91 2.84 11.32
5/7/2021 4:00:00 PM 10.53 50.954 0.092 7.88 2.82 11.27
5/7/2021 4:15:00 PM 10.52 50.936 0.092 7.85 2.99 11.21
5/7/2021 4:30:00 PM 10.51 50.918 0.092 7.83 2.76 11.2
5/7/2021 4:45:00 PM 10.51 50.918 0.092 7.83 3.11 11.23
5/7/2021 5:00:00 PM 10.49 50.882 0.092 7.82 2.93 11.2
5/7/2021 5:15:00 PM 10.47 50.846 0.092 7.8 2.76 11.17
5/7/2021 5:30:00 PM 10.44 50.792 0.092 7.76 2.84 11.09
5/7/2021 5:45:00 PM 10.39 50.702 0.092 7.71 2.84 10.99
5/7/2021 6:00:00 PM 10.35 50.63 0.092 7.67 2.88 10.91
5/7/2021 6:15:00 PM 10.3 50.54 0.092 7.64 2.8 10.87
5/7/2021 6:30:00 PM 10.25 50.45 0.092 7.61 3.01 10.8
5/7/2021 6:45:00 PM 10.18 50.324 0.092 7.58 3.04 10.76
5/7/2021 7:00:00 PM 10.11 50.198 0.091 7.56 3.38 10.73
5/7/2021 7:15:00 PM 10.04 50.072 0.091 7.53 3.35 10.73
5/7/2021 7:30:00 PM 9.97 49.946 0.09 7.52 3.56 10.71
5/7/2021 7:45:00 PM 9.91 49.838 0.09 7.5 3.6 10.69
5/7/2021 8:00:00 PM 9.85 49.73 0.09 7.49 4.23 10.67
5/7/2021 8:15:00 PM 9.8 49.64 0.09 7.48 5.08 10.65
5/7/2021 8:30:00 PM 9.74 49.532 0.089 7.47 4.94 10.65
5/7/2021 8:45:00 PM 9.68 49.424 0.089 7.46 4.72 10.65
5/7/2021 9:00:00 PM 9.62 49.316 0.088 7.45 4.67 10.65
5/7/2021 9:15:00 PM 9.56 49.208 0.088 7.44 4.71 10.65
5/7/2021 9:30:00 PM 9.51 49.118 0.087 7.43 4.98 10.66
5/7/2021 9:45:00 PM 9.46 49.028 0.087 7.43 4.98 10.67
5/7/2021 10:00:00 PM 9.4 48.92 0.086 7.42 5.66 10.69
5/7/2021 10:15:00 PM 9.34 48.812 0.086 7.42 5.24 10.71
5/7/2021 10:30:00 PM 9.29 48.722 0.086 7.41 5.36 10.72
5/7/2021 10:45:00 PM 9.24 48.632 0.086 7.41 5.43 10.74
5/7/2021 11:00:00 PM 9.19 48.542 0.086 7.42 5.49 10.75
5/7/2021 11:15:00 PM 9.15 48.47 0.086 7.42 5.33 10.76
5/7/2021 11:30:00 PM 9.1 48.38 0.086 7.42 5.45 10.79
5/7/2021 11:45:00 PM 9.05 48.29 0.086 7.42 5.29 10.81
5/8/2021 12:00:00 AM 9.01 48.218 0.087 7.42 5.54 10.82
5/8/2021 12:15:00 AM 8.97 48.146 0.087 7.42 5.85 10.83
5/8/2021 12:30:00 AM 8.93 48.074 0.087 7.42 5.6 10.85
5/8/2021 12:45:00 AM 8.89 48.002 0.087 7.42 6.17 10.86
5/8/2021 1:00:00 AM 8.85 47.93 0.087 7.43 6.09 10.88
5/8/2021 1:15:00 AM 8.82 47.876 0.088 7.43 6.17 10.89
5/8/2021 1:30:00 AM 8.79 47.822 0.088 7.43 6.28 10.91
5/8/2021 1:45:00 AM 8.75 47.75 0.09 7.44 6.99 10.92
5/8/2021 2:00:00 AM 8.72 47.696 0.091 7.44 7.14 10.94
5/8/2021 2:15:00 AM 8.69 47.642 0.092 7.44 7.06 10.95
5/8/2021 2:30:00 AM 8.65 47.57 0.094 7.45 7.02 10.96
5/8/2021 2:45:00 AM 8.62 47.516 0.096 7.45 7.41 10.97
5/8/2021 3:00:00 AM 8.59 47.462 0.097 7.46 6.85 10.98
5/8/2021 3:15:00 AM 8.55 47.39 0.099 7.47 7.15 10.99
5/8/2021 3:30:00 AM 8.52 47.336 0.1 7.47 7.45 11
5/8/2021 3:45:00 AM 8.49 47.282 0.101 7.48 6.96 11.01
5/8/2021 4:00:00 AM 8.46 47.228 0.102 7.48 7.06 11.02
5/8/2021 4:15:00 AM 8.43 47.174 0.102 7.49 6.73 11.04
5/8/2021 4:30:00 AM 8.4 47.12 0.102 7.49 6.85 11.04
5/8/2021 4:45:00 AM 8.37 47.066 0.103 7.5 7.33 11.05
5/8/2021 5:00:00 AM 8.34 47.012 0.103 7.5 6.86 11.06
5/8/2021 5:15:00 AM 8.32 46.976 0.104 7.5 6.93 11.06
5/8/2021 5:30:00 AM 8.29 46.922 0.104 7.5 6.78 11.07
5/8/2021 5:45:00 AM 8.27 46.886 0.104 7.51 6.82 11.07
5/8/2021 6:00:00 AM 8.24 46.832 0.105 7.51 7.13 11.09
5/8/2021 6:15:00 AM 8.22 46.796 0.105 7.51 7.1 11.1
5/8/2021 6:30:00 AM 8.2 46.76 0.105 7.52 6.98 11.13
5/8/2021 6:45:00 AM 8.19 46.742 0.105 7.53 6.68 11.17
5/8/2021 7:00:00 AM 8.18 46.724 0.106 7.54 6.98 11.19
5/8/2021 7:15:00 AM 8.18 46.724 0.106 7.55 6.87 11.24
5/8/2021 7:30:00 AM 8.18 46.724 0.107 7.56 6.7 11.29
5/8/2021 7:45:00 AM 8.19 46.742 0.107 7.58 6.59 11.37
5/8/2021 8:00:00 AM 8.2 46.76 0.107 7.6 6.47 11.43
5/8/2021 8:15:00 AM 8.2 46.76 0.107 7.61 6.65 11.44
5/8/2021 8:30:00 AM 8.22 46.796 0.107 7.62 6.38 11.49
5/8/2021 8:45:00 AM 8.26 46.868 0.108 7.64 6.34 11.56
5/8/2021 9:00:00 AM 8.29 46.922 0.108 7.67 6.08 11.61
5/8/2021 9:15:00 AM 8.33 46.994 0.108 7.69 5.79 11.66
5/8/2021 9:30:00 AM 8.39 47.102 0.108 7.73 5.93 11.71
5/8/2021 9:45:00 AM 8.43 47.174 0.108 7.73 5.81 11.74
5/8/2021 10:00:00 AM 8.47 47.246 0.108 7.72 5.76 11.73
5/8/2021 10:15:00 AM 8.47 47.246 0.108 7.72 5.64 11.67
5/8/2021 10:30:00 AM 8.49 47.282 0.108 7.72 5.5 11.65
5/8/2021 10:45:00 AM 8.55 47.39 0.107 7.75 5.56 11.71
5/8/2021 11:00:00 AM 8.58 47.444 0.107 7.75 5.32 11.72
5/8/2021 11:15:00 AM 8.67 47.606 0.107 7.79 5.33 11.78
5/8/2021 11:30:00 AM 8.74 47.732 0.106 7.82 5.19 11.8
5/8/2021 11:45:00 AM 8.9 48.02 0.106 7.9 5.26 11.83
5/8/2021 12:00:00 PM 8.99 48.182 0.105 7.85 5.22 11.83
5/8/2021 12:15:00 PM 9.14 48.452 0.105 7.88 5.11 11.81
5/8/2021 12:30:00 PM 9.2 48.56 0.104 7.81 5.29 11.67
5/8/2021 12:45:00 PM 9.46 49.028 0.104 7.95 5.32 11.7
5/8/2021 1:00:00 PM 9.57 49.226 0.103 7.86 5.2 11.66
5/8/2021 1:15:00 PM 9.53 49.154 0.103 7.8 5.16 11.52
5/8/2021 1:30:00 PM 9.49 49.082 0.103 7.78 5.1 11.48
5/8/2021 1:45:00 PM 9.48 49.064 0.102 7.83 5.09 11.57
5/8/2021 2:00:00 PM 9.47 49.046 0.102 7.84 5.14 11.62
5/8/2021 2:15:00 PM 9.46 49.028 0.102 7.85 5.1 11.61
5/8/2021 2:30:00 PM 9.64 49.352 0.102 7.95 5.21 11.66
5/8/2021 2:45:00 PM 9.88 49.784 0.101 7.97 5.14 11.67
5/8/2021 3:00:00 PM 10.08 50.144 0.101 7.95 5.15 11.65
5/8/2021 3:15:00 PM 10.02 50.036 0.101 7.87 5.1 11.52
5/8/2021 3:30:00 PM 10.01 50.018 0.101 7.84 5.07 11.48
5/8/2021 3:45:00 PM 10.13 50.234 0.1 7.95 5.07 11.54
5/8/2021 4:00:00 PM 10.24 50.432 0.1 7.9 5.06 11.54
5/8/2021 4:15:00 PM 10.22 50.396 0.1 7.87 5.27 11.47
5/8/2021 4:30:00 PM 10.13 50.234 0.1 7.87 5.44 11.44
5/8/2021 4:45:00 PM 10.24 50.432 0.1 7.88 5.2 11.47
5/8/2021 5:00:00 PM 10.3 50.54 0.1 7.88 5.05 11.48
5/8/2021 5:15:00 PM 10.2 50.36 0.1 7.82 5.06 11.33
5/8/2021 5:30:00 PM 10.17 50.306 0.099 7.81 5.25 11.36
5/8/2021 5:45:00 PM 10.17 50.306 0.099 7.83 5.24 11.37
5/8/2021 6:00:00 PM 10.19 50.342 0.099 7.82 5.13 11.38
5/8/2021 6:15:00 PM 10.18 50.324 0.099 7.8 5.1 11.34
5/8/2021 6:30:00 PM 10.11 50.198 0.099 7.77 5.32 11.27
5/8/2021 6:45:00 PM 10.07 50.126 0.099 7.73 5.27 11.2
5/8/2021 7:00:00 PM 10.01 50.018 0.099 7.69 5.29 11.13
5/8/2021 7:15:00 PM 9.97 49.946 0.099 7.65 5.2 11.05
5/8/2021 7:30:00 PM 9.9 49.82 0.099 7.62 5.22 11.01
5/8/2021 7:45:00 PM 9.82 49.676 0.099 7.6 5.32 10.99
5/8/2021 8:00:00 PM 9.73 49.514 0.099 7.59 5.41 10.97
5/8/2021 8:15:00 PM 9.62 49.316 0.099 7.56 5.36 10.93
5/8/2021 8:30:00 PM 9.53 49.154 0.098 7.54 5.48 10.91
5/8/2021 8:45:00 PM 9.44 48.992 0.099 7.52 5.55 10.89
5/8/2021 9:00:00 PM 9.35 48.83 0.098 7.51 5.49 10.89
5/8/2021 9:15:00 PM 9.26 48.668 0.098 7.5 5.71 10.89
5/8/2021 9:30:00 PM 9.17 48.506 0.098 7.49 5.58 10.89
5/8/2021 9:45:00 PM 9.09 48.362 0.098 7.48 5.57 10.9
5/8/2021 10:00:00 PM 9 48.2 0.098 7.47 5.4 10.92
5/8/2021 10:15:00 PM 8.91 48.038 0.098 7.47 5.3 10.95
5/8/2021 10:30:00 PM 8.82 47.876 0.098 7.46 5.45 10.97
5/8/2021 10:45:00 PM 8.73 47.714 0.098 7.46 5.34 10.99
5/8/2021 11:00:00 PM 8.65 47.57 0.098 7.46 5.42 11.02
5/8/2021 11:15:00 PM 8.56 47.408 0.098 7.46 5.52 11.04
5/8/2021 11:30:00 PM 8.47 47.246 0.098 7.45 5.43 11.07
5/8/2021 11:45:00 PM 8.38 47.084 0.098 7.45 5.41 11.09
5/9/2021 12:00:00 AM 8.31 46.958 0.097 7.45 5.51 11.11
5/9/2021 12:15:00 AM 8.23 46.814 0.097 7.45 5.4 11.14
5/9/2021 12:30:00 AM 8.16 46.688 0.097 7.45 5.48 11.16
5/9/2021 12:45:00 AM 8.09 46.562 0.097 7.44 5.36 11.18
5/9/2021 1:00:00 AM 8.04 46.472 0.097 7.44 5.35 11.2
5/9/2021 1:15:00 AM 8.01 46.418 0.097 7.44 5.39 11.21
5/9/2021 1:30:00 AM 7.97 46.346 0.097 7.45 5.32 11.22
5/9/2021 1:45:00 AM 7.92 46.256 0.097 7.44 5.45 11.23
5/9/2021 2:00:00 AM 7.88 46.184 0.097 7.44 5.37 11.25
5/9/2021 2:15:00 AM 7.83 46.094 0.097 7.44 5.53 11.28
5/9/2021 2:30:00 AM 7.78 46.004 0.097 7.44 5.33 11.29
5/9/2021 2:45:00 AM 7.74 45.932 0.097 7.44 5.45 11.31
5/9/2021 3:00:00 AM 7.7 45.86 0.096 7.44 5.34 11.31
5/9/2021 3:15:00 AM 7.66 45.788 0.096 7.44 5.48 11.32
5/9/2021 3:30:00 AM 7.61 45.698 0.096 7.44 5.44 11.32
5/9/2021 3:45:00 AM 7.57 45.626 0.096 7.44 5.49 11.34
5/9/2021 4:00:00 AM 7.53 45.554 0.096 7.44 5.49 11.36
5/9/2021 4:15:00 AM 7.5 45.5 0.096 7.44 5.6 11.37
5/9/2021 4:30:00 AM 7.46 45.428 0.096 7.44 5.47 11.38
5/9/2021 4:45:00 AM 7.43 45.374 0.096 7.43 5.56 11.39
5/9/2021 5:00:00 AM 7.4 45.32 0.096 7.44 5.51 11.4
5/9/2021 5:15:00 AM 7.36 45.248 0.095 7.44 5.49 11.41
5/9/2021 5:30:00 AM 7.33 45.194 0.095 7.43 5.5 11.43
5/9/2021 5:45:00 AM 7.3 45.14 0.095 7.43 5.56 11.43
5/9/2021 6:00:00 AM 7.26 45.068 0.095 7.43 5.58 11.45
5/9/2021 6:15:00 AM 7.23 45.014 0.095 7.44 5.52 11.47
5/9/2021 6:30:00 AM 7.2 44.96 0.095 7.45 5.45 11.52
5/9/2021 6:45:00 AM 7.18 44.924 0.095 7.46 5.6 11.58
5/9/2021 7:00:00 AM 7.16 44.888 0.094 7.48 5.45 11.67
5/9/2021 7:15:00 AM 7.15 44.87 0.094 7.49 5.44 11.73
5/9/2021 7:30:00 AM 7.15 44.87 0.094 7.51 5.33 11.81
5/9/2021 7:45:00 AM 7.16 44.888 0.094 7.54 5.38 11.89
5/9/2021 8:00:00 AM 7.18 44.924 0.094 7.56 5.31 11.97
5/9/2021 8:15:00 AM 7.2 44.96 0.094 7.59 5.38 12.02
5/9/2021 8:30:00 AM 7.24 45.032 0.093 7.6 5.38 12.06
5/9/2021 8:45:00 AM 7.3 45.14 0.093 7.62 5.37 12.09
5/9/2021 9:00:00 AM 7.39 45.302 0.093 7.64 5.24 12.13
5/9/2021 9:15:00 AM 7.52 45.536 0.093 7.67 5.29 12.16
5/9/2021 9:30:00 AM 7.67 45.806 0.093 7.7 5.24 12.17
5/9/2021 9:45:00 AM 7.76 45.968 0.092 7.72 5.22 12.15
5/9/2021 10:00:00 AM 7.95 46.31 0.092 7.76 5.6 12.16
5/9/2021 10:15:00 AM 8.07 46.526 0.092 7.76 5.23 12.16
5/9/2021 10:30:00 AM 8.16 46.688 0.092 7.76 5.23 12.11
5/9/2021 10:45:00 AM 8.2 46.76 0.092 7.76 5.23 12.06
5/9/2021 11:00:00 AM 8.23 46.814 0.092 7.76 5.32 12.03
5/9/2021 11:15:00 AM 8.26 46.868 0.091 7.79 5.29 12.03
5/9/2021 11:30:00 AM 8.33 46.994 0.091 7.81 5.41 12.03
5/9/2021 11:45:00 AM 8.38 47.084 0.091 7.81 5.31 12.04
5/9/2021 12:00:00 PM 8.44 47.192 0.091 7.83 5.31 12.05
5/9/2021 12:15:00 PM 8.49 47.282 0.091 7.84 5.54 12.03
5/9/2021 12:30:00 PM 8.52 47.336 0.091 7.82 5.31 11.99
5/9/2021 12:45:00 PM 8.53 47.354 0.091 7.81 5.37 11.94
5/9/2021 1:00:00 PM 8.54 47.372 0.09 7.8 5.33 11.92
5/9/2021 1:15:00 PM 8.52 47.336 0.09 7.79 5.43 11.88
5/9/2021 1:30:00 PM 8.49 47.282 0.09 7.76 5.5 11.83
5/9/2021 1:45:00 PM 8.46 47.228 0.09 7.74 5.64 11.79
5/9/2021 2:00:00 PM 8.43 47.174 0.089 7.72 5.46 11.77
5/9/2021 2:15:00 PM 8.41 47.138 0.089 7.72 5.52 11.79
5/9/2021 2:30:00 PM 8.39 47.102 0.089 7.71 5.59 11.79
5/9/2021 2:45:00 PM 8.36 47.048 0.088 7.72 5.76 11.8
5/9/2021 3:00:00 PM 8.32 46.976 0.088 7.7 5.7 11.8
5/9/2021 3:15:00 PM 8.28 46.904 0.088 7.69 5.98 11.78
5/9/2021 3:30:00 PM 8.22 46.796 0.088 7.67 5.91 11.73
5/9/2021 3:45:00 PM 8.16 46.688 0.087 7.65 6.11 11.71
5/9/2021 4:00:00 PM 8.1 46.58 0.087 7.64 6.08 11.71
5/9/2021 4:15:00 PM 8.04 46.472 0.087 7.63 6.08 11.72
5/9/2021 4:30:00 PM 8.01 46.418 0.086 7.63 6.3 11.71
5/9/2021 4:45:00 PM 7.97 46.346 0.086 7.62 6.25 11.68
5/9/2021 5:00:00 PM 7.92 46.256 0.086 7.6 6.51 11.68
5/9/2021 5:15:00 PM 7.88 46.184 0.085 7.59 6.43 11.66
5/9/2021 5:30:00 PM 7.83 46.094 0.085 7.57 6.88 11.64
5/9/2021 5:45:00 PM 7.8 46.04 0.084 7.55 7 11.62
5/9/2021 6:00:00 PM 7.77 45.986 0.084 7.55 7.52 11.61
5/9/2021 6:15:00 PM 7.74 45.932 0.084 7.54 7.93 11.61
5/9/2021 6:30:00 PM 7.71 45.878 0.083 7.52 8.96 11.57
5/9/2021 6:45:00 PM 7.67 45.806 0.083 7.5 9.07 11.53
5/9/2021 7:00:00 PM 7.63 45.734 0.082 7.48 9.84 11.51
5/9/2021 7:15:00 PM 7.58 45.644 0.081 7.46 11.94 11.49
5/9/2021 7:30:00 PM 7.54 45.572 0.081 7.45 12.4 11.47
5/9/2021 7:45:00 PM 7.5 45.5 0.081 7.44 14.16 11.46
5/9/2021 8:00:00 PM 7.47 45.446 0.081 7.43 20.83 11.45
5/9/2021 8:15:00 PM 7.44 45.392 0.082 7.43 16.97 11.44
5/9/2021 8:30:00 PM 7.4 45.32 0.083 7.42 19.92 11.44
5/9/2021 8:45:00 PM 7.37 45.266 0.084 7.42 36.25 11.44
5/9/2021 9:00:00 PM 7.34 45.212 0.086 7.42 30.51 11.44
5/9/2021 9:15:00 PM 7.3 45.14 0.087 7.43 33.53 11.45
5/9/2021 9:30:00 PM 7.27 45.086 0.088 7.43 37.79 11.46
5/9/2021 9:45:00 PM 7.24 45.032 0.089 7.44 62.74 11.46
5/9/2021 10:00:00 PM 7.21 44.978 0.09 7.44 59.34 11.47
5/9/2021 10:15:00 PM 7.18 44.924 0.091 7.45 59.93 11.47
5/9/2021 10:30:00 PM 7.17 44.906 0.091 7.46 71.13 11.48
5/9/2021 10:45:00 PM 7.15 44.87 0.091 7.45 61.61 11.48
5/9/2021 11:00:00 PM 7.14 44.852 0.091 7.45 57.16 11.48
5/9/2021 11:15:00 PM 7.13 44.834 0.091 7.45 66.09 11.48
5/9/2021 11:30:00 PM 7.12 44.816 0.092 7.45 63.91 11.48
5/9/2021 11:45:00 PM 7.12 44.816 0.092 7.45 63.47 11.48
5/10/2021 12:00:00 AM 7.13 44.834 0.092 7.46 77.54 11.48
5/10/2021 12:15:00 AM 7.13 44.834 0.092 7.45 68.45 11.48
5/10/2021 12:30:00 AM 7.13 44.834 0.093 7.45 66.4 11.48
5/10/2021 12:45:00 AM 7.13 44.834 0.093 7.44 63.35 11.49
5/10/2021 1:00:00 AM 7.13 44.834 0.094 7.44 78.83 11.49
5/10/2021 1:15:00 AM 7.14 44.852 0.094 7.44 67.91 11.49
5/10/2021 1:30:00 AM 7.14 44.852 0.094 7.44 67.87 11.49
5/10/2021 1:45:00 AM 7.14 44.852 0.094 7.43 61.63 11.49
5/10/2021 2:00:00 AM 7.14 44.852 0.094 7.43 91.35 11.5
5/10/2021 2:15:00 AM 7.15 44.87 0.094 7.43 65.88 11.49
5/10/2021 2:30:00 AM 7.15 44.87 0.094 7.43 66.5 11.5
5/10/2021 2:45:00 AM 7.15 44.87 0.093 7.42 68.9 11.5
5/10/2021 3:00:00 AM 7.15 44.87 0.093 7.43 73.04 11.5
5/10/2021 3:15:00 AM 7.15 44.87 0.093 7.42 59.47 11.5
5/10/2021 3:30:00 AM 7.15 44.87 0.093 7.43 53.01 11.5
5/10/2021 3:45:00 AM 7.15 44.87 0.093 7.43 58.75 11.5
5/10/2021 4:00:00 AM 7.14 44.852 0.092 7.43 51.59 11.5
5/10/2021 4:15:00 AM 7.14 44.852 0.092 7.42 51.41 11.51
5/10/2021 4:30:00 AM 7.13 44.834 0.092 7.43 56.43 11.51
5/10/2021 4:45:00 AM 7.13 44.834 0.091 7.43 51.33 11.52
5/10/2021 5:00:00 AM 7.13 44.834 0.091 7.42 40.11 11.52
5/10/2021 5:15:00 AM 7.12 44.816 0.09 7.43 41.21 11.52
5/10/2021 5:30:00 AM 7.12 44.816 0.09 7.42 39.26 11.52
5/10/2021 5:45:00 AM 7.12 44.816 0.09 7.41 37.7 11.53
5/10/2021 6:00:00 AM 7.12 44.816 0.089 7.41 38.77 11.53
5/10/2021 6:15:00 AM 7.11 44.798 0.089 7.4 37.25 11.53
5/10/2021 6:30:00 AM 7.11 44.798 0.089 7.4 41.64 11.54
5/10/2021 6:45:00 AM 7.11 44.798 0.088 7.4 33.49 11.55
5/10/2021 7:00:00 AM 7.12 44.816 0.088 7.4 33.71 11.55
5/10/2021 7:15:00 AM 7.12 44.816 0.087 7.41 33 11.56
5/10/2021 7:30:00 AM 7.13 44.834 0.087 7.4 32.63 11.57
5/10/2021 7:45:00 AM 7.14 44.852 0.087 7.4 31.09 11.58
5/10/2021 8:00:00 AM 7.14 44.852 0.086 7.4 27.95 11.59
5/10/2021 8:15:00 AM 7.16 44.888 0.086 7.4 28.09 11.6
5/10/2021 8:30:00 AM 7.19 44.942 0.085 7.41 28.66 11.63
5/10/2021 8:45:00 AM 7.23 45.014 0.085 7.41 27.77 11.65
5/10/2021 9:00:00 AM 7.27 45.086 0.084 7.42 26.99 11.67
5/10/2021 9:15:00 AM 7.33 45.194 0.084 7.43 25.1 11.69
5/10/2021 9:30:00 AM 7.4 45.32 0.084 7.44 24.3 11.71
5/10/2021 9:45:00 AM 7.51 45.518 0.083 7.45 23.86 11.72
5/10/2021 10:00:00 AM 7.63 45.734 0.083 7.46 23.47 11.72
5/10/2021 10:15:00 AM 7.79 46.022 0.083 7.47 22.51 11.72
5/10/2021 10:30:00 AM 7.93 46.274 0.083 7.47 23.13 11.71
5/10/2021 10:45:00 AM 8.06 46.508 0.082 7.48 23.08 11.69
5/10/2021 11:00:00 AM 8.15 46.67 0.082 7.49 22.14 11.68
5/10/2021 11:15:00 AM 8.25 46.85 0.082 7.5 21.76 11.67
5/10/2021 11:30:00 AM 8.43 47.174 0.081 7.51 22.11 11.65
5/10/2021 11:45:00 AM 8.56 47.408 0.081 7.53 21.72 11.64
5/10/2021 12:00:00 PM 8.68 47.624 0.081 7.53 21.02 11.62
5/10/2021 12:15:00 PM 8.86 47.948 0.081 7.55 20.37 11.59
5/10/2021 12:30:00 PM 9.03 48.254 0.08 7.54 20.88 11.56
5/10/2021 12:45:00 PM 9.16 48.488 0.08 7.54 18.48 11.51
5/10/2021 1:00:00 PM 9.24 48.632 0.08 7.53 20.21 11.48
5/10/2021 1:15:00 PM 9.31 48.758 0.08 7.51 20.77 11.44
5/10/2021 1:30:00 PM 9.36 48.848 0.079 7.53 19.58 11.41
5/10/2021 1:45:00 PM 9.58 49.244 0.079 7.56 20.25 11.38
5/10/2021 2:00:00 PM 9.82 49.676 0.079 7.56 20.52 11.34
5/10/2021 2:15:00 PM 10.02 50.036 0.079 7.59 20.33 11.3
5/10/2021 2:30:00 PM 10.06 50.108 0.078 7.6 20.02 11.29
5/10/2021 2:45:00 PM 10.21 50.378 0.078 7.6 20.31 11.26
5/10/2021 3:00:00 PM 10.42 50.756 0.078 7.6 20.51 11.22
5/10/2021 3:15:00 PM 10.49 50.882 0.078 7.55 19.21 11.16
5/10/2021 3:30:00 PM 10.55 50.99 0.078 7.58 20.13 11.14
5/10/2021 3:45:00 PM 10.77 51.386 0.078 7.58 19.79 11.09
5/10/2021 4:00:00 PM 10.75 51.35 0.078 7.54 20.26 11.06
5/10/2021 4:15:00 PM 10.63 51.134 0.077 7.55 20.37 11.05
5/10/2021 4:30:00 PM 10.65 51.17 0.077 7.55 20.54 11.08
5/10/2021 4:45:00 PM 10.73 51.314 0.077 7.55 20.91 11.05
5/10/2021 5:00:00 PM 10.73 51.314 0.077 7.53 20 11.03
5/10/2021 5:15:00 PM 10.7 51.26 0.077 7.52 21.44 10.98
5/10/2021 5:30:00 PM 10.7 51.26 0.076 7.51 20.47 10.98
5/10/2021 5:45:00 PM 10.61 51.098 0.076 7.51 19.03 10.96
5/10/2021 6:00:00 PM 10.54 50.972 0.076 7.51 19.52 10.97
5/10/2021 6:15:00 PM 10.44 50.792 0.076 7.48 19.88 10.96
5/10/2021 6:30:00 PM 10.36 50.648 0.076 7.47 20.27 10.94
5/10/2021 6:45:00 PM 10.26 50.468 0.076 7.46 20.31 10.94
5/10/2021 7:00:00 PM 10.13 50.234 0.076 7.44 19.96 10.93
5/10/2021 7:15:00 PM 10.03 50.054 0.075 7.43 20.13 10.92
5/10/2021 7:30:00 PM 9.93 49.874 0.075 7.42 19.87 10.92
5/10/2021 7:45:00 PM 9.84 49.712 0.075 7.41 19.94 10.91
5/10/2021 8:00:00 PM 9.76 49.568 0.075 7.4 20.06 10.91
5/10/2021 8:15:00 PM 9.67 49.406 0.075 7.39 20.01 10.92
5/10/2021 8:30:00 PM 9.56 49.208 0.075 7.37 19.26 10.93
5/10/2021 8:45:00 PM 9.44 48.992 0.075 7.36 19.22 10.94
5/10/2021 9:00:00 PM 9.33 48.794 0.075 7.36 19.99 10.95
5/10/2021 9:15:00 PM 9.23 48.614 0.075 7.36 19.57 10.97
5/10/2021 9:30:00 PM 9.12 48.416 0.075 7.35 19.82 10.99
5/10/2021 9:45:00 PM 9.02 48.236 0.074 7.35 19.84 11.02
5/10/2021 10:00:00 PM 8.93 48.074 0.074 7.34 19.79 11.04
5/10/2021 10:15:00 PM 8.84 47.912 0.074 7.34 19.93 11.07
5/10/2021 10:30:00 PM 8.75 47.75 0.074 7.34 19.71 11.09
5/10/2021 10:45:00 PM 8.67 47.606 0.074 7.34 19.91 11.11
5/10/2021 11:00:00 PM 8.6 47.48 0.074 7.33 18.62 11.13
5/10/2021 11:15:00 PM 8.53 47.354 0.074 7.33 19.54 11.15
5/10/2021 11:30:00 PM 8.45 47.21 0.074 7.33 20.08 11.18
5/10/2021 11:45:00 PM 8.39 47.102 0.074 7.33 19.57 11.2
5/11/2021 12:00:00 AM 8.32 46.976 0.074 7.33 19.69 11.21
5/11/2021 12:15:00 AM 8.25 46.85 0.074 7.33 20.01 11.23
5/11/2021 12:30:00 AM 8.18 46.724 0.074 7.33 19.69 11.25
5/11/2021 12:45:00 AM 8.12 46.616 0.074 7.33 19.53 11.27
5/11/2021 1:00:00 AM 8.06 46.508 0.073 7.32 19.34 11.29
5/11/2021 1:15:00 AM 8 46.4 0.073 7.32 19.32 11.31
5/11/2021 1:30:00 AM 7.95 46.31 0.073 7.32 19.72 11.33
5/11/2021 1:45:00 AM 7.89 46.202 0.073 7.32 19.47 11.34
5/11/2021 2:00:00 AM 7.84 46.112 0.073 7.32 19.61 11.36
5/11/2021 2:15:00 AM 7.79 46.022 0.073 7.32 19.45 11.38
5/11/2021 2:30:00 AM 7.74 45.932 0.073 7.32 19.73 11.39
5/11/2021 2:45:00 AM 7.69 45.842 0.073 7.32 18.53 11.4
5/11/2021 3:00:00 AM 7.64 45.752 0.073 7.32 19.03 11.42
5/11/2021 3:15:00 AM 7.6 45.68 0.073 7.32 18.92 11.44
5/11/2021 3:30:00 AM 7.57 45.626 0.073 7.32 18.3 11.44
5/11/2021 3:45:00 AM 7.53 45.554 0.073 7.32 18.59 11.45
5/11/2021 4:00:00 AM 7.48 45.464 0.073 7.32 18.71 11.46
5/11/2021 4:15:00 AM 7.45 45.41 0.073 7.32 19.02 11.47
5/11/2021 4:30:00 AM 7.42 45.356 0.073 7.32 18.87 11.49
5/11/2021 4:45:00 AM 7.39 45.302 0.073 7.32 18.92 11.5
5/11/2021 5:00:00 AM 7.36 45.248 0.073 7.31 18.46 11.5
5/11/2021 5:15:00 AM 7.33 45.194 0.073 7.31 19.08 11.52
5/11/2021 5:30:00 AM 7.28 45.104 0.073 7.32 18.77 11.53
5/11/2021 5:45:00 AM 7.24 45.032 0.073 7.32 18.82 11.54
5/11/2021 6:00:00 AM 7.19 44.942 0.073 7.32 19.08 11.55
5/11/2021 6:15:00 AM 7.15 44.87 0.073 7.32 19.26 11.58
5/11/2021 6:30:00 AM 7.12 44.816 0.073 7.32 19.3 11.6
5/11/2021 6:45:00 AM 7.1 44.78 0.073 7.33 19.05 11.63
5/11/2021 7:00:00 AM 7.08 44.744 0.073 7.33 18.86 11.67
5/11/2021 7:15:00 AM 7.06 44.708 0.073 7.34 18.92 11.71
5/11/2021 7:30:00 AM 7.04 44.672 0.072 7.35 18.42 11.75
5/11/2021 7:45:00 AM 7.05 44.69 0.072 7.36 18.58 11.79
5/11/2021 8:00:00 AM 7.07 44.726 0.072 7.38 18.41 11.82
5/11/2021 8:15:00 AM 7.1 44.78 0.072 7.39 18.62 11.85
5/11/2021 8:30:00 AM 7.16 44.888 0.072 7.4 18.41 11.87
5/11/2021 8:45:00 AM 7.24 45.032 0.072 7.41 18.65 11.87
5/11/2021 9:00:00 AM 7.34 45.212 0.072 7.43 18.35 11.89
5/11/2021 9:15:00 AM 7.45 45.41 0.072 7.44 18.3 11.89
5/11/2021 9:30:00 AM 7.58 45.644 0.072 7.45 18.43 11.88
5/11/2021 9:45:00 AM 7.73 45.914 0.072 7.47 17.95 11.87
5/11/2021 10:00:00 AM 7.86 46.148 0.072 7.48 18.2 11.85
5/11/2021 10:15:00 AM 8.03 46.454 0.072 7.49 18.07 11.82
5/11/2021 10:30:00 AM 8.13 46.634 0.072 7.49 17.93 11.79
5/11/2021 10:45:00 AM 8.19 46.742 0.072 7.5 17.76 11.78
5/11/2021 11:00:00 AM 8.25 46.85 0.072 7.5 18.16 11.74
5/11/2021 11:15:00 AM 8.33 46.994 0.072 7.52 18.01 11.71
5/11/2021 11:30:00 AM 8.4 47.12 0.072 7.51 18.13 11.7
5/11/2021 11:45:00 AM 8.45 47.21 0.072 7.5 18.17 11.67
5/11/2021 12:00:00 PM 8.49 47.282 0.072 7.51 18.4 11.65
5/11/2021 12:15:00 PM 8.64 47.552 0.071 7.59 18.12 11.66
5/11/2021 12:30:00 PM 8.75 47.75 0.071 7.55 18.34 11.63
5/11/2021 12:45:00 PM 8.81 47.858 0.071 7.56 15.35 11.61
5/11/2021 1:00:00 PM 8.82 47.876 0.071 7.53 17.6 11.6
5/11/2021 1:15:00 PM 8.92 48.056 0.071 7.58 18.15 11.61
5/11/2021 1:30:00 PM 8.93 48.074 0.071 7.53 18.2 11.56
5/11/2021 1:45:00 PM 9.03 48.254 0.071 7.62 18.66 11.58
5/11/2021 2:00:00 PM 9.13 48.434 0.072 7.57 18.48 11.55
5/11/2021 2:15:00 PM 9.17 48.506 0.071 7.58 16.4 11.54
5/11/2021 2:30:00 PM 9.3 48.74 0.071 7.6 18.62 11.54
5/11/2021 2:45:00 PM 9.45 49.01 0.071 7.64 18.26 11.51
5/11/2021 3:00:00 PM 9.59 49.262 0.071 7.58 18.22 11.47
5/11/2021 3:15:00 PM 9.68 49.424 0.071 7.59 16.36 11.44
5/11/2021 3:30:00 PM 9.69 49.442 0.071 7.57 16.16 11.41
5/11/2021 3:45:00 PM 9.75 49.55 0.071 7.59 16.32 11.4
5/11/2021 4:00:00 PM 9.89 49.802 0.071 7.59 16.2 11.38
5/11/2021 4:15:00 PM 9.85 49.73 0.071 7.57 16.53 11.35
5/11/2021 4:30:00 PM 9.81 49.658 0.071 7.57 17.39 11.31
5/11/2021 4:45:00 PM 9.88 49.784 0.071 7.56 16.39 11.3
5/11/2021 5:00:00 PM 9.93 49.874 0.072 7.57 16.64 11.3
5/11/2021 5:15:00 PM 9.85 49.73 0.072 7.54 16.51 11.28
5/11/2021 5:30:00 PM 9.81 49.658 0.072 7.54 16.64 11.25
5/11/2021 5:45:00 PM 9.85 49.73 0.072 7.53 16.73 11.27
5/11/2021 6:00:00 PM 9.79 49.622 0.072 7.54 16.29 11.26
5/11/2021 6:15:00 PM 9.72 49.496 0.072 7.52 17.22 11.23
5/11/2021 6:30:00 PM 9.66 49.388 0.072 7.5 17.18 11.22
5/11/2021 6:45:00 PM 9.59 49.262 0.072 7.49 17.14 11.21
5/11/2021 7:00:00 PM 9.48 49.064 0.072 7.47 16.71 11.18
5/11/2021 7:15:00 PM 9.38 48.884 0.072 7.46 16.61 11.16
5/11/2021 7:30:00 PM 9.3 48.74 0.072 7.44 16.77 11.15
5/11/2021 7:45:00 PM 9.22 48.596 0.072 7.43 16.72 11.14
5/11/2021 8:00:00 PM 9.13 48.434 0.072 7.42 16.97 11.14
5/11/2021 8:15:00 PM 9.04 48.272 0.072 7.42 16.96 11.13
5/11/2021 8:30:00 PM 8.96 48.128 0.072 7.4 17.07 11.13
5/11/2021 8:45:00 PM 8.87 47.966 0.072 7.39 17.06 11.13
5/11/2021 9:00:00 PM 8.78 47.804 0.072 7.38 17.01 11.14
5/11/2021 9:15:00 PM 8.69 47.642 0.072 7.37 17.1 11.15
5/11/2021 9:30:00 PM 8.6 47.48 0.072 7.36 17.32 11.17
5/11/2021 9:45:00 PM 8.51 47.318 0.072 7.36 17.6 11.19
5/11/2021 10:00:00 PM 8.42 47.156 0.072 7.36 17.65 11.22
5/11/2021 10:15:00 PM 8.33 46.994 0.072 7.36 17.18 11.24
5/11/2021 10:30:00 PM 8.25 46.85 0.073 7.36 17.28 11.25
5/11/2021 10:45:00 PM 8.17 46.706 0.073 7.36 17.49 11.28
5/11/2021 11:00:00 PM 8.1 46.58 0.073 7.35 17.52 11.3
5/11/2021 11:15:00 PM 8.02 46.436 0.073 7.35 17.6 11.33
5/11/2021 11:30:00 PM 7.94 46.292 0.073 7.35 17.52 11.34
5/11/2021 11:45:00 PM 7.87 46.166 0.073 7.35 17.39 11.36
5/12/2021 12:00:00 AM 7.8 46.04 0.073 7.35 17.45 11.39
5/12/2021 12:15:00 AM 7.73 45.914 0.073 7.35 17.86 11.42
5/12/2021 12:30:00 AM 7.66 45.788 0.073 7.35 17.69 11.43
5/12/2021 12:45:00 AM 7.59 45.662 0.073 7.34 17.49 11.45
5/12/2021 1:00:00 AM 7.52 45.536 0.073 7.35 17.65 11.47
5/12/2021 1:15:00 AM 7.45 45.41 0.073 7.34 16.7 11.49
5/12/2021 1:30:00 AM 7.4 45.32 0.073 7.35 17.57 11.51
5/12/2021 1:45:00 AM 7.33 45.194 0.073 7.35 17.79 11.54
5/12/2021 2:00:00 AM 7.27 45.086 0.073 7.34 17.73 11.55
5/12/2021 2:15:00 AM 7.21 44.978 0.073 7.34 17.79 11.57
5/12/2021 2:30:00 AM 7.15 44.87 0.073 7.34 17.44 11.58
5/12/2021 2:45:00 AM 7.09 44.762 0.073 7.34 18.19 11.6
5/12/2021 3:00:00 AM 7.03 44.654 0.073 7.35 17.65 11.61
5/12/2021 3:15:00 AM 6.97 44.546 0.073 7.35 17.83 11.63
5/12/2021 3:30:00 AM 6.91 44.438 0.073 7.35 17.74 11.65
5/12/2021 3:45:00 AM 6.86 44.348 0.073 7.35 17.79 11.67
5/12/2021 4:00:00 AM 6.8 44.24 0.073 7.34 17.97 11.68
5/12/2021 4:15:00 AM 6.75 44.15 0.073 7.34 17.31 11.7
5/12/2021 4:30:00 AM 6.71 44.078 0.073 7.34 17.49 11.71
5/12/2021 4:45:00 AM 6.66 43.988 0.073 7.35 17.39 11.73
5/12/2021 5:00:00 AM 6.62 43.916 0.074 7.35 19.5 11.74
5/12/2021 5:15:00 AM 6.58 43.844 0.074 7.35 17.18 11.76
5/12/2021 5:30:00 AM 6.55 43.79 0.074 7.35 17.25 11.77
5/12/2021 5:45:00 AM 6.53 43.754 0.074 7.35 17.2 11.78
5/12/2021 6:00:00 AM 6.5 43.7 0.074 7.35 17.25 11.8
5/12/2021 6:15:00 AM 6.48 43.664 0.074 7.35 17.02 11.82
5/12/2021 6:30:00 AM 6.46 43.628 0.074 7.36 16.96 11.85
5/12/2021 6:45:00 AM 6.43 43.574 0.074 7.36 17.08 11.88
5/12/2021 7:00:00 AM 6.42 43.556 0.074 7.37 16.85 11.93
5/12/2021 7:15:00 AM 6.41 43.538 0.074 7.38 16.79 11.96
5/12/2021 7:30:00 AM 6.42 43.556 0.074 7.39 17.11 12.01
5/12/2021 7:45:00 AM 6.44 43.592 0.074 7.4 16.66 12.05
5/12/2021 8:00:00 AM 6.48 43.664 0.074 7.42 17.16 12.08
5/12/2021 8:15:00 AM 6.54 43.772 0.074 7.43 16.82 12.11
5/12/2021 8:30:00 AM 6.63 43.934 0.074 7.45 16.85 12.13
5/12/2021 8:45:00 AM 6.73 44.114 0.074 7.46 16.64 12.14
5/12/2021 9:00:00 AM 6.85 44.33 0.074 7.48 16.62 12.14
5/12/2021 9:15:00 AM 6.99 44.582 0.074 7.49 16.64 12.13
5/12/2021 9:30:00 AM 7.15 44.87 0.073 7.5 16.6 12.12
5/12/2021 9:45:00 AM 7.32 45.176 0.073 7.51 16.55 12.1
5/12/2021 10:00:00 AM 7.51 45.518 0.073 7.52 16.88 12.08
5/12/2021 10:15:00 AM 7.71 45.878 0.073 7.54 16.72 12.04
5/12/2021 10:30:00 AM 7.94 46.292 0.073 7.55 17.03 12
5/12/2021 10:45:00 AM 8.17 46.706 0.073 7.57 16.7 11.96
5/12/2021 11:00:00 AM 8.41 47.138 0.073 7.56 16.98 11.91
5/12/2021 11:15:00 AM 8.69 47.642 0.073 7.61 16.62 11.87
5/12/2021 11:30:00 AM 8.96 48.128 0.073 7.64 17.02 11.81
5/12/2021 11:45:00 AM 9.14 48.452 0.073 7.61 16.78 11.74
5/12/2021 12:00:00 PM 9.39 48.902 0.073 7.66 17.34 11.69
5/12/2021 12:15:00 PM 9.51 49.118 0.073 7.63 16.83 11.64
5/12/2021 12:30:00 PM 9.54 49.172 0.073 7.68 16.92 11.61
5/12/2021 12:45:00 PM 9.7 49.46 0.073 7.68 17.08 11.57
5/12/2021 1:00:00 PM 9.67 49.406 0.073 7.62 17.04 11.55
5/12/2021 1:15:00 PM 9.9 49.82 0.073 7.71 17.07 11.52
5/12/2021 1:30:00 PM 10.09 50.162 0.073 7.63 17.06 11.47
5/12/2021 1:45:00 PM 10.26 50.468 0.073 7.74 17.24 11.44
5/12/2021 2:00:00 PM 10.34 50.612 0.073 7.69 17.1 11.4
5/12/2021 2:15:00 PM 10.39 50.702 0.073 7.67 17.25 11.38
5/12/2021 2:30:00 PM 10.51 50.918 0.073 7.71 17.21 11.37
5/12/2021 2:45:00 PM 10.66 51.188 0.073 7.75 17.27 11.38
5/12/2021 3:00:00 PM 10.81 51.458 0.073 7.74 16.54 11.35
5/12/2021 3:15:00 PM 10.75 51.35 0.073 7.67 16.34 11.31
5/12/2021 3:30:00 PM 10.86 51.548 0.073 7.71 16.44 11.3
5/12/2021 3:45:00 PM 10.87 51.566 0.073 7.72 16.45 11.28
5/12/2021 4:00:00 PM 10.96 51.728 0.073 7.69 16.28 11.25
5/12/2021 4:15:00 PM 11 51.8 0.073 7.69 16.5 11.22
5/12/2021 4:30:00 PM 11.21 52.178 0.074 7.71 16.65 11.21
5/12/2021 4:45:00 PM 11.28 52.304 0.074 7.69 16.62 11.18
5/12/2021 5:00:00 PM 11.09 51.962 0.074 7.63 16.61 11.08
5/12/2021 5:15:00 PM 10.96 51.728 0.074 7.62 16.6 11.08
5/12/2021 5:30:00 PM 10.93 51.674 0.074 7.63 16.83 11.12
5/12/2021 5:45:00 PM 10.88 51.584 0.074 7.62 17.15 11.13
5/12/2021 6:00:00 PM 10.84 51.512 0.074 7.61 17.35 11.12
5/12/2021 6:15:00 PM 10.79 51.422 0.074 7.6 17.15 11.09
5/12/2021 6:30:00 PM 10.73 51.314 0.074 7.57 17.03 11.05
5/12/2021 6:45:00 PM 10.65 51.17 0.074 7.55 17.87 11
5/12/2021 7:00:00 PM 10.56 51.008 0.074 7.52 17.51 10.96
5/12/2021 7:15:00 PM 10.44 50.792 0.074 7.5 17.21 10.92
5/12/2021 7:30:00 PM 10.35 50.63 0.074 7.48 17.67 10.91
5/12/2021 7:45:00 PM 10.23 50.414 0.075 7.47 17.36 10.91
5/12/2021 8:00:00 PM 10.1 50.18 0.075 7.45 17.6 10.92
5/12/2021 8:15:00 PM 9.97 49.946 0.075 7.44 17.54 10.91
5/12/2021 8:30:00 PM 9.86 49.748 0.075 7.43 17.98 10.91
5/12/2021 8:45:00 PM 9.76 49.568 0.075 7.41 17.74 10.91
5/12/2021 9:00:00 PM 9.67 49.406 0.075 7.4 17.89 10.91
5/12/2021 9:15:00 PM 9.57 49.226 0.075 7.4 18.14 10.93
5/12/2021 9:30:00 PM 9.46 49.028 0.075 7.4 18.23 10.94
5/12/2021 9:45:00 PM 9.35 48.83 0.075 7.39 18.14 10.96
5/12/2021 10:00:00 PM 9.24 48.632 0.075 7.38 18.39 10.99
5/12/2021 10:15:00 PM 9.14 48.452 0.075 7.38 18.15 11.01
5/12/2021 10:30:00 PM 9.03 48.254 0.075 7.38 16.94 11.05
5/12/2021 10:45:00 PM 8.92 48.056 0.075 7.38 16.77 11.07
5/12/2021 11:00:00 PM 8.82 47.876 0.075 7.38 17.33 11.11
5/12/2021 11:15:00 PM 8.72 47.696 0.075 7.38 16.72 11.13
5/12/2021 11:30:00 PM 8.63 47.534 0.076 7.38 16.47 11.15
5/12/2021 11:45:00 PM 8.53 47.354 0.076 7.37 16.42 11.19
5/13/2021 12:00:00 AM 8.44 47.192 0.076 7.37 16.42 11.21
5/13/2021 12:15:00 AM 8.35 47.03 0.076 7.37 16.28 11.25
5/13/2021 12:30:00 AM 8.26 46.868 0.076 7.37 16.96 11.26
5/13/2021 12:45:00 AM 8.17 46.706 0.076 7.37 16.63 11.28
5/13/2021 1:00:00 AM 8.08 46.544 0.076 7.37 16.42 11.32
5/13/2021 1:15:00 AM 8 46.4 0.076 7.37 16.09 11.34
5/13/2021 1:30:00 AM 7.92 46.256 0.076 7.37 16.64 11.37
5/13/2021 1:45:00 AM 7.84 46.112 0.076 7.37 16.07 11.39
5/13/2021 2:00:00 AM 7.76 45.968 0.076 7.37 16.27 11.42
5/13/2021 2:15:00 AM 7.68 45.824 0.076 7.37 15.68 11.44
5/13/2021 2:30:00 AM 7.6 45.68 0.076 7.37 15.83 11.46
5/13/2021 2:45:00 AM 7.53 45.554 0.076 7.37 16.34 11.48
5/13/2021 3:00:00 AM 7.45 45.41 0.076 7.37 16.37 11.5
5/13/2021 3:15:00 AM 7.38 45.284 0.076 7.36 16.27 11.52
5/13/2021 3:30:00 AM 7.31 45.158 0.076 7.36 15.47 11.55
5/13/2021 3:45:00 AM 7.24 45.032 0.076 7.36 16.42 11.56
5/13/2021 4:00:00 AM 7.17 44.906 0.076 7.36 15.9 11.59
5/13/2021 4:15:00 AM 7.1 44.78 0.076 7.36 16.27 11.61
5/13/2021 4:30:00 AM 7.03 44.654 0.076 7.36 16.16 11.62
5/13/2021 4:45:00 AM 6.97 44.546 0.077 7.36 16.05 11.65
5/13/2021 5:00:00 AM 6.91 44.438 0.077 7.36 16.22 11.67
5/13/2021 5:15:00 AM 6.84 44.312 0.077 7.36 16.3 11.69
5/13/2021 5:30:00 AM 6.78 44.204 0.077 7.36 16.29 11.71
5/13/2021 5:45:00 AM 6.72 44.096 0.077 7.37 16.03 11.73
5/13/2021 6:00:00 AM 6.67 44.006 0.077 7.36 15.7 11.75
5/13/2021 6:15:00 AM 6.61 43.898 0.077 7.37 15.65 11.78
5/13/2021 6:30:00 AM 6.57 43.826 0.077 7.37 15.49 11.83
5/13/2021 6:45:00 AM 6.53 43.754 0.077 7.38 15.72 11.88
5/13/2021 7:00:00 AM 6.49 43.682 0.077 7.39 15.51 11.93
5/13/2021 7:15:00 AM 6.48 43.664 0.077 7.4 16.01 11.99
5/13/2021 7:30:00 AM 6.47 43.646 0.077 7.42 15.43 12.04
5/13/2021 7:45:00 AM 6.49 43.682 0.077 7.44 15.85 12.09
5/13/2021 8:00:00 AM 6.52 43.736 0.077 7.45 15.43 12.13
5/13/2021 8:15:00 AM 6.57 43.826 0.077 7.46 15.93 12.16
5/13/2021 8:30:00 AM 6.64 43.952 0.077 7.47 15.86 12.19
5/13/2021 8:45:00 AM 6.74 44.132 0.077 7.49 16.08 12.2
5/13/2021 9:00:00 AM 6.87 44.366 0.077 7.5 16.36 12.2
5/13/2021 9:15:00 AM 7.03 44.654 0.077 7.52 16.16 12.21
5/13/2021 9:30:00 AM 7.2 44.96 0.077 7.54 15.75 12.19
5/13/2021 9:45:00 AM 7.39 45.302 0.077 7.55 15.95 12.17
5/13/2021 10:00:00 AM 7.6 45.68 0.077 7.57 15.92 12.14
5/13/2021 10:15:00 AM 7.83 46.094 0.077 7.59 15.98 12.11
5/13/2021 10:30:00 AM 8.07 46.526 0.076 7.61 16.16 12.06
5/13/2021 10:45:00 AM 8.28 46.904 0.076 7.61 16.09 12
5/13/2021 11:00:00 AM 8.41 47.138 0.076 7.6 16.71 11.95
5/13/2021 11:15:00 AM 8.53 47.354 0.076 7.63 15.26 11.91
5/13/2021 11:30:00 AM 8.7 47.66 0.076 7.66 15.5 11.88
5/13/2021 11:45:00 AM 8.9 48.02 0.076 7.7 15.37 11.85
5/13/2021 12:00:00 PM 9.14 48.452 0.076 7.71 15.6 11.81
5/13/2021 12:15:00 PM 9.28 48.704 0.076 7.72 15.79 11.77
5/13/2021 12:30:00 PM 9.42 48.956 0.076 7.73 16.16 11.73
5/13/2021 12:45:00 PM 9.42 48.956 0.076 7.69 15.98 11.68
5/13/2021 1:00:00 PM 9.47 49.046 0.076 7.66 15.73 11.62
5/13/2021 1:15:00 PM 9.51 49.118 0.076 7.69 15.54 11.61
5/13/2021 1:30:00 PM 9.59 49.262 0.076 7.75 15.83 11.62
5/13/2021 1:45:00 PM 9.71 49.478 0.077 7.69 15.74 11.56
5/13/2021 2:00:00 PM 9.84 49.712 0.076 7.77 15.56 11.57
5/13/2021 2:15:00 PM 9.85 49.73 0.076 7.7 15.86 11.54
5/13/2021 2:30:00 PM 9.82 49.676 0.076 7.74 15.63 11.55
5/13/2021 2:45:00 PM 9.86 49.748 0.076 7.77 15.88 11.57
5/13/2021 3:00:00 PM 9.93 49.874 0.076 7.82 15.49 11.58
5/13/2021 3:15:00 PM 10.09 50.162 0.076 7.76 15.46 11.55
5/13/2021 3:30:00 PM 10.01 50.018 0.077 7.68 15.89 11.47
5/13/2021 3:45:00 PM 10.15 50.27 0.077 7.74 15.92 11.47
5/13/2021 4:00:00 PM 10.37 50.666 0.076 7.74 16.07 11.48
5/13/2021 4:15:00 PM 10.56 51.008 0.076 7.74 15.83 11.45
5/13/2021 4:30:00 PM 10.53 50.954 0.077 7.7 16.05 11.35
5/13/2021 4:45:00 PM 10.49 50.882 0.077 7.67 16.23 11.3
5/13/2021 5:00:00 PM 10.62 51.116 0.076 7.71 16.14 11.32
5/13/2021 5:15:00 PM 10.7 51.26 0.077 7.7 16.07 11.3
5/13/2021 5:30:00 PM 10.71 51.278 0.077 7.69 16.18 11.28
5/13/2021 5:45:00 PM 10.6 51.08 0.077 7.68 16.41 11.25
5/13/2021 6:00:00 PM 10.64 51.152 0.077 7.66 16.38 11.22
5/13/2021 6:15:00 PM 10.61 51.098 0.077 7.63 16.47 11.13
5/13/2021 6:30:00 PM 10.59 51.062 0.077 7.6 16.28 11.07
5/13/2021 6:45:00 PM 10.53 50.954 0.077 7.59 16.7 11.08
5/13/2021 7:00:00 PM 10.48 50.864 0.077 7.58 16.33 11.06
5/13/2021 7:15:00 PM 10.45 50.81 0.077 7.56 16.89 11.01
5/13/2021 7:30:00 PM 10.38 50.684 0.077 7.54 16.82 10.97
5/13/2021 7:45:00 PM 10.32 50.576 0.077 7.52 16.84 10.95
5/13/2021 8:00:00 PM 10.26 50.468 0.077 7.5 16.8 10.92
5/13/2021 8:15:00 PM 10.18 50.324 0.078 7.48 16.91 10.89
5/13/2021 8:30:00 PM 10.1 50.18 0.078 7.47 17.15 10.87
5/13/2021 8:45:00 PM 10.01 50.018 0.078 7.45 17.04 10.85
5/13/2021 9:00:00 PM 9.93 49.874 0.078 7.44 17.8 10.84
5/13/2021 9:15:00 PM 9.84 49.712 0.078 7.43 16.96 10.84
5/13/2021 9:30:00 PM 9.74 49.532 0.078 7.42 17.33 10.85
5/13/2021 9:45:00 PM 9.65 49.37 0.078 7.41 17.4 10.87
5/13/2021 10:00:00 PM 9.55 49.19 0.078 7.42 17.64 10.88
5/13/2021 10:15:00 PM 9.45 49.01 0.078 7.41 17.96 10.92
5/13/2021 10:30:00 PM 9.36 48.848 0.078 7.41 17.91 10.93
5/13/2021 10:45:00 PM 9.26 48.668 0.078 7.41 17.85 10.96
5/13/2021 11:00:00 PM 9.15 48.47 0.079 7.41 17.57 10.98
5/13/2021 11:15:00 PM 9.05 48.29 0.079 7.4 17.95 11.02
5/13/2021 11:30:00 PM 8.95 48.11 0.079 7.41 18.06 11.05
5/13/2021 11:45:00 PM 8.86 47.948 0.079 7.4 17.99 11.07
5/14/2021 12:00:00 AM 8.76 47.768 0.079 7.4 17.33 11.09
5/14/2021 12:15:00 AM 8.67 47.606 0.079 7.4 17.44 11.11
5/14/2021 12:30:00 AM 8.58 47.444 0.079 7.39 17.61 11.15
5/14/2021 12:45:00 AM 8.5 47.3 0.079 7.4 17.29 11.17
5/14/2021 1:00:00 AM 8.42 47.156 0.079 7.4 17.69 11.19
5/14/2021 1:15:00 AM 8.34 47.012 0.079 7.39 17.54 11.22
5/14/2021 1:30:00 AM 8.26 46.868 0.079 7.39 17.58 11.25
5/14/2021 1:45:00 AM 8.18 46.724 0.079 7.39 17.68 11.27
5/14/2021 2:00:00 AM 8.1 46.58 0.079 7.39 17.22 11.29
5/14/2021 2:15:00 AM 8.02 46.436 0.079 7.39 17.69 11.31
5/14/2021 2:30:00 AM 7.95 46.31 0.079 7.39 18.08 11.34
5/14/2021 2:45:00 AM 7.87 46.166 0.079 7.39 17.74 11.36
5/14/2021 3:00:00 AM 7.8 46.04 0.079 7.39 17.82 11.38
5/14/2021 3:15:00 AM 7.73 45.914 0.079 7.39 17.86 11.41
5/14/2021 3:30:00 AM 7.65 45.77 0.08 7.39 17.93 11.43
5/14/2021 3:45:00 AM 7.58 45.644 0.08 7.39 17.94 11.45
5/14/2021 4:00:00 AM 7.51 45.518 0.08 7.39 18.43 11.46
5/14/2021 4:15:00 AM 7.45 45.41 0.08 7.39 17.92 11.49
5/14/2021 4:30:00 AM 7.38 45.284 0.08 7.39 17.92 11.51
5/14/2021 4:45:00 AM 7.31 45.158 0.08 7.39 17.95 11.51
5/14/2021 5:00:00 AM 7.25 45.05 0.08 7.39 17.83 11.54
5/14/2021 5:15:00 AM 7.19 44.942 0.08 7.38 18.08 11.57
5/14/2021 5:30:00 AM 7.13 44.834 0.08 7.39 17.73 11.59
5/14/2021 5:45:00 AM 7.06 44.708 0.08 7.39 17.94 11.61
5/14/2021 6:00:00 AM 7 44.6 0.08 7.39 18.02 11.63
5/14/2021 6:15:00 AM 6.95 44.51 0.08 7.39 18.08 11.67
5/14/2021 6:30:00 AM 6.9 44.42 0.08 7.4 18.28 11.73
5/14/2021 6:45:00 AM 6.85 44.33 0.08 7.41 18.03 11.78
5/14/2021 7:00:00 AM 6.82 44.276 0.08 7.42 18.54 11.84
5/14/2021 7:15:00 AM 6.8 44.24 0.08 7.44 18.88 11.9
5/14/2021 7:30:00 AM 6.8 44.24 0.08 7.45 17.65 11.96
5/14/2021 7:45:00 AM 6.81 44.258 0.08 7.47 17.98 12.02
5/14/2021 8:00:00 AM 6.84 44.312 0.08 7.48 18.13 12.07
5/14/2021 8:15:00 AM 6.89 44.402 0.08 7.5 18.99 12.11
5/14/2021 8:30:00 AM 6.96 44.528 0.08 7.52 17.97 12.12
5/14/2021 8:45:00 AM 7.07 44.726 0.08 7.53 18.71 12.15
5/14/2021 9:00:00 AM 7.2 44.96 0.08 7.55 18.49 12.16
5/14/2021 9:15:00 AM 7.36 45.248 0.08 7.56 18.87 12.17
5/14/2021 9:30:00 AM 7.54 45.572 0.08 7.58 18.65 12.15
5/14/2021 9:45:00 AM 7.75 45.95 0.08 7.6 18.69 12.13
5/14/2021 10:00:00 AM 7.97 46.346 0.08 7.62 18.29 12.1
5/14/2021 10:15:00 AM 8.21 46.778 0.08 7.64 18.17 12.06
5/14/2021 10:30:00 AM 8.47 47.246 0.079 7.66 18.55 12.01
5/14/2021 10:45:00 AM 8.74 47.732 0.079 7.68 18.1 11.96
5/14/2021 11:00:00 AM 9.06 48.308 0.079 7.71 18.1 11.93
5/14/2021 11:15:00 AM 9.38 48.884 0.079 7.72 18.21 11.88
5/14/2021 11:30:00 AM 9.66 49.388 0.079 7.72 18.09 11.78
5/14/2021 11:45:00 AM 9.97 49.946 0.079 7.78 18.08 11.74
5/14/2021 12:00:00 PM 10.24 50.432 0.079 7.8 17.9 11.67
5/14/2021 12:15:00 PM 10.29 50.522 0.079 7.81 18.83 11.61
5/14/2021 12:30:00 PM 10.39 50.702 0.079 7.84 18.16 11.61
5/14/2021 12:45:00 PM 10.46 50.828 0.079 7.78 18.5 11.56
5/14/2021 1:00:00 PM 10.26 50.468 0.079 7.74 18.61 11.5
5/14/2021 1:15:00 PM 10.33 50.594 0.079 7.84 18.76 11.53
5/14/2021 1:30:00 PM 10.63 51.134 0.079 7.88 19.31 11.53
5/14/2021 1:45:00 PM 10.96 51.728 0.079 7.84 18.11 11.46
5/14/2021 2:00:00 PM 11.07 51.926 0.079 7.79 18.64 11.35
5/14/2021 2:15:00 PM 11.07 51.926 0.079 7.76 18.59 11.28
5/14/2021 2:30:00 PM 10.94 51.692 0.079 7.75 17.91 11.3
5/14/2021 2:45:00 PM 10.8 51.44 0.079 7.77 18.85 11.36
5/14/2021 3:00:00 PM 10.74 51.332 0.079 7.79 18.71 11.38
5/14/2021 3:15:00 PM 10.76 51.368 0.079 7.82 18.77 11.38
5/14/2021 3:30:00 PM 10.83 51.494 0.079 7.85 19.38 11.38
5/14/2021 3:45:00 PM 10.96 51.728 0.079 7.89 18.52 11.37
5/14/2021 4:00:00 PM 11.14 52.052 0.079 7.88 18.01 11.34
5/14/2021 4:15:00 PM 11.26 52.268 0.079 7.89 18.94 11.31
5/14/2021 4:30:00 PM 11.44 52.592 0.079 7.89 18.33 11.27
5/14/2021 4:45:00 PM 11.64 52.952 0.079 7.89 18.95 11.26
5/14/2021 5:00:00 PM 11.69 53.042 0.079 7.9 18.71 11.24
5/14/2021 5:15:00 PM 11.81 53.258 0.079 7.89 18.77 11.2
5/14/2021 5:30:00 PM 11.87 53.366 0.079 7.87 19.67 11.15
5/14/2021 5:45:00 PM 11.87 53.366 0.08 7.85 18.94 11.12
5/14/2021 6:00:00 PM 11.84 53.312 0.079 7.81 18.89 11.04
5/14/2021 6:15:00 PM 11.75 53.15 0.08 7.77 18.57 10.98
5/14/2021 6:30:00 PM 11.72 53.096 0.08 7.74 19.06 10.97
5/14/2021 6:45:00 PM 11.67 53.006 0.08 7.72 19.26 10.96
5/14/2021 7:00:00 PM 11.59 52.862 0.08 7.69 19.62 10.91
5/14/2021 7:15:00 PM 11.51 52.718 0.08 7.66 19.37 10.86
5/14/2021 7:30:00 PM 11.41 52.538 0.08 7.63 18.94 10.8
5/14/2021 7:45:00 PM 11.33 52.394 0.08 7.6 19.07 10.76
5/14/2021 8:00:00 PM 11.26 52.268 0.08 7.57 19.24 10.71
5/14/2021 8:15:00 PM 11.19 52.142 0.08 7.54 19.38 10.65
5/14/2021 8:30:00 PM 11.11 51.998 0.08 7.51 19.31 10.6
5/14/2021 8:45:00 PM 11.03 51.854 0.081 7.48 19.54 10.57
5/14/2021 9:00:00 PM 10.96 51.728 0.081 7.47 19.47 10.55
5/14/2021 9:15:00 PM 10.88 51.584 0.081 7.45 20.37 10.55
5/14/2021 9:30:00 PM 10.8 51.44 0.081 7.44 21.82 10.54
5/14/2021 9:45:00 PM 10.72 51.296 0.081 7.44 22.2 10.55
5/14/2021 10:00:00 PM 10.63 51.134 0.081 7.43 20.91 10.56
5/14/2021 10:15:00 PM 10.53 50.954 0.081 7.43 20.56 10.57
5/14/2021 10:30:00 PM 10.43 50.774 0.081 7.43 20.63 10.6
5/14/2021 10:45:00 PM 10.32 50.576 0.082 7.43 20.99 10.62
5/14/2021 11:00:00 PM 10.21 50.378 0.082 7.43 21.69 10.65
5/14/2021 11:15:00 PM 10.1 50.18 0.082 7.43 20.75 10.68
5/14/2021 11:30:00 PM 10 50 0.082 7.42 15.96 10.71
5/14/2021 11:45:00 PM 9.9 49.82 0.082 7.42 13.17 10.73
5/15/2021 12:00:00 AM 9.81 49.658 0.082 7.42 13.82 10.76
5/15/2021 12:15:00 AM 9.73 49.514 0.082 7.42 13.57 10.79
5/15/2021 12:30:00 AM 9.66 49.388 0.082 7.42 12.71 10.81
5/15/2021 12:45:00 AM 9.58 49.244 0.082 7.42 13.41 10.82
5/15/2021 1:00:00 AM 9.51 49.118 0.082 7.41 13.05 10.85
5/15/2021 1:15:00 AM 9.44 48.992 0.082 7.41 13.27 10.88
5/15/2021 1:30:00 AM 9.36 48.848 0.082 7.42 13.36 10.9
5/15/2021 1:45:00 AM 9.29 48.722 0.082 7.42 13.14 10.92
5/15/2021 2:00:00 AM 9.22 48.596 0.082 7.41 13.29 10.93
5/15/2021 2:15:00 AM 9.15 48.47 0.082 7.41 13.7 10.95
5/15/2021 2:30:00 AM 9.08 48.344 0.082 7.41 13.52 10.97
5/15/2021 2:45:00 AM 9 48.2 0.082 7.41 13.71 11.01
5/15/2021 3:00:00 AM 8.93 48.074 0.083 7.41 13.65 11.02
5/15/2021 3:15:00 AM 8.85 47.93 0.083 7.41 13.68 11.05
5/15/2021 3:30:00 AM 8.77 47.786 0.083 7.4 13.27 11.07
5/15/2021 3:45:00 AM 8.7 47.66 0.083 7.41 13.46 11.09
5/15/2021 4:00:00 AM 8.62 47.516 0.083 7.4 13.5 11.11
5/15/2021 4:15:00 AM 8.55 47.39 0.083 7.4 13.32 11.14
5/15/2021 4:30:00 AM 8.48 47.264 0.083 7.4 13.34 11.15
5/15/2021 4:45:00 AM 8.41 47.138 0.083 7.4 13.13 11.17
5/15/2021 5:00:00 AM 8.34 47.012 0.083 7.4 13.12 11.2
5/15/2021 5:15:00 AM 8.27 46.886 0.083 7.4 12.85 11.22
5/15/2021 5:30:00 AM 8.2 46.76 0.083 7.4 13.38 11.24
5/15/2021 5:45:00 AM 8.13 46.634 0.083 7.41 13.64 11.27
5/15/2021 6:00:00 AM 8.06 46.508 0.083 7.41 13.82 11.3
5/15/2021 6:15:00 AM 8 46.4 0.083 7.42 14.5 11.34
5/15/2021 6:30:00 AM 7.95 46.31 0.083 7.42 13.67 11.39
5/15/2021 6:45:00 AM 7.9 46.22 0.083 7.44 13.8 11.46
5/15/2021 7:00:00 AM 7.86 46.148 0.083 7.45 14.52 11.53
5/15/2021 7:15:00 AM 7.84 46.112 0.083 7.47 14.33 11.61
5/15/2021 7:30:00 AM 7.83 46.094 0.083 7.49 13.81 11.68
5/15/2021 7:45:00 AM 7.85 46.13 0.083 7.51 14.37 11.75
5/15/2021 8:00:00 AM 7.87 46.166 0.083 7.53 13.05 11.8
5/15/2021 8:15:00 AM 7.91 46.238 0.083 7.54 13.08 11.85
5/15/2021 8:30:00 AM 7.99 46.382 0.083 7.57 13.51 11.88
5/15/2021 8:45:00 AM 8.08 46.544 0.083 7.58 13.15 11.91
5/15/2021 9:00:00 AM 8.21 46.778 0.083 7.6 13.05 11.92
5/15/2021 9:15:00 AM 8.37 47.066 0.083 7.62 13.12 11.93
5/15/2021 9:30:00 AM 8.55 47.39 0.083 7.64 13.15 11.93
5/15/2021 9:45:00 AM 8.75 47.75 0.082 7.67 12.86 11.91
5/15/2021 10:00:00 AM 8.97 48.146 0.082 7.69 13.65 11.89
5/15/2021 10:15:00 AM 9.21 48.578 0.082 7.71 13.37 11.85
5/15/2021 10:30:00 AM 9.46 49.028 0.082 7.74 13.19 11.82
5/15/2021 10:45:00 AM 9.73 49.514 0.082 7.76 13.46 11.77
5/15/2021 11:00:00 AM 10.01 50.018 0.082 7.8 12.91 11.72
5/15/2021 11:15:00 AM 10.29 50.522 0.082 7.81 13.12 11.67
5/15/2021 11:30:00 AM 10.39 50.702 0.082 7.78 12.87 11.61
5/15/2021 11:45:00 AM 10.56 51.008 0.082 7.8 12.83 11.57
5/15/2021 12:00:00 PM 10.59 51.062 0.082 7.8 12.95 11.51
5/15/2021 12:15:00 PM 10.58 51.044 0.082 7.81 13.11 11.49
5/15/2021 12:30:00 PM 10.56 51.008 0.082 7.8 13.5 11.48
5/15/2021 12:45:00 PM 10.61 51.098 0.082 7.83 13.32 11.5
5/15/2021 1:00:00 PM 10.7 51.26 0.082 7.84 13.66 11.52
5/15/2021 1:15:00 PM 10.77 51.386 0.082 7.86 13.11 11.52
5/15/2021 1:30:00 PM 10.84 51.512 0.082 7.88 13.2 11.52
5/15/2021 1:45:00 PM 10.96 51.728 0.082 7.97 13.31 11.52
5/15/2021 2:00:00 PM 11.16 52.088 0.082 8.02 12.9 11.5
5/15/2021 2:15:00 PM 11.45 52.61 0.082 8.05 12.99 11.49
5/15/2021 2:30:00 PM 11.59 52.862 0.082 8.04 13.56 11.42
5/15/2021 2:45:00 PM 11.84 53.312 0.082 8.07 13.52 11.41
5/15/2021 3:00:00 PM 12.01 53.618 0.082 8.05 13.44 11.38
5/15/2021 3:15:00 PM 12.15 53.87 0.082 8.03 13.15 11.33
5/15/2021 3:30:00 PM 12.23 54.014 0.082 8.04 13.31 11.28
5/15/2021 3:45:00 PM 12.32 54.176 0.082 8.04 13.26 11.26
5/15/2021 4:00:00 PM 12.48 54.464 0.082 8.05 13.36 11.22
5/15/2021 4:15:00 PM 12.5 54.5 0.082 8.04 13.53 11.2
5/15/2021 4:30:00 PM 12.44 54.392 0.082 8.03 13.85 11.19
5/15/2021 4:45:00 PM 12.42 54.356 0.082 8.01 13.07 11.19
5/15/2021 5:00:00 PM 12.42 54.356 0.082 7.99 13.23 11.16
5/15/2021 5:15:00 PM 12.42 54.356 0.082 7.99 13.33 11.13
5/15/2021 5:30:00 PM 12.43 54.374 0.082 7.98 13.15 11.11
5/15/2021 5:45:00 PM 12.39 54.302 0.082 7.93 13.36 11.05
5/15/2021 6:00:00 PM 12.28 54.104 0.082 7.88 13.48 10.95
5/15/2021 6:15:00 PM 12.24 54.032 0.082 7.83 13.25 10.9
5/15/2021 6:30:00 PM 12.24 54.032 0.082 7.8 13.95 10.9
5/15/2021 6:45:00 PM 12.21 53.978 0.082 7.79 14.09 10.9
5/15/2021 7:00:00 PM 12.15 53.87 0.082 7.77 13.84 10.85
5/15/2021 7:15:00 PM 12.11 53.798 0.083 7.73 13.86 10.77
5/15/2021 7:30:00 PM 12.07 53.726 0.083 7.69 13.71 10.69
5/15/2021 7:45:00 PM 12.03 53.654 0.083 7.64 14.08 10.63
5/15/2021 8:00:00 PM 12 53.6 0.083 7.61 14.06 10.56
5/15/2021 8:15:00 PM 11.95 53.51 0.083 7.57 14.16 10.47
5/15/2021 8:30:00 PM 11.88 53.384 0.083 7.54 14.08 10.41
5/15/2021 8:45:00 PM 11.81 53.258 0.083 7.51 14.54 10.37
5/15/2021 9:00:00 PM 11.72 53.096 0.083 7.49 14.28 10.35
5/15/2021 9:15:00 PM 11.63 52.934 0.084 7.48 14.61 10.35
5/15/2021 9:30:00 PM 11.54 52.772 0.084 7.47 14.18 10.35
5/15/2021 9:45:00 PM 11.43 52.574 0.084 7.45 14.5 10.38
5/15/2021 10:00:00 PM 11.33 52.394 0.084 7.45 14.46 10.4
5/15/2021 10:15:00 PM 11.23 52.214 0.084 7.44 14.47 10.41
5/15/2021 10:30:00 PM 11.13 52.034 0.084 7.44 14.9 10.42
5/15/2021 10:45:00 PM 11.03 51.854 0.084 7.44 14.52 10.45
5/15/2021 11:00:00 PM 10.95 51.71 0.084 7.43 14.66 10.45
5/15/2021 11:15:00 PM 10.86 51.548 0.085 7.43 14.53 10.48
5/15/2021 11:30:00 PM 10.77 51.386 0.085 7.43 14.65 10.5
5/15/2021 11:45:00 PM 10.68 51.224 0.085 7.43 14.54 10.52
5/16/2021 12:00:00 AM 10.6 51.08 0.085 7.43 14.29 10.54
5/16/2021 12:15:00 AM 10.53 50.954 0.085 7.43 14.44 10.56
5/16/2021 12:30:00 AM 10.46 50.828 0.085 7.43 14.28 10.58
5/16/2021 12:45:00 AM 10.39 50.702 0.085 7.43 15.03 10.61
5/16/2021 1:00:00 AM 10.33 50.594 0.085 7.43 14.85 10.62
5/16/2021 1:15:00 AM 10.26 50.468 0.085 7.43 14.87 10.63
5/16/2021 1:30:00 AM 10.19 50.342 0.085 7.43 14.71 10.66
5/16/2021 1:45:00 AM 10.11 50.198 0.085 7.42 14.67 10.68
5/16/2021 2:00:00 AM 10.04 50.072 0.085 7.42 14.88 10.69
5/16/2021 2:15:00 AM 9.96 49.928 0.085 7.42 14.74 10.71
5/16/2021 2:30:00 AM 9.88 49.784 0.086 7.41 15.08 10.74
5/16/2021 2:45:00 AM 9.81 49.658 0.086 7.42 14.33 10.75
5/16/2021 3:00:00 AM 9.73 49.514 0.085 7.42 15.09 10.77
5/16/2021 3:15:00 AM 9.64 49.352 0.085 7.42 15 10.79
5/16/2021 3:30:00 AM 9.56 49.208 0.085 7.42 14.72 10.82
5/16/2021 3:45:00 AM 9.48 49.064 0.086 7.42 15.35 10.84
5/16/2021 4:00:00 AM 9.41 48.938 0.086 7.42 14.58 10.87
5/16/2021 4:15:00 AM 9.34 48.812 0.086 7.42 14.47 10.88
5/16/2021 4:30:00 AM 9.27 48.686 0.086 7.42 15.36 10.91
5/16/2021 4:45:00 AM 9.21 48.578 0.086 7.42 14.26 10.91
5/16/2021 5:00:00 AM 9.15 48.47 0.086 7.42 19.64 10.94
5/16/2021 5:15:00 AM 9.1 48.38 0.086 7.42 14.76 10.95
5/16/2021 5:30:00 AM 9.03 48.254 0.086 7.42 14.57 10.98
5/16/2021 5:45:00 AM 8.98 48.164 0.086 7.42 14.59 10.99
5/16/2021 6:00:00 AM 8.94 48.092 0.086 7.43 14.49 11.03
5/16/2021 6:15:00 AM 8.89 48.002 0.086 7.43 14.55 11.08
5/16/2021 6:30:00 AM 8.85 47.93 0.086 7.45 15 11.14
5/16/2021 6:45:00 AM 8.82 47.876 0.086 7.46 14.26 11.22
5/16/2021 7:00:00 AM 8.81 47.858 0.086 7.48 14.44 11.3
5/16/2021 7:15:00 AM 8.8 47.84 0.086 7.49 14.77 11.36
5/16/2021 7:30:00 AM 8.78 47.804 0.086 7.51 14.44 11.36
5/16/2021 7:45:00 AM 8.77 47.786 0.086 7.51 14.43 11.37
5/16/2021 8:00:00 AM 8.76 47.768 0.086 7.51 14.38 11.4
5/16/2021 8:15:00 AM 8.75 47.75 0.086 7.52 14.37 11.43
5/16/2021 8:30:00 AM 8.76 47.768 0.086 7.53 14.22 11.5
5/16/2021 8:45:00 AM 8.8 47.84 0.085 7.57 14.55 11.61
5/16/2021 9:00:00 AM 8.86 47.948 0.085 7.61 14.4 11.71
5/16/2021 9:15:00 AM 8.92 48.056 0.085 7.64 14.56 11.78
5/16/2021 9:30:00 AM 8.98 48.164 0.085 7.67 14.12 11.81
5/16/2021 9:45:00 AM 9.07 48.326 0.085 7.71 14.29 11.86
5/16/2021 10:00:00 AM 9.18 48.524 0.085 7.75 14.63 11.89
5/16/2021 10:15:00 AM 9.28 48.704 0.085 7.78 13.66 11.91
5/16/2021 10:30:00 AM 9.39 48.902 0.085 7.81 13.99 11.9
5/16/2021 10:45:00 AM 9.5 49.1 0.085 7.83 12.18 11.9
5/16/2021 11:00:00 AM 9.63 49.334 0.085 7.87 12.07 11.9
5/16/2021 11:15:00 AM 9.79 49.622 0.085 7.91 12.07 11.89
5/16/2021 11:30:00 AM 9.94 49.892 0.085 7.94 11.92 11.87
5/16/2021 11:45:00 AM 10.1 50.18 0.085 7.97 11.99 11.84
5/16/2021 12:00:00 PM 10.25 50.45 0.085 7.99 11.88 11.82
5/16/2021 12:15:00 PM 10.38 50.684 0.085 8.01 11.93 11.78
5/16/2021 12:30:00 PM 10.51 50.918 0.085 8.03 12.03 11.76
5/16/2021 12:45:00 PM 10.65 51.17 0.084 8.06 12.08 11.74
5/16/2021 1:00:00 PM 10.79 51.422 0.084 8.09 12.71 11.7
5/16/2021 1:15:00 PM 10.96 51.728 0.084 8.11 12.42 11.67
5/16/2021 1:30:00 PM 11.08 51.944 0.084 8.1 12.17 11.62
5/16/2021 1:45:00 PM 11.19 52.142 0.084 8.13 12.18 11.6
5/16/2021 2:00:00 PM 11.3 52.34 0.084 8.13 12.24 11.57
5/16/2021 2:15:00 PM 11.46 52.628 0.085 8.16 11.96 11.54
5/16/2021 2:30:00 PM 11.52 52.736 0.085 8.16 12.07 11.51
5/16/2021 2:45:00 PM 11.62 52.916 0.085 8.17 12.21 11.48
5/16/2021 3:00:00 PM 11.69 53.042 0.085 8.15 12.08 11.44
5/16/2021 3:15:00 PM 11.73 53.114 0.085 8.1 12.12 11.41
5/16/2021 3:30:00 PM 11.71 53.078 0.085 8.08 12.32 11.32
5/16/2021 3:45:00 PM 11.76 53.168 0.085 8.08 12.23 11.32
5/16/2021 4:00:00 PM 11.89 53.402 0.085 8.09 12.28 11.34
5/16/2021 4:15:00 PM 12 53.6 0.085 8.1 12.14 11.34
5/16/2021 4:30:00 PM 11.98 53.564 0.085 8.08 12.4 11.28
5/16/2021 4:45:00 PM 12.07 53.726 0.085 8.08 12.45 11.27
5/16/2021 5:00:00 PM 12.23 54.014 0.085 8.08 12.39 11.28
5/16/2021 5:15:00 PM 12.23 54.014 0.085 8.06 12.67 11.2
5/16/2021 5:30:00 PM 12.2 53.96 0.085 8.04 12.16 11.15
5/16/2021 5:45:00 PM 12.19 53.942 0.085 8 13.05 11.08
5/16/2021 6:00:00 PM 12.24 54.032 0.085 7.96 12.54 11.07
5/16/2021 6:15:00 PM 12.22 53.996 0.085 7.94 13.23 11.07
5/16/2021 6:30:00 PM 12.21 53.978 0.085 7.92 12.65 11.03
5/16/2021 6:45:00 PM 12.15 53.87 0.085 7.88 12.83 10.93
5/16/2021 7:00:00 PM 12.07 53.726 0.085 7.83 12.88 10.86
5/16/2021 7:15:00 PM 12 53.6 0.085 7.79 12.34 10.82
5/16/2021 7:30:00 PM 11.91 53.438 0.085 7.77 12.71 10.81
5/16/2021 7:45:00 PM 11.81 53.258 0.085 7.72 13.21 10.69
5/16/2021 8:00:00 PM 11.75 53.15 0.085 7.68 12.72 10.62
5/16/2021 8:15:00 PM 11.69 53.042 0.086 7.63 12.83 10.54
5/16/2021 8:30:00 PM 11.61 52.898 0.086 7.6 12.82 10.46
5/16/2021 8:45:00 PM 11.53 52.754 0.086 7.56 13.14 10.43
5/16/2021 9:00:00 PM 11.45 52.61 0.086 7.54 13.08 10.36
5/16/2021 9:15:00 PM 11.38 52.484 0.086 7.52 13.13 10.38
5/16/2021 9:30:00 PM 11.32 52.376 0.087 7.51 12.23 10.38
5/16/2021 9:45:00 PM 11.24 52.232 0.087 7.49 11.96 10.37
5/16/2021 10:00:00 PM 11.17 52.106 0.087 7.49 12.01 10.4
5/16/2021 10:15:00 PM 11.09 51.962 0.087 7.48 11.85 10.41
5/16/2021 10:30:00 PM 11.02 51.836 0.087 7.48 12.01 10.4
5/16/2021 10:45:00 PM 10.95 51.71 0.087 7.48 12.19 10.43
5/16/2021 11:00:00 PM 10.87 51.566 0.087 7.47 12.33 10.44
5/16/2021 11:15:00 PM 10.78 51.404 0.087 7.47 12.54 10.45
5/16/2021 11:30:00 PM 10.69 51.242 0.087 7.46 12.33 10.48
5/16/2021 11:45:00 PM 10.6 51.08 0.087 7.46 12.26 10.5
5/17/2021 12:00:00 AM 10.51 50.918 0.087 7.46 12.55 10.53
5/17/2021 12:15:00 AM 10.41 50.738 0.088 7.46 12.15 10.56
5/17/2021 12:30:00 AM 10.32 50.576 0.088 7.46 12.16 10.58
5/17/2021 12:45:00 AM 10.24 50.432 0.088 7.46 12.25 10.6
5/17/2021 1:00:00 AM 10.15 50.27 0.088 7.46 12.14 10.63
5/17/2021 1:15:00 AM 10.06 50.108 0.088 7.46 11.83 10.65
5/17/2021 1:30:00 AM 9.98 49.964 0.088 7.46 12.33 10.67
5/17/2021 1:45:00 AM 9.9 49.82 0.088 7.46 12.39 10.71
5/17/2021 2:00:00 AM 9.82 49.676 0.088 7.46 11.91 10.74
5/17/2021 2:15:00 AM 9.74 49.532 0.088 7.46 12.16 10.76
5/17/2021 2:30:00 AM 9.66 49.388 0.088 7.46 12.15 10.78
5/17/2021 2:45:00 AM 9.59 49.262 0.088 7.46 11.8 10.81
5/17/2021 3:00:00 AM 9.51 49.118 0.088 7.46 11.84 10.82
5/17/2021 3:15:00 AM 9.44 48.992 0.088 7.46 11.94 10.83
5/17/2021 3:30:00 AM 9.37 48.866 0.088 7.45 12.17 10.85
5/17/2021 3:45:00 AM 9.29 48.722 0.088 7.46 12.09 10.87
5/17/2021 4:00:00 AM 9.22 48.596 0.088 7.45 12 10.88
5/17/2021 4:15:00 AM 9.15 48.47 0.088 7.46 12.18 10.91
5/17/2021 4:30:00 AM 9.07 48.326 0.088 7.45 11.82 10.93
5/17/2021 4:45:00 AM 9 48.2 0.088 7.46 12.01 10.97
5/17/2021 5:00:00 AM 8.93 48.074 0.088 7.46 11.59 11
5/17/2021 5:15:00 AM 8.86 47.948 0.088 7.46 12.1 11.01
5/17/2021 5:30:00 AM 8.79 47.822 0.088 7.46 11.92 11.03
5/17/2021 5:45:00 AM 8.72 47.696 0.088 7.46 11.6 11.06
5/17/2021 6:00:00 AM 8.65 47.57 0.088 7.46 11.86 11.09
5/17/2021 6:15:00 AM 8.59 47.462 0.088 7.47 12.03 11.14
5/17/2021 6:30:00 AM 8.53 47.354 0.088 7.48 11.9 11.21
5/17/2021 6:45:00 AM 8.49 47.282 0.088 7.49 11.6 11.3
5/17/2021 7:00:00 AM 8.45 47.21 0.088 7.51 11.71 11.37
5/17/2021 7:15:00 AM 8.44 47.192 0.088 7.53 11.57 11.46
5/17/2021 7:30:00 AM 8.44 47.192 0.088 7.55 11.54 11.54
5/17/2021 7:45:00 AM 8.45 47.21 0.088 7.57 11.87 11.63
5/17/2021 8:00:00 AM 8.48 47.264 0.088 7.59 12 11.69
5/17/2021 8:15:00 AM 8.52 47.336 0.088 7.61 11.82 11.74
5/17/2021 8:30:00 AM 8.6 47.48 0.088 7.64 11.65 11.79
5/17/2021 8:45:00 AM 8.7 47.66 0.088 7.66 11.69 11.84
5/17/2021 9:00:00 AM 8.83 47.894 0.088 7.68 11.48 11.85
5/17/2021 9:15:00 AM 8.99 48.182 0.088 7.71 11.39 11.85
5/17/2021 9:30:00 AM 9.19 48.542 0.088 7.74 11.51 11.82
5/17/2021 9:45:00 AM 9.41 48.938 0.088 7.76 11.69 11.83
5/17/2021 10:00:00 AM 9.65 49.37 0.088 7.79 11.61 11.81
5/17/2021 10:15:00 AM 9.91 49.838 0.088 7.82 11.58 11.79
5/17/2021 10:30:00 AM 10.18 50.324 0.088 7.85 11.2 11.75
5/17/2021 10:45:00 AM 10.47 50.846 0.087 7.88 11.79 11.71
5/17/2021 11:00:00 AM 10.76 51.368 0.087 7.9 11.41 11.66
5/17/2021 11:15:00 AM 11.07 51.926 0.087 7.93 11.49 11.61
5/17/2021 11:30:00 AM 11.38 52.484 0.087 7.96 11.71 11.55
5/17/2021 11:45:00 AM 11.67 53.006 0.087 7.97 11.34 11.51
5/17/2021 12:00:00 PM 11.99 53.582 0.087 7.99 11.45 11.42
5/17/2021 12:15:00 PM 12.36 54.248 0.087 8.02 11.43 11.39
5/17/2021 12:30:00 PM 12.65 54.77 0.087 8.05 11.47 11.31
5/17/2021 12:45:00 PM 12.97 55.346 0.087 8.07 11.49 11.24
5/17/2021 1:00:00 PM 13.32 55.976 0.087 8.09 11.46 11.18
5/17/2021 1:15:00 PM 13.64 56.552 0.087 8.11 11.47 11.08
5/17/2021 1:30:00 PM 13.93 57.074 0.087 8.13 11.7 11.05
5/17/2021 1:45:00 PM 14.22 57.596 0.087 8.16 11.38 10.99
5/17/2021 2:00:00 PM 14.5 58.1 0.087 8.2 11.56 10.95
5/17/2021 2:15:00 PM 14.76 58.568 0.087 8.23 11.6 10.9
5/17/2021 2:30:00 PM 15 59 0.087 8.26 11.48 10.86
5/17/2021 2:45:00 PM 14.98 58.964 0.087 8.23 11.82 10.77
5/17/2021 3:00:00 PM 14.99 58.982 0.087 8.2 11.5 10.69
5/17/2021 3:15:00 PM 15.22 59.396 0.087 8.23 11.62 10.66
5/17/2021 3:30:00 PM 15.36 59.648 0.087 8.24 11.54 10.66
5/17/2021 3:45:00 PM 15.47 59.846 0.087 8.24 11.09 10.67
5/17/2021 4:00:00 PM 15.57 60.026 0.087 8.25 11.51 10.64
5/17/2021 4:15:00 PM 15.49 59.882 0.087 8.19 11.73 10.52
5/17/2021 4:30:00 PM 15.56 60.008 0.087 8.17 11.2 10.52
5/17/2021 4:45:00 PM 15.49 59.882 0.087 8.09 11.35 10.36
5/17/2021 5:00:00 PM 15.43 59.774 0.087 8.05 11.48 10.33
5/17/2021 5:15:00 PM 15.49 59.882 0.087 8.07 11.58 10.4
5/17/2021 5:30:00 PM 15.59 60.062 0.087 8.07 11.89 10.41
5/17/2021 5:45:00 PM 15.53 59.954 0.087 8.06 11.83 10.35
5/17/2021 6:00:00 PM 15.46 59.828 0.087 8.01 11.82 10.3
5/17/2021 6:15:00 PM 15.37 59.666 0.087 7.96 11.61 10.22
5/17/2021 6:30:00 PM 15.25 59.45 0.087 7.91 11.84 10.17
5/17/2021 6:45:00 PM 15.1 59.18 0.087 7.87 12.23 10.12
5/17/2021 7:00:00 PM 14.9 58.82 0.087 7.81 11.6 10.05
5/17/2021 7:15:00 PM 14.68 58.424 0.087 7.75 11.44 9.92
5/17/2021 7:30:00 PM 14.51 58.118 0.087 7.72 11.88 9.97
5/17/2021 7:45:00 PM 14.36 57.848 0.087 7.67 11.96 9.8
5/17/2021 8:00:00 PM 14.23 57.614 0.088 7.65 12.03 9.89
5/17/2021 8:15:00 PM 14.1 57.38 0.088 7.62 12.19 9.86
5/17/2021 8:30:00 PM 13.96 57.128 0.088 7.59 12.23 9.8
5/17/2021 8:45:00 PM 13.82 56.876 0.088 7.56 11.84 9.8
5/17/2021 9:00:00 PM 13.67 56.606 0.088 7.54 11.76 9.78
5/17/2021 9:15:00 PM 13.53 56.354 0.088 7.53 11.46 9.79
5/17/2021 9:30:00 PM 13.41 56.138 0.088 7.52 11.45 9.8
5/17/2021 9:45:00 PM 13.29 55.922 0.088 7.51 11.89 9.81
5/17/2021 10:00:00 PM 13.17 55.706 0.088 7.5 11.95 9.84
5/17/2021 10:15:00 PM 13.05 55.49 0.089 7.5 11.99 9.86
5/17/2021 10:30:00 PM 12.92 55.256 0.089 7.5 11.51 9.89
5/17/2021 10:45:00 PM 12.8 55.04 0.089 7.49 11.2 9.92
5/17/2021 11:00:00 PM 12.68 54.824 0.089 7.49 11.51 9.93
5/17/2021 11:15:00 PM 12.56 54.608 0.089 7.49 11.76 9.96
5/17/2021 11:30:00 PM 12.45 54.41 0.089 7.48 11.66 10.02
5/17/2021 11:45:00 PM 12.33 54.194 0.089 7.48 11.49 10.04
5/18/2021 12:00:00 AM 12.22 53.996 0.089 7.48 11.4 10.09
5/18/2021 12:15:00 AM 12.1 53.78 0.089 7.48 11.14 10.11
5/18/2021 12:30:00 AM 11.99 53.582 0.089 7.48 11.27 10.14
5/18/2021 12:45:00 AM 11.87 53.366 0.089 7.48 11.84 10.18
5/18/2021 1:00:00 AM 11.75 53.15 0.089 7.48 11.27 10.19
5/18/2021 1:15:00 AM 11.64 52.952 0.09 7.48 11.71 10.23
5/18/2021 1:30:00 AM 11.53 52.754 0.09 7.48 11.65 10.27
5/18/2021 1:45:00 AM 11.42 52.556 0.09 7.48 11.36 10.29
5/18/2021 2:00:00 AM 11.32 52.376 0.09 7.48 11.42 10.32
5/18/2021 2:15:00 AM 11.22 52.196 0.09 7.48 11.24 10.35
5/18/2021 2:30:00 AM 11.12 52.016 0.09 7.48 11.33 10.38
5/18/2021 2:45:00 AM 11.02 51.836 0.09 7.48 11.72 10.39
5/18/2021 3:00:00 AM 10.93 51.674 0.09 7.48 11.67 10.42
5/18/2021 3:15:00 AM 10.84 51.512 0.09 7.48 11.36 10.44
5/18/2021 3:30:00 AM 10.75 51.35 0.09 7.47 11.31 10.46
5/18/2021 3:45:00 AM 10.66 51.188 0.09 7.48 11.51 10.49
5/18/2021 4:00:00 AM 10.57 51.026 0.09 7.47 11.1 10.52
5/18/2021 4:15:00 AM 10.48 50.864 0.09 7.48 12.21 10.55
5/18/2021 4:30:00 AM 10.4 50.72 0.09 7.48 11.95 10.59
5/18/2021 4:45:00 AM 10.31 50.558 0.09 7.47 11.92 10.59
5/18/2021 5:00:00 AM 10.23 50.414 0.09 7.47 11.81 10.63
5/18/2021 5:15:00 AM 10.15 50.27 0.09 7.47 12.53 10.65
5/18/2021 5:30:00 AM 10.07 50.126 0.09 7.47 12.94 10.66
5/18/2021 5:45:00 AM 9.99 49.982 0.091 7.47 12.13 10.67
5/18/2021 6:00:00 AM 9.91 49.838 0.09 7.47 11.68 10.73
5/18/2021 6:15:00 AM 9.84 49.712 0.09 7.48 10.31 10.79
5/18/2021 6:30:00 AM 9.77 49.586 0.09 7.49 10.85 10.87
5/18/2021 6:45:00 AM 9.71 49.478 0.09 7.51 10.6 10.94
5/18/2021 7:00:00 AM 9.66 49.388 0.09 7.53 10.41 11.04
5/18/2021 7:15:00 AM 9.64 49.352 0.09 7.54 10.13 11.12
5/18/2021 7:30:00 AM 9.63 49.334 0.09 7.57 9.97 11.23
5/18/2021 7:45:00 AM 9.64 49.352 0.09 7.6 9.86 11.3
5/18/2021 8:00:00 AM 9.66 49.388 0.09 7.62 10.33 11.37
5/18/2021 8:15:00 AM 9.7 49.46 0.09 7.64 9.94 11.44
5/18/2021 8:30:00 AM 9.76 49.568 0.09 7.67 9.94 11.5
5/18/2021 8:45:00 AM 9.85 49.73 0.09 7.69 10.24 11.58
5/18/2021 9:00:00 AM 9.98 49.964 0.09 7.72 9.94 11.6
5/18/2021 9:15:00 AM 10.13 50.234 0.089 7.75 9.74 11.62
5/18/2021 9:30:00 AM 10.32 50.576 0.089 7.78 9.65 11.63
5/18/2021 9:45:00 AM 10.54 50.972 0.089 7.81 9.85 11.62
5/18/2021 10:00:00 AM 10.78 51.404 0.089 7.84 9.94 11.61
5/18/2021 10:15:00 AM 11.04 51.872 0.089 7.87 9.6 11.57
5/18/2021 10:30:00 AM 11.32 52.376 0.089 7.91 9.75 11.53
5/18/2021 10:45:00 AM 11.62 52.916 0.089 7.95 9.78 11.49
5/18/2021 11:00:00 AM 11.93 53.474 0.089 7.97 9.54 11.44
5/18/2021 11:15:00 AM 12.25 54.05 0.089 8.01 9.62 11.4
5/18/2021 11:30:00 AM 12.59 54.662 0.089 8.04 9.75 11.35
5/18/2021 11:45:00 AM 12.92 55.256 0.089 8.09 9.92 11.3
5/18/2021 12:00:00 PM 13.24 55.832 0.089 8.14 9.74 11.23
5/18/2021 12:15:00 PM 13.61 56.498 0.089 8.17 9.89 11.17
5/18/2021 12:30:00 PM 13.99 57.182 0.089 8.21 10.05 11.13
5/18/2021 12:45:00 PM 14.34 57.812 0.089 8.25 9.93 11.04
5/18/2021 1:00:00 PM 14.63 58.334 0.089 8.28 9.84 10.98
5/18/2021 1:15:00 PM 14.77 58.586 0.089 8.26 9.9 10.9
5/18/2021 1:30:00 PM 15.04 59.072 0.089 8.3 9.88 10.88
5/18/2021 1:45:00 PM 15.17 59.306 0.089 8.29 9.67 10.79
5/18/2021 2:00:00 PM 15.5 59.9 0.089 8.3 9.83 10.79
5/18/2021 2:15:00 PM 15.62 60.116 0.089 8.29 10.27 10.72
5/18/2021 2:30:00 PM 15.63 60.134 0.089 8.32 10.04 10.68
5/18/2021 2:45:00 PM 15.52 59.936 0.089 8.31 10.12 10.58
5/18/2021 3:00:00 PM 15.5 59.9 0.089 8.3 10.81 10.58
5/18/2021 3:15:00 PM 15.53 59.954 0.089 8.34 9.05 10.66
5/18/2021 3:30:00 PM 15.51 59.918 0.089 8.35 9.12 10.65
5/18/2021 3:45:00 PM 15.52 59.936 0.089 8.34 8.99 10.64
5/18/2021 4:00:00 PM 15.57 60.026 0.089 8.33 9.16 10.62
5/18/2021 4:15:00 PM 15.68 60.224 0.089 8.34 9.07 10.63
5/18/2021 4:30:00 PM 15.7 60.26 0.089 8.34 9.05 10.59
5/18/2021 4:45:00 PM 15.86 60.548 0.089 8.34 8.94 10.63
5/18/2021 5:00:00 PM 15.77 60.386 0.09 8.3 8.91 10.53
5/18/2021 5:15:00 PM 15.59 60.062 0.09 8.21 9.34 10.4
5/18/2021 5:30:00 PM 15.41 59.738 0.089 8.13 8.79 10.31
5/18/2021 5:45:00 PM 15.36 59.648 0.09 8.08 8.95 10.32
5/18/2021 6:00:00 PM 15.37 59.666 0.09 8.04 9.06 10.3
5/18/2021 6:15:00 PM 15.38 59.684 0.09 8.01 10.04 10.28
5/18/2021 6:30:00 PM 15.36 59.648 0.09 7.95 9.58 10.17
5/18/2021 6:45:00 PM 15.32 59.576 0.09 7.89 9.7 10.08
5/18/2021 7:00:00 PM 15.28 59.504 0.09 7.85 9.37 10.02
5/18/2021 7:15:00 PM 15.23 59.414 0.09 7.8 8.88 9.95
5/18/2021 7:30:00 PM 15.13 59.234 0.09 7.75 8.29 9.85
5/18/2021 7:45:00 PM 15.03 59.054 0.09 7.7 8.57 9.8
5/18/2021 8:00:00 PM 14.93 58.874 0.09 7.67 7.86 9.75
5/18/2021 8:15:00 PM 14.82 58.676 0.091 7.64 7.32 9.72
5/18/2021 8:30:00 PM 14.69 58.442 0.091 7.61 7.66 9.66
5/18/2021 8:45:00 PM 14.55 58.19 0.091 7.58 7.44 9.63
5/18/2021 9:00:00 PM 14.4 57.92 0.091 7.55 7.54 9.63
5/18/2021 9:15:00 PM 14.26 57.668 0.091 7.54 7.68 9.63
5/18/2021 9:30:00 PM 14.12 57.416 0.091 7.53 7.57 9.65
5/18/2021 9:45:00 PM 13.99 57.182 0.091 7.52 7.51 9.67
5/18/2021 10:00:00 PM 13.86 56.948 0.091 7.51 3.94 9.69
5/18/2021 10:15:00 PM 13.73 56.714 0.092 7.51 3.79 9.72
5/18/2021 10:30:00 PM 13.61 56.498 0.092 7.51 3.95 9.74
5/18/2021 10:45:00 PM 13.49 56.282 0.092 7.5 3.91 9.76
5/18/2021 11:00:00 PM 13.37 56.066 0.092 7.5 3.97 9.79
5/18/2021 11:15:00 PM 13.25 55.85 0.092 7.5 3.86 9.82
5/18/2021 11:30:00 PM 13.14 55.652 0.092 7.5 3.96 9.84
5/18/2021 11:45:00 PM 13.03 55.454 0.092 7.5 3.78 9.88
5/19/2021 12:00:00 AM 12.92 55.256 0.092 7.49 3.92 9.9
5/19/2021 12:15:00 AM 12.81 55.058 0.092 7.49 3.85 9.92
5/19/2021 12:30:00 AM 12.7 54.86 0.092 7.49 3.89 9.96
5/19/2021 12:45:00 AM 12.59 54.662 0.092 7.49 4.11 9.98
5/19/2021 1:00:00 AM 12.48 54.464 0.092 7.49 4.08 10.02
5/19/2021 1:15:00 AM 12.38 54.284 0.092 7.49 3.97 10.03
5/19/2021 1:30:00 AM 12.27 54.086 0.092 7.49 3.87 10.06
5/19/2021 1:45:00 AM 12.17 53.906 0.093 7.49 3.89 10.09
5/19/2021 2:00:00 AM 12.06 53.708 0.093 7.49 4.01 10.12
5/19/2021 2:15:00 AM 11.95 53.51 0.093 7.49 4.19 10.14
5/19/2021 2:30:00 AM 11.85 53.33 0.093 7.49 4.26 10.17
5/19/2021 2:45:00 AM 11.76 53.168 0.093 7.49 4.48 10.21
5/19/2021 3:00:00 AM 11.66 52.988 0.093 7.49 4.65 10.22
5/19/2021 3:15:00 AM 11.56 52.808 0.093 7.49 4.26 10.25
5/19/2021 3:30:00 AM 11.47 52.646 0.093 7.48 4.33 10.28
5/19/2021 3:45:00 AM 11.38 52.484 0.093 7.48 4.14 10.29
5/19/2021 4:00:00 AM 11.29 52.322 0.093 7.48 4.19 10.33
5/19/2021 4:15:00 AM 11.21 52.178 0.093 7.48 3.36 10.35
5/19/2021 4:30:00 AM 11.13 52.034 0.093 7.48 3.23 10.38
5/19/2021 4:45:00 AM 11.05 51.89 0.093 7.48 3.6 10.4
5/19/2021 5:00:00 AM 10.97 51.746 0.093 7.48 3.52 10.42
5/19/2021 5:15:00 AM 10.89 51.602 0.093 7.48 3.4 10.44
5/19/2021 5:30:00 AM 10.82 51.476 0.093 7.47 3.45 10.47
5/19/2021 5:45:00 AM 10.74 51.332 0.093 7.47 3.66 10.49
5/19/2021 6:00:00 AM 10.67 51.206 0.093 7.48 3.65 10.54
5/19/2021 6:15:00 AM 10.6 51.08 0.093 7.49 3.31 10.59
5/19/2021 6:30:00 AM 10.54 50.972 0.093 7.5 3.4 10.67
5/19/2021 6:45:00 AM 10.49 50.882 0.092 7.52 3.38 10.77
5/19/2021 7:00:00 AM 10.45 50.81 0.093 7.54 3.28 10.87
5/19/2021 7:15:00 AM 10.43 50.774 0.093 7.56 3.3 10.98
5/19/2021 7:30:00 AM 10.42 50.756 0.093 7.59 3.38 11.09
5/19/2021 7:45:00 AM 10.44 50.792 0.093 7.62 3.17 11.18
5/19/2021 8:00:00 AM 10.47 50.846 0.093 7.65 3.19 11.26
5/19/2021 8:15:00 AM 10.52 50.936 0.093 7.68 3.25 11.33
5/19/2021 8:30:00 AM 10.58 51.044 0.093 7.71 3.1 11.39
5/19/2021 8:45:00 AM 10.68 51.224 0.092 7.74 3.21 11.43
5/19/2021 9:00:00 AM 10.79 51.422 0.092 7.77 3.34 11.46
5/19/2021 9:15:00 AM 10.95 51.71 0.092 7.81 3.15 11.49
5/19/2021 9:30:00 AM 11.13 52.034 0.092 7.83 3.16 11.49
5/19/2021 9:45:00 AM 11.35 52.43 0.092 7.87 2.99 11.48
5/19/2021 10:00:00 AM 11.58 52.844 0.092 7.9 2.97 11.47
5/19/2021 10:15:00 AM 11.85 53.33 0.092 7.94 2.87 11.44
5/19/2021 10:30:00 AM 12.14 53.852 0.092 7.98 3.02 11.42
5/19/2021 10:45:00 AM 12.44 54.392 0.092 8.02 3.19 11.37
5/19/2021 11:00:00 AM 12.77 54.986 0.091 8.06 3.29 11.33
5/19/2021 11:15:00 AM 13.1 55.58 0.091 8.1 3.07 11.27
5/19/2021 11:30:00 AM 13.44 56.192 0.091 8.13 3.09 11.21
5/19/2021 11:45:00 AM 13.79 56.822 0.091 8.16 3.07 11.16
5/19/2021 12:00:00 PM 14.14 57.452 0.091 8.2 3.06 11.12
5/19/2021 12:15:00 PM 14.49 58.082 0.091 8.24 3.11 11.04
5/19/2021 12:30:00 PM 14.84 58.712 0.091 8.28 2.97 10.97
5/19/2021 12:45:00 PM 15.18 59.324 0.091 8.31 3.15 10.93
5/19/2021 1:00:00 PM 15.52 59.936 0.091 8.34 2.51 10.85
5/19/2021 1:15:00 PM 15.84 60.512 0.091 8.37 2.45 10.79
5/19/2021 1:30:00 PM 16.17 61.106 0.091 8.39 16.56 10.74
5/19/2021 1:45:00 PM 16.47 61.646 0.091 8.42 2.63 10.68
5/19/2021 2:00:00 PM 16.76 62.168 0.091 8.45 2.52 10.63
5/19/2021 2:15:00 PM 17.04 62.672 0.091 8.48 2.5 10.57
5/19/2021 2:30:00 PM 17.32 63.176 0.091 8.5 2.68 10.52
5/19/2021 2:45:00 PM 17.58 63.644 0.091 8.53 2.52 10.5
5/19/2021 3:00:00 PM 17.84 64.112 0.091 8.57 2.66 10.49
5/19/2021 3:15:00 PM 17.95 64.31 0.091 8.6 2.53 10.42
5/19/2021 3:30:00 PM 18.05 64.49 0.091 8.64 2.82 10.4
5/19/2021 3:45:00 PM 18.18 64.724 0.091 8.66 2.61 10.36
5/19/2021 4:00:00 PM 18.19 64.742 0.091 8.63 2.6 10.3
5/19/2021 4:15:00 PM 18.08 64.544 0.091 8.61 1.71 10.27
5/19/2021 4:30:00 PM 17.92 64.256 0.091 8.59 1.76 10.25
5/19/2021 4:45:00 PM 17.9 64.22 0.091 8.59 1.75 10.26
5/19/2021 5:00:00 PM 17.92 64.256 0.091 8.56 1.79 10.2
5/19/2021 5:15:00 PM 17.94 64.292 0.091 8.56 1.79 10.22
5/19/2021 5:30:00 PM 17.85 64.13 0.091 8.52 1.87 10.17
5/19/2021 5:45:00 PM 17.74 63.932 0.091 8.47 1.91 10.13
5/19/2021 6:00:00 PM 17.6 63.68 0.091 8.37 1.88 10.06
5/19/2021 6:15:00 PM 17.48 63.464 0.091 8.28 1.81 9.95
5/19/2021 6:30:00 PM 17.35 63.23 0.091 8.16 1.84 9.86
5/19/2021 6:45:00 PM 17.24 63.032 0.091 8.07 1.97 9.79
5/19/2021 7:00:00 PM 17.13 62.834 0.091 7.99 2.04 9.73
5/19/2021 7:15:00 PM 17.03 62.654 0.092 7.91 1.42 9.66
5/19/2021 7:30:00 PM 16.93 62.474 0.092 7.85 1.37 9.59
5/19/2021 7:45:00 PM 16.83 62.294 0.092 7.79 1.41 9.49
5/19/2021 8:00:00 PM 16.72 62.096 0.092 7.73 1.35 9.45
5/19/2021 8:15:00 PM 16.6 61.88 0.092 7.68 1.43 9.36
5/19/2021 8:30:00 PM 16.48 61.664 0.093 7.64 1.55 9.27
5/19/2021 8:45:00 PM 16.36 61.448 0.093 7.6 1.48 9.24
5/19/2021 9:00:00 PM 16.23 61.214 0.093 7.57 1.64 9.21
5/19/2021 9:15:00 PM 16.09 60.962 0.093 7.55 1.53 9.21
5/19/2021 9:30:00 PM 15.94 60.692 0.093 7.54 1.57 9.22
5/19/2021 9:45:00 PM 15.79 60.422 0.093 7.53 1.61 9.24
5/19/2021 10:00:00 PM 15.63 60.134 0.094 7.52 1.83 9.26
5/19/2021 10:15:00 PM 15.47 59.846 0.094 7.52 1.66 9.29
5/19/2021 10:30:00 PM 15.32 59.576 0.094 7.51 1.76 9.31
5/19/2021 10:45:00 PM 15.16 59.288 0.094 7.51 1.55 9.35
5/19/2021 11:00:00 PM 15.01 59.018 0.094 7.51 1.81 9.39
5/19/2021 11:15:00 PM 14.86 58.748 0.094 7.5 1.6 9.41
5/19/2021 11:30:00 PM 14.71 58.478 0.094 7.5 1.57 9.45
5/19/2021 11:45:00 PM 14.58 58.244 0.094 7.5 1.69 9.48
5/20/2021 12:00:00 AM 14.45 58.01 0.094 7.5 1.66 9.5
5/20/2021 12:15:00 AM 14.32 57.776 0.094 7.5 1.7 9.53
5/20/2021 12:30:00 AM 14.2 57.56 0.094 7.49 2.86 9.56
5/20/2021 12:45:00 AM 14.08 57.344 0.094 7.5 3.35 9.59
5/20/2021 1:00:00 AM 13.97 57.146 0.094 7.5 1.76 9.62
5/20/2021 1:15:00 AM 13.86 56.948 0.094 7.5 1.68 9.64
5/20/2021 1:30:00 AM 13.75 56.75 0.094 7.49 2.18 9.67
5/20/2021 1:45:00 AM 13.64 56.552 0.095 7.49 1.74 9.71
5/20/2021 2:00:00 AM 13.54 56.372 0.095 7.49 1.63 9.73
5/20/2021 2:15:00 AM 13.43 56.174 0.095 7.49 1.81 9.75
5/20/2021 2:30:00 AM 13.34 56.012 0.095 7.49 1.66 9.78
5/20/2021 2:45:00 AM 13.24 55.832 0.095 7.49 1.61 9.81
5/20/2021 3:00:00 AM 13.14 55.652 0.095 7.49 1.92 9.83
5/20/2021 3:15:00 AM 13.04 55.472 0.095 7.49 1.93 9.86
5/20/2021 3:30:00 AM 12.95 55.31 0.095 7.49 1.71 9.87
5/20/2021 3:45:00 AM 12.86 55.148 0.095 7.49 1.88 9.91
5/20/2021 4:00:00 AM 12.77 54.986 0.095 7.49 1.72 9.92
5/20/2021 4:15:00 AM 12.68 54.824 0.095 7.49 1.73 9.95
5/20/2021 4:30:00 AM 12.6 54.68 0.095 7.49 1.54 9.98
5/20/2021 4:45:00 AM 12.52 54.536 0.095 7.49 1.64 10
5/20/2021 5:00:00 AM 12.45 54.41 0.095 7.49 1.6 10.02
5/20/2021 5:15:00 AM 12.38 54.284 0.095 7.49 1.7 10.05
5/20/2021 5:30:00 AM 12.31 54.158 0.095 7.49 1.65 10.07
5/20/2021 5:45:00 AM 12.24 54.032 0.095 7.49 1.51 10.09
5/20/2021 6:00:00 AM 12.18 53.924 0.095 7.49 1.53 10.14
5/20/2021 6:15:00 AM 12.13 53.834 0.095 7.5 1.52 10.18
5/20/2021 6:30:00 AM 12.08 53.744 0.095 7.51 1.6 10.28
5/20/2021 6:45:00 AM 12.04 53.672 0.095 7.53 1.45 10.4
5/20/2021 7:00:00 AM 12.01 53.618 0.095 7.57 1.63 10.53
5/20/2021 7:15:00 AM 12.01 53.618 0.095 7.6 1.41 10.69
5/20/2021 7:30:00 AM 12.05 53.69 0.095 7.64 1.39 10.84
5/20/2021 7:45:00 AM 12.07 53.726 0.095 7.69 1.43 10.94
5/20/2021 8:00:00 AM 12.08 53.744 0.095 7.72 1.39 11.02
5/20/2021 8:15:00 AM 12.11 53.798 0.095 7.75 1.41 11.08
5/20/2021 8:30:00 AM 12.19 53.942 0.094 7.78 1.35 11.11
5/20/2021 8:45:00 AM 12.3 54.14 0.094 7.82 1.46 11.18
5/20/2021 9:00:00 AM 12.36 54.248 0.094 7.85 1.45 11.22
5/20/2021 9:15:00 AM 12.46 54.428 0.094 7.9 1.38 11.25
5/20/2021 9:30:00 AM 12.58 54.644 0.094 7.94 1.37 11.29
5/20/2021 9:45:00 AM 12.73 54.914 0.094 7.99 1.36 11.3
5/20/2021 10:00:00 AM 13.01 55.418 0.094 8.05 1.22 11.31
5/20/2021 10:15:00 AM 13.19 55.742 0.094 8.09 1.34 11.29
5/20/2021 10:30:00 AM 13.42 56.156 0.094 8.13 1.25 11.25
5/20/2021 10:45:00 AM 13.68 56.624 0.094 8.16 1.25 11.2
5/20/2021 11:00:00 AM 13.94 57.092 0.093 8.19 1.36 11.17
5/20/2021 11:15:00 AM 14.25 57.65 0.093 8.24 1.34 11.12
5/20/2021 11:30:00 AM 14.61 58.298 0.093 8.27 1.43 11.08
5/20/2021 11:45:00 AM 14.97 58.946 0.093 8.31 1.29 11
5/20/2021 12:00:00 PM 15.31 59.558 0.093 8.35 1.31 10.96
5/20/2021 12:15:00 PM 15.67 60.206 0.093 8.39 1.26 10.86
5/20/2021 12:30:00 PM 16.03 60.854 0.093 8.43 1.38 10.83
5/20/2021 12:45:00 PM 16.38 61.484 0.093 8.47 1.3 10.77
5/20/2021 1:00:00 PM 16.71 62.078 0.093 8.5 1.4 10.72
5/20/2021 1:15:00 PM 17.01 62.618 0.093 8.54 1.49 10.66
5/20/2021 1:30:00 PM 17.31 63.158 0.093 8.55 1.24 10.58
5/20/2021 1:45:00 PM 17.61 63.698 0.093 8.58 1.44 10.51
5/20/2021 2:00:00 PM 17.91 64.238 0.093 8.6 1.25 10.48
5/20/2021 2:15:00 PM 18.17 64.706 0.093 8.62 1.28 10.42
5/20/2021 2:30:00 PM 18.33 64.994 0.093 8.63 1.43 10.32
5/20/2021 2:45:00 PM 18.54 65.372 0.093 8.6 14.14 10.27
5/20/2021 3:00:00 PM 18.68 65.624 0.093 8.63 2.13 10.24
5/20/2021 3:15:00 PM 18.76 65.768 0.093 8.62 1.89 10.17
5/20/2021 3:30:00 PM 18.86 65.948 0.093 8.63 2.34 10.16
5/20/2021 3:45:00 PM 19.04 66.272 0.093 8.64 2.08 10.15
5/20/2021 4:00:00 PM 19.22 66.596 0.093 8.64 2.06 10.09
5/20/2021 4:15:00 PM 19.32 66.776 0.093 8.64 2.7 10.06
5/20/2021 4:30:00 PM 19.37 66.866 0.093 8.64 2.57 10.01
5/20/2021 4:45:00 PM 19.42 66.956 0.093 8.62 2.7 9.96
5/20/2021 5:00:00 PM 19.42 66.956 0.093 8.59 2.41 9.9
5/20/2021 5:15:00 PM 19.36 66.848 0.093 8.53 2.58 9.83
5/20/2021 5:30:00 PM 19.24 66.632 0.093 8.45 2.4 9.76
5/20/2021 5:45:00 PM 19.18 66.524 0.093 8.39 1.25 9.74
5/20/2021 6:00:00 PM 19.1 66.38 0.093 8.32 1.42 9.7
5/20/2021 6:15:00 PM 19.01 66.218 0.093 8.24 1.23 9.6
5/20/2021 6:30:00 PM 18.88 65.984 0.094 8.16 1.45 9.54
5/20/2021 6:45:00 PM 18.72 65.696 0.094 8.07 1.3 9.48
5/20/2021 7:00:00 PM 18.61 65.498 0.094 7.99 1.39 9.43
5/20/2021 7:15:00 PM 18.46 65.228 0.094 7.92 1.32 9.32
5/20/2021 7:30:00 PM 18.29 64.922 0.094 7.84 1.29 9.24
5/20/2021 7:45:00 PM 18.14 64.652 0.094 7.78 1.37 9.18
5/20/2021 8:00:00 PM 18 64.4 0.095 7.73 1.41 9.11
5/20/2021 8:15:00 PM 17.85 64.13 0.095 7.68 1.45 9.03
5/20/2021 8:30:00 PM 17.7 63.86 0.095 7.64 1.47 8.96
5/20/2021 8:45:00 PM 17.56 63.608 0.095 7.6 1.45 8.92
5/20/2021 9:00:00 PM 17.42 63.356 0.095 7.58 1.44 8.89
5/20/2021 9:15:00 PM 17.29 63.122 0.095 7.56 1.51 8.88
5/20/2021 9:30:00 PM 17.17 62.906 0.096 7.55 1.59 8.89
5/20/2021 9:45:00 PM 17.04 62.672 0.096 7.54 1.64 8.91
5/20/2021 10:00:00 PM 16.91 62.438 0.096 7.54 1.53 8.92
5/20/2021 10:15:00 PM 16.79 62.222 0.096 7.52 1.53 8.94
5/20/2021 10:30:00 PM 16.67 62.006 0.096 7.52 1.63 8.93
5/20/2021 10:45:00 PM 16.55 61.79 0.096 7.52 1.56 8.97
5/20/2021 11:00:00 PM 16.43 61.574 0.096 7.51 1.69 9.01
5/20/2021 11:15:00 PM 16.3 61.34 0.097 7.51 1.61 9.03
5/20/2021 11:30:00 PM 16.18 61.124 0.097 7.51 1.57 9.06
5/20/2021 11:45:00 PM 16.05 60.89 0.097 7.51 2 9.08
5/21/2021 12:00:00 AM 15.93 60.674 0.097 7.51 1.87 9.11
5/21/2021 12:15:00 AM 15.81 60.458 0.097 7.5 1.88 9.15
5/21/2021 12:30:00 AM 15.69 60.242 0.097 7.5 1.97 9.18
5/21/2021 12:45:00 AM 15.57 60.026 0.097 7.5 1.89 9.2
5/21/2021 1:00:00 AM 15.45 59.81 0.097 7.5 1.8 9.2
5/21/2021 1:15:00 AM 15.34 59.612 0.097 7.5 1.63 9.27
5/21/2021 1:30:00 AM 15.22 59.396 0.097 7.5 3.26 9.3
5/21/2021 1:45:00 AM 15.1 59.18 0.097 7.5 1.89 9.33
5/21/2021 2:00:00 AM 14.98 58.964 0.098 7.49 1.65 9.36
5/21/2021 2:15:00 AM 14.86 58.748 0.098 7.5 1.69 9.38
5/21/2021 2:30:00 AM 14.75 58.55 0.098 7.49 1.65 9.41
5/21/2021 2:45:00 AM 14.64 58.352 0.098 7.49 1.79 9.43
5/21/2021 3:00:00 AM 14.53 58.154 0.098 7.49 1.84 9.44
5/21/2021 3:15:00 AM 14.42 57.956 0.098 7.5 1.79 9.49
5/21/2021 3:30:00 AM 14.32 57.776 0.098 7.49 2.01 9.51
5/21/2021 3:45:00 AM 14.22 57.596 0.098 7.49 20.25 9.54
5/21/2021 4:00:00 AM 14.12 57.416 0.098 7.51 1.78 9.47
5/21/2021 4:15:00 AM 14.02 57.236 0.098 7.51 1.78 9.61
5/21/2021 4:30:00 AM 13.93 57.074 0.098 7.51 1.95 9.61
5/21/2021 4:45:00 AM 13.83 56.894 0.098 7.51 2.75 9.61
5/21/2021 5:00:00 AM 13.74 56.732 0.098 7.51 1.86 9.7
5/21/2021 5:15:00 AM 13.65 56.57 0.098 7.51 3.13 9.72
5/21/2021 5:30:00 AM 13.56 56.408 0.098 7.52 1.48 9.74
5/21/2021 5:45:00 AM 13.47 56.246 0.098 7.53 1.53 9.75
5/21/2021 6:00:00 AM 13.38 56.084 0.098 7.53 1.49 9.82
5/21/2021 6:15:00 AM 13.31 55.958 0.098 7.54 1.58 9.89
5/21/2021 6:30:00 AM 13.23 55.814 0.098 7.56 1.48 9.97
5/21/2021 6:45:00 AM 13.17 55.706 0.098 7.58 1.56 10.06
5/21/2021 7:00:00 AM 13.12 55.616 0.098 7.6 1.41 10.19
5/21/2021 7:15:00 AM 13.1 55.58 0.098 7.63 1.38 10.3
5/21/2021 7:30:00 AM 13.09 55.562 0.098 7.67 1.67 10.43
5/21/2021 7:45:00 AM 13.1 55.58 0.098 7.7 1.31 10.53
5/21/2021 8:00:00 AM 13.12 55.616 0.097 7.74 1.3 10.63
5/21/2021 8:15:00 AM 13.16 55.688 0.097 7.77 1.39 10.7
5/21/2021 8:30:00 AM 13.21 55.778 0.097 7.8 1.32 10.78
5/21/2021 8:45:00 AM 13.29 55.922 0.097 7.84 1.32 10.83
5/21/2021 9:00:00 AM 13.39 56.102 0.097 7.88 1.28 10.86
5/21/2021 9:15:00 AM 13.51 56.318 0.097 7.91 1.36 10.89
5/21/2021 9:30:00 AM 13.68 56.624 0.097 7.96 1.38 10.92
5/21/2021 9:45:00 AM 13.87 56.966 0.096 8.01 1.29 10.95
5/21/2021 10:00:00 AM 14.09 57.362 0.096 8.05 1.24 10.95
5/21/2021 10:15:00 AM 14.34 57.812 0.096 8.09 1.32 10.93
5/21/2021 10:30:00 AM 14.62 58.316 0.096 8.14 1.29 10.93
5/21/2021 10:45:00 AM 14.89 58.802 0.096 8.19 1.35 10.92
5/21/2021 11:00:00 AM 15.2 59.36 0.096 8.25 1.43 10.89
5/21/2021 11:15:00 AM 15.53 59.954 0.096 8.3 1.27 10.86
5/21/2021 11:30:00 AM 15.85 60.53 0.096 8.35 1.24 10.82
5/21/2021 11:45:00 AM 16.19 61.142 0.096 8.39 1.35 10.77
5/21/2021 12:00:00 PM 16.52 61.736 0.096 8.44 1.32 10.72
5/21/2021 12:15:00 PM 16.89 62.402 0.096 8.49 1.29 10.68
5/21/2021 12:30:00 PM 17.24 63.032 0.096 8.52 1.24 10.52
5/21/2021 12:45:00 PM 17.58 63.644 0.096 8.56 1.28 10.53
5/21/2021 1:00:00 PM 17.91 64.238 0.096 8.61 1.32 10.49
5/21/2021 1:15:00 PM 18.23 64.814 0.096 8.64 1.33 10.44
5/21/2021 1:30:00 PM 18.54 65.372 0.096 8.68 1.11 10.39
5/21/2021 1:45:00 PM 18.82 65.876 0.095 8.72 1.13 10.34
5/21/2021 2:00:00 PM 19.1 66.38 0.096 8.77 1.26 10.27
5/21/2021 2:15:00 PM 19.33 66.794 0.095 8.79 1.25 10.22
5/21/2021 2:30:00 PM 19.56 67.208 0.095 8.83 1.31 10.21
5/21/2021 2:45:00 PM 19.79 67.622 0.095 8.85 1.21 10.15
5/21/2021 3:00:00 PM 19.93 67.874 0.096 8.84 1.31 10.02
5/21/2021 3:15:00 PM 20.07 68.126 0.095 8.82 1.34 9.99
5/21/2021 3:30:00 PM 20.19 68.342 0.095 8.82 1.3 9.96
5/21/2021 3:45:00 PM 20.32 68.576 0.095 8.82 1.29 9.94
5/21/2021 4:00:00 PM 20.31 68.558 0.095 8.77 1.22 9.8
5/21/2021 4:15:00 PM 20.38 68.684 0.096 8.76 1.29 9.81
5/21/2021 4:30:00 PM 20.32 68.576 0.096 8.7 1.25 9.69
5/21/2021 4:45:00 PM 20.35 68.63 0.095 8.67 3.44 9.67
5/21/2021 5:00:00 PM 20.19 68.342 0.096 8.6 1.23 9.59
5/21/2021 5:15:00 PM 20.07 68.126 0.096 8.42 1.32 9.42
5/21/2021 5:30:00 PM 19.99 67.982 0.096 8.33 1.21 9.39
5/21/2021 5:45:00 PM 19.96 67.92799 0.096 8.34 1.39 9.51
5/21/2021 6:00:00 PM 19.97 67.946 0.095 8.38 1.16 9.6
5/21/2021 6:15:00 PM 19.95 67.91 0.096 8.38 1.31 9.58
5/21/2021 6:30:00 PM 19.82 67.676 0.096 8.31 1.4 9.48
5/21/2021 6:45:00 PM 19.65 67.37 0.096 8.17 1.39 9.32
5/21/2021 7:00:00 PM 19.52 67.136 0.096 8.04 13.02 9.21
5/21/2021 7:15:00 PM 19.36 66.848 0.096 7.96 1.28 9.11
5/21/2021 7:30:00 PM 19.2 66.56 0.097 7.88 1.35 9.04
5/21/2021 7:45:00 PM 19.03 66.254 0.097 7.82 1.45 8.96
5/21/2021 8:00:00 PM 18.84 65.912 0.097 7.75 1.44 8.89
5/21/2021 8:15:00 PM 18.66 65.588 0.097 7.7 1.31 8.82
5/21/2021 8:30:00 PM 18.5 65.3 0.097 7.66 1.39 8.77
5/21/2021 8:45:00 PM 18.37 65.066 0.098 7.63 1.59 8.73
5/21/2021 9:00:00 PM 18.24 64.832 0.098 7.6 1.73 8.71
5/21/2021 9:15:00 PM 18.11 64.598 0.098 7.58 1.58 8.7
5/21/2021 9:30:00 PM 17.98 64.364 0.098 7.57 1.88 8.71
5/21/2021 9:45:00 PM 17.84 64.112 0.099 7.55 1.67 8.73
5/21/2021 10:00:00 PM 17.7 63.86 0.099 7.54 4.97 8.69
5/21/2021 10:15:00 PM 17.56 63.608 0.099 7.54 1.73 8.75
5/21/2021 10:30:00 PM 17.41 63.338 0.099 7.54 1.63 8.8
5/21/2021 10:45:00 PM 17.28 63.104 0.099 7.53 1.62 8.81
5/21/2021 11:00:00 PM 17.15 62.87 0.099 7.53 1.63 8.83
5/21/2021 11:15:00 PM 17.03 62.654 0.099 7.53 1.67 8.86
5/21/2021 11:30:00 PM 16.91 62.438 0.099 7.53 1.76 8.87
5/21/2021 11:45:00 PM 16.79 62.222 0.1 7.53 1.7 8.89
5/22/2021 12:00:00 AM 16.68 62.024 0.1 7.52 1.71 8.93
5/22/2021 12:15:00 AM 16.56 61.808 0.1 7.52 1.76 8.95
5/22/2021 12:30:00 AM 16.43 61.574 0.1 7.52 1.87 8.97
5/22/2021 12:45:00 AM 16.32 61.376 0.1 7.52 1.66 8.95
5/22/2021 1:00:00 AM 16.21 61.178 0.1 7.52 2.14 9.01
5/22/2021 1:15:00 AM 16.09 60.962 0.1 7.52 2.81 9.05
5/22/2021 1:30:00 AM 15.98 60.764 0.1 7.52 1.67 9.08
5/22/2021 1:45:00 AM 15.86 60.548 0.1 7.52 1.56 9.1
5/22/2021 2:00:00 AM 15.76 60.368 0.1 7.52 1.63 9.13
5/22/2021 2:15:00 AM 15.66 60.188 0.1 7.52 1.58 9.15
5/22/2021 2:30:00 AM 15.57 60.026 0.1 7.52 1.67 9.18
5/22/2021 2:45:00 AM 15.47 59.846 0.1 7.52 1.86 9.21
5/22/2021 3:00:00 AM 15.37 59.666 0.1 7.52 1.49 9.24
5/22/2021 3:15:00 AM 15.27 59.486 0.101 7.52 1.95 9.26
5/22/2021 3:30:00 AM 15.17 59.306 0.101 7.53 1.66 9.28
5/22/2021 3:45:00 AM 15.08 59.144 0.101 7.52 1.67 9.29
5/22/2021 4:00:00 AM 14.99 58.982 0.101 7.52 1.67 9.33
5/22/2021 4:15:00 AM 14.91 58.838 0.101 7.52 1.67 9.36
5/22/2021 4:30:00 AM 14.83 58.694 0.101 7.52 11.06 9.38
5/22/2021 4:45:00 AM 14.75 58.55 0.101 7.52 1.84 9.4
5/22/2021 5:00:00 AM 14.67 58.406 0.101 7.52 1.78 9.4
5/22/2021 5:15:00 AM 14.59 58.262 0.101 7.53 1.93 9.43
5/22/2021 5:30:00 AM 14.51 58.118 0.101 7.52 1.71 9.46
5/22/2021 5:45:00 AM 14.43 57.974 0.101 7.52 1.67 9.45
5/22/2021 6:00:00 AM 14.35 57.83 0.101 7.52 1.66 9.52
5/22/2021 6:15:00 AM 14.28 57.704 0.101 7.54 1.71 9.6
5/22/2021 6:30:00 AM 14.22 57.596 0.101 7.55 1.73 9.72
5/22/2021 6:45:00 AM 14.18 57.524 0.1 7.59 1.56 9.86
5/22/2021 7:00:00 AM 14.15 57.47 0.1 7.62 1.6 9.98
5/22/2021 7:15:00 AM 14.13 57.434 0.1 7.65 1.66 10.09
5/22/2021 7:30:00 AM 14.11 57.398 0.1 7.68 3.16 10.16
5/22/2021 7:45:00 AM 14.1 57.38 0.1 7.71 1.43 10.26
5/22/2021 8:00:00 AM 14.14 57.452 0.1 7.76 1.88 10.44
5/22/2021 8:15:00 AM 14.18 57.524 0.099 7.82 1.59 10.56
5/22/2021 8:30:00 AM 14.18 57.524 0.099 7.86 1584.73 10.59
5/22/2021 8:45:00 AM 14.22 57.596 0.099 7.89 1.41 10.64
5/22/2021 9:00:00 AM 14.33 57.794 0.099 7.95 106.32 10.74
5/22/2021 9:15:00 AM 14.45 58.01 0.099 8.01 1.48 10.79
5/22/2021 9:30:00 AM 14.6 58.28 0.099 8.08 1.41 10.87
5/22/2021 9:45:00 AM 14.75 58.55 0.099 8.17 1.67 10.92
5/22/2021 10:00:00 AM 14.86 58.748 0.099 8.26 1.41 10.95
5/22/2021 10:15:00 AM 14.97 58.946 0.098 8.32 1.33 10.92
5/22/2021 10:30:00 AM 15.16 59.288 0.098 8.38 1.63 10.9
5/22/2021 10:45:00 AM 15.4 59.72 0.098 8.49 1.42 10.93
5/22/2021 11:00:00 AM 15.54 59.972 0.098 8.56 1.42 10.91
5/22/2021 11:15:00 AM 15.59 60.062 0.098 8.59 1.53 10.89
5/22/2021 11:30:00 AM 15.7 60.26 0.098 8.66 1.96 10.89
5/22/2021 11:45:00 AM 15.81 60.458 0.098 8.71 30.69 10.89
5/22/2021 12:00:00 PM 15.97 60.746 0.098 8.78 2.29 10.89
5/22/2021 12:15:00 PM 16.13 61.034 0.098 8.83 2.6 10.88
5/22/2021 12:30:00 PM 16.29 61.322 0.098 8.88 1.44 10.84
5/22/2021 12:45:00 PM 16.57 61.826 0.098 8.93 1.35 10.84
5/22/2021 1:00:00 PM 16.73 62.114 0.097 8.96 33.81 10.8
5/22/2021 1:15:00 PM 16.93 62.474 0.097 8.98 1.51 10.75
5/22/2021 1:30:00 PM 17.15 62.87 0.097 8.99 2.57 10.72
5/22/2021 1:45:00 PM 17.33 63.194 0.097 9.03 1.68 10.7
5/22/2021 2:00:00 PM 17.55 63.59 0.097 9.07 1.36 10.66
5/22/2021 2:15:00 PM 17.67 63.806 0.097 9.06 1.3 10.55
5/22/2021 2:30:00 PM 17.7 63.86 0.097 9.04 1.4 10.45
5/22/2021 2:45:00 PM 17.74 63.932 0.097 9.05 1.67 10.42
5/22/2021 3:00:00 PM 17.81 64.058 0.097 9.05 1.36 10.44
5/22/2021 3:15:00 PM 17.93 64.274 0.097 9.07 1.38 10.45
5/22/2021 3:30:00 PM 18.03 64.454 0.097 9.09 12.41 10.43
5/22/2021 3:45:00 PM 18.2 64.76 0.096 9.11 1.32 10.4
5/22/2021 4:00:00 PM 18.26 64.868 0.096 9.1 1.47 10.33
5/22/2021 4:15:00 PM 18.26 64.868 0.096 9.04 1.45 10.16
5/22/2021 4:30:00 PM 18.16 64.688 0.096 8.97 1.41 10.08
5/22/2021 4:45:00 PM 18.12 64.616 0.096 8.96 1.41 10.11
5/22/2021 5:00:00 PM 18.25 64.85 0.096 8.99 1.51 10.15
5/22/2021 5:15:00 PM 18.29 64.922 0.069 8.95 1.43 10.06
5/22/2021 5:30:00 PM 18.3 64.94 0.096 8.94 8.33 10.06
5/22/2021 5:45:00 PM 18.18 64.724 0.096 8.88 1.63 9.98
5/22/2021 6:00:00 PM 18.1 64.58 0.096 8.77 1.61 9.85
5/22/2021 6:15:00 PM 18.04 64.472 0.096 8.66 1.36 9.78
5/22/2021 6:30:00 PM 18.01 64.418 0.096 8.55 1.66 9.74
5/22/2021 6:45:00 PM 17.94 64.292 0.096 8.42 1.41 9.65
5/22/2021 7:00:00 PM 17.87 64.166 0.097 8.26 1.55 9.53
5/22/2021 7:15:00 PM 17.77 63.986 0.097 8.13 1.39 9.43
5/22/2021 7:30:00 PM 17.69 63.842 0.097 8.02 1.43 9.35
5/22/2021 7:45:00 PM 17.61 63.698 0.097 7.92 1.47 9.21
5/22/2021 8:00:00 PM 17.54 63.572 0.098 7.83 1.44 9.06
5/22/2021 8:15:00 PM 17.47 63.446 0.098 7.76 1.5 8.96
5/22/2021 8:30:00 PM 17.4 63.32 0.098 7.72 1.48 8.91
5/22/2021 8:45:00 PM 17.33 63.194 0.098 7.69 1.53 8.83
5/22/2021 9:00:00 PM 17.26 63.068 0.099 7.66 1.56 8.81
5/22/2021 9:15:00 PM 17.19 62.942 0.099 7.64 1.65 8.79
5/22/2021 9:30:00 PM 17.11 62.798 0.099 7.62 1.64 8.8
5/22/2021 9:45:00 PM 17.05 62.69 0.099 7.61 1.61 8.79
5/22/2021 10:00:00 PM 16.98 62.564 0.1 7.6 1.55 8.79
5/22/2021 10:15:00 PM 16.91 62.438 0.1 7.59 1.56 8.81
5/22/2021 10:30:00 PM 16.84 62.312 0.1 7.58 2.01 8.82
5/22/2021 10:45:00 PM 16.76 62.168 0.1 7.58 1.66 8.83
5/22/2021 11:00:00 PM 16.71 62.078 0.101 7.58 1.63 8.84
5/22/2021 11:15:00 PM 16.65 61.97 0.101 7.58 1.55 8.86
5/22/2021 11:30:00 PM 16.59 61.862 0.101 7.57 1.66 8.86
5/22/2021 11:45:00 PM 16.52 61.736 0.101 7.56 1.67 8.88
5/23/2021 12:00:00 AM 16.46 61.628 0.101 7.55 38.21 8.87
5/23/2021 12:15:00 AM 16.4 61.52 0.101 7.55 1.4 8.87
5/23/2021 12:30:00 AM 16.34 61.412 0.101 7.54 4.08 8.9
5/23/2021 12:45:00 AM 16.28 61.304 0.102 7.54 1.32 8.91
5/23/2021 1:00:00 AM 16.21 61.178 0.102 7.54 1.49 8.92
5/23/2021 1:15:00 AM 16.13 61.034 0.102 7.54 1.39 8.95
5/23/2021 1:30:00 AM 16.06 60.908 0.102 7.53 1.39 8.95
5/23/2021 1:45:00 AM 15.98 60.764 0.102 7.53 1.39 8.96
5/23/2021 2:00:00 AM 15.92 60.656 0.102 7.53 1.5 8.99
5/23/2021 2:15:00 AM 15.84 60.512 0.102 7.53 1.36 9
5/23/2021 2:30:00 AM 15.76 60.368 0.102 7.53 1.45 9.02
5/23/2021 2:45:00 AM 15.67 60.206 0.102 7.53 1.49 9.05
5/23/2021 3:00:00 AM 15.59 60.062 0.103 7.53 1.44 9.07
5/23/2021 3:15:00 AM 15.51 59.918 0.103 7.53 1.48 9.09
5/23/2021 3:30:00 AM 15.44 59.792 0.103 7.54 1.46 9.1
5/23/2021 3:45:00 AM 15.35 59.63 0.103 7.54 1.3 9.12
5/23/2021 4:00:00 AM 15.27 59.486 0.103 7.54 1.51 9.15
5/23/2021 4:15:00 AM 15.19 59.342 0.103 7.54 1.39 9.16
5/23/2021 4:30:00 AM 15.12 59.216 0.103 7.54 1.34 9.16
5/23/2021 4:45:00 AM 15.04 59.072 0.103 7.54 1.53 9.19
5/23/2021 5:00:00 AM 14.97 58.946 0.103 7.54 1.53 9.21
5/23/2021 5:15:00 AM 14.9 58.82 0.103 7.54 1.49 9.24
5/23/2021 5:30:00 AM 14.83 58.694 0.103 7.54 1.49 9.26
5/23/2021 5:45:00 AM 14.76 58.568 0.103 7.54 1.51 9.28
5/23/2021 6:00:00 AM 14.69 58.442 0.103 7.55 1.31 9.33
5/23/2021 6:15:00 AM 14.63 58.334 0.103 7.56 1.42 9.4
5/23/2021 6:30:00 AM 14.57 58.226 0.103 7.57 1.31 9.49
5/23/2021 6:45:00 AM 14.52 58.136 0.103 7.59 8.71 9.56
5/23/2021 7:00:00 AM 14.48 58.064 0.103 7.61 1.42 9.63
5/23/2021 7:15:00 AM 14.47 58.046 0.103 7.65 1.33 9.8
5/23/2021 7:30:00 AM 14.48 58.064 0.102 7.69 1.34 9.92
5/23/2021 7:45:00 AM 14.52 58.136 0.102 7.72 1.54 10.03
5/23/2021 8:00:00 AM 14.56 58.208 0.102 7.77 1.26 10.13
5/23/2021 8:15:00 AM 14.62 58.316 0.102 7.8 1.25 10.2
5/23/2021 8:30:00 AM 14.69 58.442 0.102 7.84 1.17 10.28
5/23/2021 8:45:00 AM 14.79 58.622 0.101 7.88 1.3 10.33
5/23/2021 9:00:00 AM 14.91 58.838 0.101 7.92 1.34 10.38
5/23/2021 9:15:00 AM 15.06 59.108 0.101 7.96 1.25 10.41
5/23/2021 9:30:00 AM 15.26 59.468 0.101 8 1.26 10.43
5/23/2021 9:45:00 AM 15.5 59.9 0.101 8.05 1.33 10.42
5/23/2021 10:00:00 AM 15.78 60.404 0.101 8.12 1.26 10.45
5/23/2021 10:15:00 AM 16.09 60.962 0.1 8.19 1.21 10.49
5/23/2021 10:30:00 AM 16.26 61.268 0.1 8.24 1.25 10.46
5/23/2021 10:45:00 AM 16.56 61.808 0.1 8.34 1.24 10.47
5/23/2021 11:00:00 AM 16.96 62.528 0.1 8.43 1.77 10.48
5/23/2021 11:15:00 AM 17.2 62.96 0.1 8.46 1.25 10.39
5/23/2021 11:30:00 AM 17.42 63.356 0.1 8.48 1.08 10.36
5/23/2021 11:45:00 AM 17.56 63.608 0.1 8.52 1.29 10.32
5/23/2021 12:00:00 PM 17.76 63.968 0.099 8.58 1.85 10.3
5/23/2021 12:15:00 PM 17.83 64.094 0.1 8.62 1.13 10.25
5/23/2021 12:30:00 PM 17.97 64.346 0.1 8.67 1.16 10.25
5/23/2021 12:45:00 PM 18.11 64.598 0.1 8.69 1.2 10.24
5/23/2021 1:00:00 PM 18.16 64.688 0.1 8.68 1.27 10.21
5/23/2021 1:15:00 PM 18.1 64.58 0.099 8.7 1.21 10.18
5/23/2021 1:30:00 PM 18.25 64.85 0.099 8.69 1.23 10.12
5/23/2021 1:45:00 PM 18.54 65.372 0.099 8.73 1.22 10.12
5/23/2021 2:00:00 PM 18.75 65.75 0.099 8.76 1.17 10.07
5/23/2021 2:15:00 PM 18.93 66.074 0.099 8.76 1.22 10
5/23/2021 2:30:00 PM 19.1 66.38 0.099 8.79 1.34 10.02
5/23/2021 2:45:00 PM 19.25 66.65 0.099 8.79 1.23 9.97
5/23/2021 3:00:00 PM 19.43 66.974 0.099 8.84 1.18 9.98
5/23/2021 3:15:00 PM 19.45 67.01 0.099 8.85 1.2 9.95
5/23/2021 3:30:00 PM 19.6 67.28 0.099 8.85 1.14 9.91
5/23/2021 3:45:00 PM 19.82 67.676 0.099 8.87 1.07 9.86
5/23/2021 4:00:00 PM 19.94 67.892 0.099 8.87 1.44 9.76
5/23/2021 4:15:00 PM 20 68 0.099 8.87 1.27 9.72
5/23/2021 4:30:00 PM 20.1 68.18 0.099 8.87 1.21 9.72
5/23/2021 4:45:00 PM 20.26 68.468 0.098 8.89 1.37 9.73
5/23/2021 5:00:00 PM 20.34 68.612 0.098 8.85 1.39 9.58
5/23/2021 5:15:00 PM 20.31 68.558 0.098 8.73 1.24 9.43
5/23/2021 5:30:00 PM 20.14 68.252 0.099 8.61 1.44 9.38
5/23/2021 5:45:00 PM 20.04 68.07201 0.098 8.56 1.33 9.41
5/23/2021 6:00:00 PM 20.04 68.07201 0.098 8.54 1.47 9.39
5/23/2021 6:15:00 PM 20.04 68.07201 0.098 8.49 1.41 9.34
5/23/2021 6:30:00 PM 19.95 67.91 0.098 8.38 1.31 9.22
5/23/2021 6:45:00 PM 19.86 67.748 0.099 8.25 1.29 9.13
5/23/2021 7:00:00 PM 19.8 67.64 0.099 8.12 3.14 9.04
5/23/2021 7:15:00 PM 19.75 67.55 0.099 8.02 2.09 8.92
5/23/2021 7:30:00 PM 19.66 67.388 0.099 7.97 1.28 8.87
5/23/2021 7:45:00 PM 19.56 67.208 0.099 7.89 3.09 8.76
5/23/2021 8:00:00 PM 19.45 67.01 0.1 7.82 1.45 8.65
5/23/2021 8:15:00 PM 19.34 66.812 0.1 7.76 6.17 8.54
5/23/2021 8:30:00 PM 19.21 66.578 0.1 7.71 4.72 8.48
5/23/2021 8:45:00 PM 19.06 66.308 0.1 7.68 4.85 8.43
5/23/2021 9:00:00 PM 18.93 66.074 0.101 7.65 1.52 8.42
5/23/2021 9:15:00 PM 18.78 65.804 0.101 7.64 1.52 8.41
5/23/2021 9:30:00 PM 18.66 65.588 0.101 7.62 1.45 8.42
5/23/2021 9:45:00 PM 18.53 65.354 0.101 7.61 1.26 8.43
5/23/2021 10:00:00 PM 18.4 65.12 0.101 7.6 1.52 8.44
5/23/2021 10:15:00 PM 18.28 64.904 0.102 7.6 1.5 8.47
5/23/2021 10:30:00 PM 18.15 64.67 0.102 7.6 1.6 8.49
5/23/2021 10:45:00 PM 18.02 64.436 0.102 7.6 1.47 8.52
5/23/2021 11:00:00 PM 17.91 64.238 0.102 7.59 1.89 8.55
5/23/2021 11:15:00 PM 17.78 64.004 0.102 7.59 1.69 8.57
5/23/2021 11:30:00 PM 17.67 63.806 0.102 7.58 1.71 8.58
5/23/2021 11:45:00 PM 17.55 63.59 0.103 7.58 1.76 8.61
5/24/2021 12:00:00 AM 17.41 63.338 0.103 7.58 19.22 8.63
5/24/2021 12:15:00 AM 17.29 63.122 0.103 7.58 16.34 8.65
5/24/2021 12:30:00 AM 17.18 62.924 0.103 7.58 1.51 8.69
5/24/2021 12:45:00 AM 17.06 62.708 0.103 7.58 1.66 8.72
5/24/2021 1:00:00 AM 16.94 62.492 0.103 7.58 1.82 8.75
5/24/2021 1:15:00 AM 16.82 62.276 0.103 7.58 1.65 8.77
5/24/2021 1:30:00 AM 16.71 62.078 0.103 7.58 12.35 8.79
5/24/2021 1:45:00 AM 16.58 61.844 0.103 7.58 2.87 8.84
5/24/2021 2:00:00 AM 16.48 61.664 0.104 7.58 1.72 8.86
5/24/2021 2:15:00 AM 16.36 61.448 0.104 7.58 1.6 8.89
5/24/2021 2:30:00 AM 16.23 61.214 0.104 7.58 1.63 8.9
5/24/2021 2:45:00 AM 16.09 60.962 0.104 7.58 1.7 8.95
5/24/2021 3:00:00 AM 15.96 60.728 0.104 7.58 1.79 8.98
5/24/2021 3:15:00 AM 15.83 60.494 0.104 7.58 15.46 9.01
5/24/2021 3:30:00 AM 15.69 60.242 0.104 7.58 1.48 9.04
5/24/2021 3:45:00 AM 15.55 59.99 0.104 7.58 1.78 9.07
5/24/2021 4:00:00 AM 15.42 59.756 0.104 7.58 1.61 9.11
5/24/2021 4:15:00 AM 15.3 59.54 0.104 7.58 1.83 9.15
5/24/2021 4:30:00 AM 15.18 59.324 0.104 7.58 1.74 9.17
5/24/2021 4:45:00 AM 15.05 59.09 0.105 7.58 1.71 9.21
5/24/2021 5:00:00 AM 14.94 58.892 0.105 7.58 1.59 9.23
5/24/2021 5:15:00 AM 14.82 58.676 0.105 7.58 1.91 9.27
5/24/2021 5:30:00 AM 14.71 58.478 0.105 7.58 1.76 9.3
5/24/2021 5:45:00 AM 14.61 58.298 0.105 7.58 1.76 9.32
5/24/2021 6:00:00 AM 14.51 58.118 0.105 7.59 1.65 9.39
5/24/2021 6:15:00 AM 14.43 57.974 0.105 7.61 1.7 9.46
5/24/2021 6:30:00 AM 14.37 57.866 0.104 7.63 1.57 9.56
5/24/2021 6:45:00 AM 14.33 57.794 0.104 7.66 2.04 9.73
5/24/2021 7:00:00 AM 14.29 57.722 0.104 7.69 1.7 9.85
5/24/2021 7:15:00 AM 14.26 57.668 0.104 7.72 1.6 9.98
5/24/2021 7:30:00 AM 14.24 57.632 0.104 7.77 1.66 10.09
5/24/2021 7:45:00 AM 14.24 57.632 0.104 7.82 1.65 10.22
5/24/2021 8:00:00 AM 14.26 57.668 0.103 7.87 1.69 10.38
5/24/2021 8:15:00 AM 14.29 57.722 0.103 7.92 1.52 10.46
5/24/2021 8:30:00 AM 14.3 57.74 0.103 7.97 5.67 10.55
5/24/2021 8:45:00 AM 14.35 57.83 0.103 8.03 1.48 10.66
5/24/2021 9:00:00 AM 14.43 57.974 0.103 8.11 1.46 10.76
5/24/2021 9:15:00 AM 14.53 58.154 0.103 8.18 1.5 10.81
5/24/2021 9:30:00 AM 14.68 58.424 0.102 8.27 1.43 10.86
5/24/2021 9:45:00 AM 14.78 58.604 0.102 8.35 1.43 10.9
5/24/2021 10:00:00 AM 14.86 58.748 0.102 8.4 1.4 10.91
5/24/2021 10:15:00 AM 14.92 58.856 0.102 8.44 1.56 10.89
5/24/2021 10:30:00 AM 15.06 59.108 0.102 8.52 1.53 10.92
5/24/2021 10:45:00 AM 15.23 59.414 0.102 8.61 1.4 10.98
5/24/2021 11:00:00 AM 15.4 59.72 0.101 8.7 1.44 10.98
5/24/2021 11:15:00 AM 15.63 60.134 0.101 8.74 1.44 10.98
5/24/2021 11:30:00 AM 15.69 60.242 0.101 8.78 1.52 10.94
5/24/2021 11:45:00 AM 15.92 60.656 0.101 8.84 1.46 10.93
5/24/2021 12:00:00 PM 15.98 60.764 0.101 8.84 1.49 10.87
5/24/2021 12:15:00 PM 16.1 60.98 0.101 8.87 1.4 10.82
5/24/2021 12:30:00 PM 16.18 61.124 0.101 8.9 1.47 10.8
5/24/2021 12:45:00 PM 16.21 61.178 0.101 8.88 1.45 10.73
5/24/2021 1:00:00 PM 16.19 61.142 0.101 8.85 1.49 10.65
5/24/2021 1:15:00 PM 16.15 61.07 0.101 8.8 1.52 10.59
5/24/2021 1:30:00 PM 16.12 61.016 0.101 8.77 1.5 10.56
5/24/2021 1:45:00 PM 16.12 61.016 0.101 8.77 1.45 10.57
5/24/2021 2:00:00 PM 16.12 61.016 0.101 8.75 1.5 10.53
5/24/2021 2:15:00 PM 16.08 60.944 0.101 8.7 1.77 10.47
5/24/2021 2:30:00 PM 16.05 60.89 0.101 8.67 1.64 10.45
5/24/2021 2:45:00 PM 16.03 60.854 0.101 8.61 1.64 10.43
5/24/2021 3:00:00 PM 16 60.8 0.1 8.59 1.67 10.42
5/24/2021 3:15:00 PM 16.01 60.818 0.1 8.61 2.03 10.45
5/24/2021 3:30:00 PM 16.02 60.836 0.1 8.61 1.61 10.47
5/24/2021 3:45:00 PM 15.99 60.782 0.1 8.58 1.49 10.39
5/24/2021 4:00:00 PM 15.93 60.674 0.1 8.48 128.52 10.29
5/24/2021 4:15:00 PM 15.86 60.548 0.101 8.4 1.52 10.23
5/24/2021 4:30:00 PM 15.8 60.44 0.1 8.32 1.47 10.17
5/24/2021 4:45:00 PM 15.74 60.332 0.1 8.23 1.58 10.08
5/24/2021 5:00:00 PM 15.69 60.242 0.1 8.17 1.51 10.08
5/24/2021 5:15:00 PM 15.66 60.188 0.1 8.15 1.59 10.11
5/24/2021 5:30:00 PM 15.62 60.116 0.1 8.12 1.63 10.08
5/24/2021 5:45:00 PM 15.59 60.062 0.1 8.09 1.74 10.04
5/24/2021 6:00:00 PM 15.56 60.008 0.1 8.07 1.73 10.06
5/24/2021 6:15:00 PM 15.5 59.9 0.1 8.02 1.56 9.95
5/24/2021 6:30:00 PM 15.46 59.828 0.101 7.96 2.89 9.86
5/24/2021 6:45:00 PM 15.4 59.72 0.1 7.91 1.57 9.8
5/24/2021 7:00:00 PM 15.35 59.63 0.101 7.86 1.83 9.71
5/24/2021 7:15:00 PM 15.29 59.522 0.101 7.81 1.5 9.62
5/24/2021 7:30:00 PM 15.24 59.432 0.101 7.77 699.04 9.56
5/24/2021 7:45:00 PM 15.18 59.324 0.101 7.75 1.53 9.51
5/24/2021 8:00:00 PM 15.12 59.216 0.102 7.73 1.68 9.48
5/24/2021 8:15:00 PM 15.06 59.108 0.102 7.71 2.49 9.44
5/24/2021 8:30:00 PM 15 59 0.102 7.68 1.47 9.41
5/24/2021 8:45:00 PM 14.94 58.892 0.102 7.67 1.75 9.37
5/24/2021 9:00:00 PM 14.89 58.802 0.102 7.66 2.11 9.36
5/24/2021 9:15:00 PM 14.84 58.712 0.102 7.64 3.55 9.34
5/24/2021 9:30:00 PM 14.79 58.622 0.103 7.64 1.55 9.35
5/24/2021 9:45:00 PM 14.74 58.532 0.103 7.63 1.7 9.35
5/24/2021 10:00:00 PM 14.69 58.442 0.103 7.63 1.48 9.36
5/24/2021 10:15:00 PM 14.64 58.352 0.103 7.62 1.48 9.37
5/24/2021 10:30:00 PM 14.59 58.262 0.103 7.62 1.54 9.38
5/24/2021 10:45:00 PM 14.54 58.172 0.103 7.62 1.48 9.39
5/24/2021 11:00:00 PM 14.49 58.082 0.104 7.62 1.59 9.39
5/24/2021 11:15:00 PM 14.44 57.992 0.104 7.61 1.52 9.39
5/24/2021 11:30:00 PM 14.39 57.902 0.104 7.61 2.05 9.4
5/24/2021 11:45:00 PM 14.35 57.83 0.104 7.61 1.79 9.41
5/25/2021 12:00:00 AM 14.3 57.74 0.104 7.61 1.69 9.43
5/25/2021 12:15:00 AM 14.26 57.668 0.104 7.61 1.7 9.45
5/25/2021 12:30:00 AM 14.22 57.596 0.104 7.61 1.69 9.45
5/25/2021 12:45:00 AM 14.18 57.524 0.104 7.61 1.69 9.46
5/25/2021 1:00:00 AM 14.14 57.452 0.105 7.6 2.47 9.47
5/25/2021 1:15:00 AM 14.1 57.38 0.105 7.6 1.98 9.48
5/25/2021 1:30:00 AM 14.06 57.308 0.105 7.61 1.54 9.49
5/25/2021 1:45:00 AM 14.03 57.254 0.105 7.61 1.67 9.49
5/25/2021 2:00:00 AM 14.07 57.326 0.105 7.6 2.08 9.49
5/25/2021 2:15:00 AM 14.04 57.272 0.105 7.6 1.89 9.5
5/25/2021 2:30:00 AM 14.01 57.218 0.105 7.61 1.7 9.5
5/25/2021 2:45:00 AM 13.98 57.164 0.105 7.6 1.79 9.5
5/25/2021 3:00:00 AM 13.95 57.11 0.105 7.59 1.67 9.51
5/25/2021 3:15:00 AM 13.91 57.038 0.105 7.59 4.71 9.5
5/25/2021 3:30:00 AM 13.88 56.984 0.105 7.6 1.63 9.53
5/25/2021 3:45:00 AM 13.85 56.93 0.105 7.61 1.59 9.54
5/25/2021 4:00:00 AM 13.83 56.894 0.105 7.6 1.61 9.54
5/25/2021 4:15:00 AM 13.8 56.84 0.105 7.6 1.62 9.55
5/25/2021 4:30:00 AM 13.77 56.786 0.105 7.61 1.72 9.56
5/25/2021 4:45:00 AM 13.74 56.732 0.105 7.61 1.63 9.57
5/25/2021 5:00:00 AM 13.71 56.678 0.105 7.61 1.75 9.58
5/25/2021 5:15:00 AM 13.69 56.642 0.105 7.61 1.65 9.59
5/25/2021 5:30:00 AM 13.66 56.588 0.105 7.61 1.73 9.6
5/25/2021 5:45:00 AM 13.63 56.534 0.105 7.61 1.77 9.61
5/25/2021 6:00:00 AM 13.61 56.498 0.105 7.61 1.7 9.63
5/25/2021 6:15:00 AM 13.59 56.462 0.105 7.61 1.7 9.68
5/25/2021 6:30:00 AM 13.57 56.426 0.105 7.62 1.53 9.72
5/25/2021 6:45:00 AM 13.56 56.408 0.105 7.63 1.63 9.76
5/25/2021 7:00:00 AM 13.55 56.39 0.105 7.66 1.65 9.87
5/25/2021 7:15:00 AM 13.54 56.372 0.105 7.67 1.68 9.91
5/25/2021 7:30:00 AM 13.53 56.354 0.105 7.68 1.55 9.94
5/25/2021 7:45:00 AM 13.52 56.336 0.105 7.69 1.64 9.99
5/25/2021 8:00:00 AM 13.52 56.336 0.105 7.71 1.55 10.06
5/25/2021 8:15:00 AM 13.54 56.372 0.105 7.74 1.57 10.18
5/25/2021 8:30:00 AM 13.55 56.39 0.105 7.78 1.68 10.29
5/25/2021 8:45:00 AM 13.57 56.426 0.104 7.81 1.65 10.37
5/25/2021 9:00:00 AM 13.59 56.462 0.104 7.84 1.58 10.45
5/25/2021 9:15:00 AM 13.62 56.516 0.104 7.88 1.48 10.53
5/25/2021 9:30:00 AM 13.65 56.57 0.104 7.92 1.56 10.57
5/25/2021 9:45:00 AM 13.69 56.642 0.104 7.96 1.63 10.65
5/25/2021 10:00:00 AM 13.72 56.696 0.104 8 1.65 10.7
5/25/2021 10:15:00 AM 13.76 56.768 0.104 8.03 1.56 10.73
5/25/2021 10:30:00 AM 13.8 56.84 0.104 8.08 1.67 10.79
5/25/2021 10:45:00 AM 13.85 56.93 0.103 8.13 1.56 10.84
5/25/2021 11:00:00 AM 13.91 57.038 0.103 8.18 1.6 10.89
5/25/2021 11:15:00 AM 13.98 57.164 0.103 8.24 1.67 10.92
5/25/2021 11:30:00 AM 14.05 57.29 0.103 8.3 1.82 10.97
5/25/2021 11:45:00 AM 14.12 57.416 0.103 8.36 1.8 10.99
5/25/2021 12:00:00 PM 14.17 57.506 0.103 8.4 1.55 10.98
5/25/2021 12:15:00 PM 14.24 57.632 0.103 8.43 1.5 10.98
5/25/2021 12:30:00 PM 14.32 57.776 0.102 8.48 1.52 10.99
5/25/2021 12:45:00 PM 14.4 57.92 0.102 8.53 1.74 11
5/25/2021 1:00:00 PM 14.49 58.082 0.102 8.59 1.59 11.01
5/25/2021 1:15:00 PM 14.61 58.298 0.102 8.65 1.58 11.04
5/25/2021 1:30:00 PM 14.74 58.532 0.102 8.71 1.49 11.06
5/25/2021 1:45:00 PM 14.82 58.676 0.102 8.73 1.53 11.01
5/25/2021 2:00:00 PM 14.87 58.766 0.102 8.75 1.69 10.97
5/25/2021 2:15:00 PM 14.97 58.946 0.102 8.81 1.66 11
5/25/2021 2:30:00 PM 15.08 59.144 0.102 8.85 1.65 11
5/25/2021 2:45:00 PM 15.18 59.324 0.102 8.87 1.7 10.98
5/25/2021 3:00:00 PM 15.32 59.576 0.102 8.94 1.72 11
5/25/2021 3:15:00 PM 15.45 59.81 0.102 8.95 1.52 10.95
5/25/2021 3:30:00 PM 15.62 60.116 0.101 8.98 1.55 10.9
5/25/2021 3:45:00 PM 15.71 60.278 0.101 8.98 1.53 10.85
5/25/2021 4:00:00 PM 15.95 60.71 0.101 8.97 2.43 10.79
5/25/2021 4:15:00 PM 16.04 60.872 0.101 8.95 1.57 10.76
5/25/2021 4:30:00 PM 16.22 61.196 0.101 8.97 1.58 10.73
5/25/2021 4:45:00 PM 16.35 61.43 0.101 8.98 1.45 10.66
5/25/2021 5:00:00 PM 16.54 61.772 0.101 8.96 1.57 10.57
5/25/2021 5:15:00 PM 16.73 62.114 0.101 8.95 1.55 10.5
5/25/2021 5:30:00 PM 16.82 62.276 0.101 8.92 1.62 10.43
5/25/2021 5:45:00 PM 16.82 62.276 0.101 8.88 1.63 10.35
5/25/2021 6:00:00 PM 16.81 62.258 0.101 8.84 1.6 10.31
5/25/2021 6:15:00 PM 16.76 62.168 0.101 8.78 1.75 10.24
5/25/2021 6:30:00 PM 16.67 62.006 0.101 8.65 1.55 10.12
5/25/2021 6:45:00 PM 16.57 61.826 0.101 8.52 1.8 10.02
5/25/2021 7:00:00 PM 16.49 61.682 0.101 8.37 1.78 9.89
5/25/2021 7:15:00 PM 16.39 61.502 0.101 8.22 2.11 9.79
5/25/2021 7:30:00 PM 16.3 61.34 0.101 8.12 2.08 9.72
5/25/2021 7:45:00 PM 16.24 61.232 0.101 8.03 1.98 9.62
5/25/2021 8:00:00 PM 16.19 61.142 0.101 7.94 2.04 9.48
5/25/2021 8:15:00 PM 16.15 61.07 0.102 7.86 1.9 9.37
5/25/2021 8:30:00 PM 16.11 60.998 0.102 7.8 1.76 9.27
5/25/2021 8:45:00 PM 16.07 60.926 0.102 7.75 1.79 9.18
5/25/2021 9:00:00 PM 16.02 60.836 0.102 7.72 2.25 9.12
5/25/2021 9:15:00 PM 15.96 60.728 0.102 7.69 1.88 9.09
5/25/2021 9:30:00 PM 15.89 60.602 0.102 7.66 2.57 9.07
5/25/2021 9:45:00 PM 15.82 60.476 0.102 7.65 1.99 9.07
5/25/2021 10:00:00 PM 15.74 60.332 0.103 7.64 2 9.08
5/25/2021 10:15:00 PM 15.67 60.206 0.103 7.63 2.07 9.08
5/25/2021 10:30:00 PM 15.59 60.062 0.103 7.62 2.07 9.09
5/25/2021 10:45:00 PM 15.51 59.918 0.103 7.61 1.92 9.1
5/25/2021 11:00:00 PM 15.45 59.81 0.103 7.6 2.12 9.1
5/25/2021 11:15:00 PM 15.38 59.684 0.103 7.6 2.02 9.12
5/25/2021 11:30:00 PM 15.32 59.576 0.103 7.59 2.1 9.1
5/25/2021 11:45:00 PM 15.26 59.468 0.104 7.58 5.17 9.13
5/26/2021 12:00:00 AM 15.21 59.378 0.104 7.58 2.19 9.14
5/26/2021 12:15:00 AM 15.14 59.252 0.104 7.58 2.49 9.16
5/26/2021 12:30:00 AM 15.08 59.144 0.104 7.57 2.54 9.15
5/26/2021 12:45:00 AM 15.01 59.018 0.104 7.57 2.08 9.19
5/26/2021 1:00:00 AM 14.95 58.91 0.104 7.57 11.35 9.2
5/26/2021 1:15:00 AM 14.88 58.784 0.104 7.57 2.07 9.22
5/26/2021 1:30:00 AM 14.82 58.676 0.104 7.57 2.03 9.22
5/26/2021 1:45:00 AM 14.76 58.568 0.104 7.57 2.11 9.24
5/26/2021 2:00:00 AM 14.69 58.442 0.104 7.57 2.02 9.26
5/26/2021 2:15:00 AM 14.63 58.334 0.105 7.57 2.07 9.28
5/26/2021 2:30:00 AM 14.58 58.244 0.105 7.57 2.13 9.28
5/26/2021 2:45:00 AM 14.52 58.136 0.105 7.57 2.25 9.29
5/26/2021 3:00:00 AM 14.47 58.046 0.105 7.56 2.12 9.3
5/26/2021 3:15:00 AM 14.42 57.956 0.105 7.56 2.14 9.31
5/26/2021 3:30:00 AM 14.37 57.866 0.105 7.56 2.37 9.33
5/26/2021 3:45:00 AM 14.32 57.776 0.105 7.56 2.24 9.34
5/26/2021 4:00:00 AM 14.27 57.686 0.105 7.57 2.1 9.36
5/26/2021 4:15:00 AM 14.23 57.614 0.106 7.57 2.19 9.36
5/26/2021 4:30:00 AM 14.19 57.542 0.106 7.57 2.07 9.37
5/26/2021 4:45:00 AM 14.15 57.47 0.106 7.56 2.17 9.38
5/26/2021 5:00:00 AM 14.12 57.416 0.106 7.57 2.21 9.4
5/26/2021 5:15:00 AM 14.08 57.344 0.106 7.57 2.26 9.41
5/26/2021 5:30:00 AM 14.05 57.29 0.106 7.57 2.18 9.43
5/26/2021 5:45:00 AM 14.01 57.218 0.106 7.58 2.15 9.44
5/26/2021 6:00:00 AM 13.98 57.164 0.106 7.58 2.08 9.47
5/26/2021 6:15:00 AM 13.96 57.128 0.106 7.58 2.1 9.52
5/26/2021 6:30:00 AM 13.93 57.074 0.106 7.6 2.14 9.58
5/26/2021 6:45:00 AM 13.92 57.056 0.106 7.62 2.22 9.68
5/26/2021 7:00:00 AM 13.91 57.038 0.106 7.65 18.1 9.81
5/26/2021 7:15:00 AM 13.93 57.074 0.106 7.69 2 9.97
5/26/2021 7:30:00 AM 13.96 57.128 0.106 7.74 2.3 10.14
5/26/2021 7:45:00 AM 13.98 57.164 0.106 7.79 2.15 10.25
5/26/2021 8:00:00 AM 14 57.2 0.105 7.83 1.95 10.32
5/26/2021 8:15:00 AM 14.05 57.29 0.105 7.88 2.04 10.43
5/26/2021 8:30:00 AM 14.12 57.416 0.105 7.94 1.98 10.55
5/26/2021 8:45:00 AM 14.2 57.56 0.105 8 1.97 10.65
5/26/2021 9:00:00 AM 14.35 57.83 0.105 8.06 1.97 10.71
5/26/2021 9:15:00 AM 14.46 58.028 0.105 8.1 2.24 10.71
5/26/2021 9:30:00 AM 14.6 58.28 0.105 8.13 2.06 10.73
5/26/2021 9:45:00 AM 14.77 58.586 0.105 8.17 1.96 10.71
5/26/2021 10:00:00 AM 14.94 58.892 0.104 8.23 2.07 10.71
5/26/2021 10:15:00 AM 15.17 59.306 0.104 8.29 4.52 10.7
5/26/2021 10:30:00 AM 15.44 59.792 0.104 8.34 3.2 10.69
5/26/2021 10:45:00 AM 15.78 60.404 0.104 8.39 7.08 10.65
5/26/2021 11:00:00 AM 16.12 61.016 0.104 8.45 2.37 10.61
5/26/2021 11:15:00 AM 16.48 61.664 0.104 8.5 2.59 10.57
5/26/2021 11:30:00 AM 16.84 62.312 0.103 8.56 7.45 10.53
5/26/2021 11:45:00 AM 17.21 62.978 0.103 8.61 2.29 10.47
5/26/2021 12:00:00 PM 17.6 63.68 0.103 8.68 9.53 10.44
5/26/2021 12:15:00 PM 17.86 64.148 0.103 8.7 2.82 10.3
5/26/2021 12:30:00 PM 18.11 64.598 0.103 8.72 2.45 10.24
5/26/2021 12:45:00 PM 18.41 65.138 0.103 8.76 14.64 10.21
5/26/2021 1:00:00 PM 18.49 65.282 0.103 8.76 11.2 10.11
5/26/2021 1:15:00 PM 18.65 65.57 0.103 8.78 2.8 10.05
5/26/2021 1:30:00 PM 19.08 66.344 0.103 8.84 9.61 10.15
5/26/2021 1:45:00 PM 19.25 66.65 0.103 8.86 9.15 10.12
5/26/2021 2:00:00 PM 19.25 66.65 0.103 8.79 5.43 9.86
5/26/2021 2:15:00 PM 19.4 66.92 0.103 8.76 2.28 9.86
5/26/2021 2:30:00 PM 19.2 66.56 0.104 8.62 2.68 9.58
5/26/2021 2:45:00 PM 19.24 66.632 0.103 8.54 2.62 9.59
5/26/2021 3:00:00 PM 19.4 66.92 0.103 8.6 5.07 9.67
5/26/2021 3:15:00 PM 19.5 67.1 0.103 8.66 4.94 9.74
5/26/2021 3:30:00 PM 19.61 67.298 0.103 8.75 18.61 9.78
5/26/2021 3:45:00 PM 19.85 67.73 0.103 8.82 2.69 9.83
5/26/2021 4:00:00 PM 20.02 68.036 0.103 8.84 3.26 9.87
5/26/2021 4:15:00 PM 20.17 68.306 0.103 8.84 8.04 9.83
5/26/2021 4:30:00 PM 20.23 68.414 0.103 8.83 2.31 9.74
5/26/2021 4:45:00 PM 20.28 68.504 0.103 8.89 2.38 9.74
5/26/2021 5:00:00 PM 20.14 68.252 0.103 8.83 12.76 9.62
5/26/2021 5:15:00 PM 20.02 68.036 0.103 8.7 95.85 9.46
5/26/2021 5:30:00 PM 19.94 67.892 0.103 8.61 7.66 9.41
5/26/2021 5:45:00 PM 19.81 67.658 0.103 8.54 2.37 9.39
5/26/2021 6:00:00 PM 19.65 67.37 0.103 8.34 2.3 9.13
5/26/2021 6:15:00 PM 19.54 67.172 0.103 8.16 7.44 8.98
5/26/2021 6:30:00 PM 19.49 67.082 0.103 8.15 2.45 9.1
5/26/2021 6:45:00 PM 19.37 66.866 0.103 8.09 2.22 9.06
5/26/2021 7:00:00 PM 19.31 66.758 0.103 8.03 2.86 8.98
5/26/2021 7:15:00 PM 19.18 66.524 0.103 7.95 2.45 8.84
5/26/2021 7:30:00 PM 19.07 66.326 0.103 7.89 2.68 8.79
5/26/2021 7:45:00 PM 18.99 66.182 0.103 7.85 1.99 8.73
5/26/2021 8:00:00 PM 18.94 66.092 0.103 7.8 2.02 8.63
5/26/2021 8:15:00 PM 18.87 65.966 0.103 7.75 3.07 8.52
5/26/2021 8:30:00 PM 18.78 65.804 0.104 7.72 1.95 8.44
5/26/2021 8:45:00 PM 18.69 65.642 0.104 7.69 2.02 8.12
5/26/2021 9:00:00 PM 18.61 65.498 0.104 7.67 2.08 8.33
5/26/2021 9:15:00 PM 18.52 65.336 0.104 7.65 2.28 8.23
5/26/2021 9:30:00 PM 18.44 65.192 0.105 7.64 2.2 8.36
5/26/2021 9:45:00 PM 18.35 65.03 0.105 7.63 2.25 8.32
5/26/2021 10:00:00 PM 18.28 64.904 0.105 7.62 2.08 8.17
5/26/2021 10:15:00 PM 18.21 64.778 0.105 7.62 2.14 8.38
5/26/2021 10:30:00 PM 18.12 64.616 0.105 7.61 2.33 8.36
5/26/2021 10:45:00 PM 18.02 64.436 0.106 7.6 2.21 8.44
5/26/2021 11:00:00 PM 17.93 64.274 0.106 7.6 1.82 8.44
5/26/2021 11:15:00 PM 17.84 64.112 0.106 7.59 2.15 8.49
5/26/2021 11:30:00 PM 17.74 63.932 0.106 7.59 2.02 8.51
5/26/2021 11:45:00 PM 17.64 63.752 0.106 7.58 2.15 8.53
5/27/2021 12:00:00 AM 17.53 63.554 0.106 7.59 1.99 8.54
5/27/2021 12:15:00 AM 17.43 63.374 0.106 7.59 1.97 8.58
5/27/2021 12:30:00 AM 17.33 63.194 0.107 7.6 2.42 8.6
5/27/2021 12:45:00 AM 17.24 63.032 0.107 7.6 1.96 8.6
5/27/2021 1:00:00 AM 17.15 62.87 0.107 7.6 2.02 8.64
5/27/2021 1:15:00 AM 17.06 62.708 0.107 7.6 2.31 8.66
5/27/2021 1:30:00 AM 16.97 62.546 0.107 7.6 2.3 8.68
5/27/2021 1:45:00 AM 16.88 62.384 0.107 7.6 2.24 8.71
5/27/2021 2:00:00 AM 16.78 62.204 0.107 7.6 2.68 8.72
5/27/2021 2:15:00 AM 16.69 62.042 0.107 7.6 2.37 8.74
5/27/2021 2:30:00 AM 16.59 61.862 0.107 7.6 2.23 8.78
5/27/2021 2:45:00 AM 16.49 61.682 0.107 7.6 2.01 8.79
5/27/2021 3:00:00 AM 16.4 61.52 0.108 7.59 1.94 8.8
5/27/2021 3:15:00 AM 16.29 61.322 0.108 7.6 2.09 8.82
5/27/2021 3:30:00 AM 16.18 61.124 0.108 7.6 2.45 8.86
5/27/2021 3:45:00 AM 16.07 60.926 0.108 7.6 2.18 8.88
5/27/2021 4:00:00 AM 15.98 60.764 0.108 7.6 2.11 8.91
5/27/2021 4:15:00 AM 15.89 60.602 0.108 7.6 2.2 8.94
5/27/2021 4:30:00 AM 15.79 60.422 0.108 7.6 6.45 8.97
5/27/2021 4:45:00 AM 15.69 60.242 0.108 7.6 61.95 8.97
5/27/2021 5:00:00 AM 15.59 60.062 0.108 7.6 2.32 8.99
5/27/2021 5:15:00 AM 15.49 59.882 0.108 7.6 76.23 9.03
5/27/2021 5:30:00 AM 15.39 59.702 0.108 7.6 2.32 9.06
5/27/2021 5:45:00 AM 15.3 59.54 0.108 7.6 53.13 9.1
5/27/2021 6:00:00 AM 15.22 59.396 0.108 7.61 2.14 9.15
5/27/2021 6:15:00 AM 15.13 59.234 0.108 7.62 2.05 9.21
5/27/2021 6:30:00 AM 15.04 59.072 0.108 7.63 2.32 9.31
5/27/2021 6:45:00 AM 14.97 58.946 0.108 7.65 2.2 9.4
5/27/2021 7:00:00 AM 14.91 58.838 0.108 7.67 2.34 9.51
5/27/2021 7:15:00 AM 14.88 58.784 0.108 7.71 2.07 9.63
5/27/2021 7:30:00 AM 14.87 58.766 0.108 7.74 2.22 9.75
5/27/2021 7:45:00 AM 14.92 58.856 0.107 7.78 2.06 9.88
5/27/2021 8:00:00 AM 14.97 58.946 0.107 7.81 2.01 9.97
5/27/2021 8:15:00 AM 15.01 59.018 0.107 7.85 2.08 10.05
5/27/2021 8:30:00 AM 15.07 59.126 0.107 7.88 2.11 10.12
5/27/2021 8:45:00 AM 15.13 59.234 0.107 7.92 2.03 10.16
5/27/2021 9:00:00 AM 15.2 59.36 0.107 7.94 1.95 10.21
5/27/2021 9:15:00 AM 15.28 59.504 0.107 7.98 1.99 10.25
5/27/2021 9:30:00 AM 15.36 59.648 0.107 8.01 1.98 10.28
5/27/2021 9:45:00 AM 15.47 59.846 0.107 8.04 2.64 10.3
5/27/2021 10:00:00 AM 15.63 60.134 0.107 8.07 1.86 10.32
5/27/2021 10:15:00 AM 15.83 60.494 0.107 8.11 1.96 10.33
5/27/2021 10:30:00 AM 16.07 60.926 0.106 8.15 1.61 10.33
5/27/2021 10:45:00 AM 16.34 61.412 0.106 8.19 1.62 10.32
5/27/2021 11:00:00 AM 16.63 61.934 0.106 8.23 2.32 10.3
5/27/2021 11:15:00 AM 16.91 62.438 0.106 8.27 2.42 10.19
5/27/2021 11:30:00 AM 17.24 63.032 0.106 8.3 1.68 10.22
5/27/2021 11:45:00 AM 17.56 63.608 0.106 8.34 1.6 10.18
5/27/2021 12:00:00 PM 17.86 64.148 0.106 8.38 1.67 10.16
5/27/2021 12:15:00 PM 18.19 64.742 0.106 8.42 1.48 10.1
5/27/2021 12:30:00 PM 18.53 65.354 0.106 8.45 1.68 10.05
5/27/2021 12:45:00 PM 18.85 65.93 0.106 8.49 1.67 10.01
5/27/2021 1:00:00 PM 19.15 66.47 0.106 8.52 1.64 9.96
5/27/2021 1:15:00 PM 19.45 67.01 0.106 8.56 1.43 9.91
5/27/2021 1:30:00 PM 19.74 67.532 0.106 8.59 1.7 9.89
5/27/2021 1:45:00 PM 20 68 0.106 8.63 1.54 9.86
5/27/2021 2:00:00 PM 20.22 68.396 0.106 8.67 1.76 9.81
5/27/2021 2:15:00 PM 20.4 68.72 0.106 8.72 1.7 9.83
5/27/2021 2:30:00 PM 20.6 69.08 0.106 8.77 1.55 9.8
5/27/2021 2:45:00 PM 20.77 69.386 0.106 8.81 1.69 9.81
5/27/2021 3:00:00 PM 20.95 69.71 0.106 8.82 1.71 9.74
5/27/2021 3:15:00 PM 21.09 69.962 0.106 8.83 1.59 9.61
5/27/2021 3:30:00 PM 21.04 69.872 0.106 8.84 89.2 9.57
5/27/2021 3:45:00 PM 21.11 69.998 0.106 8.86 1.87 9.66
5/27/2021 4:00:00 PM 21.13 70.034 0.106 8.87 102.06 9.53
5/27/2021 4:15:00 PM 21.15 70.07 0.106 8.83 2.18 9.55
5/27/2021 4:30:00 PM 21.24 70.232 0.106 8.81 1.91 9.51
5/27/2021 4:45:00 PM 21.26 70.268 0.106 8.8 3.8 9.46
5/27/2021 5:00:00 PM 21.11 69.998 0.106 8.75 2.18 9.4
5/27/2021 5:15:00 PM 20.95 69.71 0.106 8.71 32.02 9.41
5/27/2021 5:30:00 PM 20.77 69.386 0.106 8.67 1.95 9.41
5/27/2021 5:45:00 PM 20.6 69.08 0.106 8.56 1.68 9.3
5/27/2021 6:00:00 PM 20.48 68.864 0.106 8.43 1.96 9.15
5/27/2021 6:15:00 PM 20.34 68.612 0.106 8.31 2.06 9.06
5/27/2021 6:30:00 PM 20.17 68.306 0.106 8.14 69.38 8.97
5/27/2021 6:45:00 PM 19.97 67.946 0.106 8.08 6.51 8.89
5/27/2021 7:00:00 PM 19.76 67.568 0.107 8.02 2.07 8.8
5/27/2021 7:15:00 PM 19.56 67.208 0.107 7.95 1.99 8.74
5/27/2021 7:30:00 PM 19.33 66.794 0.107 7.88 3.25 8.64
5/27/2021 7:45:00 PM 19.13 66.434 0.107 7.82 3.63 8.59
5/27/2021 8:00:00 PM 18.95 66.11 0.107 7.8 2.24 8.61
5/27/2021 8:15:00 PM 18.77 65.786 0.107 7.78 2.03 8.59
5/27/2021 8:30:00 PM 18.58 65.444 0.107 7.75 2.47 8.56
5/27/2021 8:45:00 PM 18.39 65.102 0.108 7.71 11.74 8.51
5/27/2021 9:00:00 PM 18.18 64.724 0.108 7.68 2.62 8.47
5/27/2021 9:15:00 PM 17.99 64.382 0.108 7.67 2.38 8.48
5/27/2021 9:30:00 PM 17.82 64.076 0.108 7.65 2.45 8.5
5/27/2021 9:45:00 PM 17.66 63.788 0.108 7.64 17.52 8.52
5/27/2021 10:00:00 PM 17.51 63.518 0.108 7.64 2.42 8.55
5/27/2021 10:15:00 PM 17.36 63.248 0.108 7.63 2.56 8.57
5/27/2021 10:30:00 PM 17.21 62.978 0.108 7.63 2.23 8.58
5/27/2021 10:45:00 PM 17.07 62.726 0.108 7.62 2.44 8.61
5/27/2021 11:00:00 PM 16.92 62.456 0.109 7.62 2.4 8.66
5/27/2021 11:15:00 PM 16.77 62.186 0.109 7.61 16.33 8.69
5/27/2021 11:30:00 PM 16.63 61.934 0.108 7.62 39.27 8.72
5/27/2021 11:45:00 PM 16.49 61.682 0.109 7.62 137.41 8.76
5/28/2021 12:00:00 AM 16.36 61.448 0.109 7.61 20.18 8.78
5/28/2021 12:15:00 AM 16.25 61.25 0.109 7.62 10.83 8.82
5/28/2021 12:30:00 AM 16.13 61.034 0.109 7.62 2.08 8.85
5/28/2021 12:45:00 AM 16.03 60.854 0.109 7.62 2.17 8.87
5/28/2021 1:00:00 AM 15.93 60.674 0.109 7.62 2.16 8.89
5/28/2021 1:15:00 AM 15.82 60.476 0.109 7.62 2.26 8.92
5/28/2021 1:30:00 AM 15.72 60.296 0.109 7.62 2.26 8.95
5/28/2021 1:45:00 AM 15.61 60.098 0.109 7.62 2.22 8.97
5/28/2021 2:00:00 AM 15.51 59.918 0.11 7.61 2.27 8.99
5/28/2021 2:15:00 AM 15.42 59.756 0.11 7.62 2.23 9.01
5/28/2021 2:30:00 AM 15.33 59.594 0.11 7.62 2.31 9
5/28/2021 2:45:00 AM 15.24 59.432 0.11 7.62 2.33 9.06
5/28/2021 3:00:00 AM 15.15 59.27 0.11 7.62 2.31 9.08
5/28/2021 3:15:00 AM 15.06 59.108 0.11 7.62 2.38 9.1
5/28/2021 3:30:00 AM 14.97 58.946 0.11 7.62 2.25 9.14
5/28/2021 3:45:00 AM 14.88 58.784 0.11 7.62 2.29 9.15
5/28/2021 4:00:00 AM 14.8 58.64 0.11 7.62 2.39 9.17
5/28/2021 4:15:00 AM 14.71 58.478 0.11 7.62 2.13 9.19
5/28/2021 4:30:00 AM 14.63 58.334 0.11 7.62 2.15 9.22
5/28/2021 4:45:00 AM 14.53 58.154 0.11 7.62 2.53 9.25
5/28/2021 5:00:00 AM 14.43 57.974 0.111 7.62 2.42 9.26
5/28/2021 5:15:00 AM 14.32 57.776 0.111 7.62 2.17 9.3
5/28/2021 5:30:00 AM 14.21 57.578 0.111 7.62 2.28 9.32
5/28/2021 5:45:00 AM 14.1 57.38 0.111 7.63 5.01 9.35
5/28/2021 6:00:00 AM 14.01 57.218 0.111 7.63 2.17 9.37
5/28/2021 6:15:00 AM 14 57.2 0.111 7.65 2.18 9.46
5/28/2021 6:30:00 AM 13.93 57.074 0.111 7.66 2.12 9.54
5/28/2021 6:45:00 AM 13.86 56.948 0.111 7.67 2.04 9.59
5/28/2021 7:00:00 AM 13.8 56.84 0.111 7.69 2.94 9.66
5/28/2021 7:15:00 AM 13.75 56.75 0.111 7.7 2.06 9.73
5/28/2021 7:30:00 AM 13.71 56.678 0.111 7.72 2.27 9.8
5/28/2021 7:45:00 AM 13.67 56.606 0.11 7.74 16.47 9.87
5/28/2021 8:00:00 AM 13.63 56.534 0.11 7.75 2.14 9.9
5/28/2021 8:15:00 AM 13.59 56.462 0.11 7.76 2.06 9.95
5/28/2021 8:30:00 AM 13.57 56.426 0.11 7.78 2.03 10.06
5/28/2021 8:45:00 AM 13.55 56.39 0.11 7.81 2.04 10.15
5/28/2021 9:00:00 AM 13.53 56.354 0.11 7.83 2.07 10.18
5/28/2021 9:15:00 AM 13.54 56.372 0.11 7.86 2.29 10.32
5/28/2021 9:30:00 AM 13.54 56.372 0.11 7.91 2.04 10.46
5/28/2021 9:45:00 AM 13